<?xml version="1.0" encoding="UTF-8" standalone="no" ?>
<gpx xmlns="http://www.topografix.com/GPX/1/1" xmlns:xsi="http://www.w3.org/2001/XMLSchema-instance" xsi:schemaLocation="http://www.topografix.com/GPX/1/1 http://www.topografix.com/GPX/1/1/gpx.xsd" version="1.1" creator="VisuGPX - https://www.visugpx.com">
  <metadata>
    <name>Namur 30 oct 2016</name>
    <desc><![CDATA[Très belle randonnée d'automne .soleil.visite de 
Tera Nova.

GUIDE: Jean-Marie]]></desc>
  </metadata>
  <trk>
    <name><![CDATA[NAMUR 30 10 2016]]></name>
    <trkseg>
      <trkpt lat="50.44614" lon="4.85929">
        <ele>89.54</ele>
        <time>2016-10-30T10:07:04Z</time>
      </trkpt>
      <trkpt lat="50.44614" lon="4.85929">
        <ele>89.54</ele>
        <time>2016-10-30T10:07:05Z</time>
      </trkpt>
      <trkpt lat="50.44615" lon="4.8593">
        <ele>86.66</ele>
        <time>2016-10-30T10:07:11Z</time>
      </trkpt>
      <trkpt lat="50.4462" lon="4.85933">
        <ele>86.66</ele>
        <time>2016-10-30T10:07:22Z</time>
      </trkpt>
      <trkpt lat="50.44621" lon="4.85935">
        <ele>86.66</ele>
        <time>2016-10-30T10:07:37Z</time>
      </trkpt>
      <trkpt lat="50.4463" lon="4.85938">
        <ele>86.66</ele>
        <time>2016-10-30T10:07:44Z</time>
      </trkpt>
      <trkpt lat="50.44649" lon="4.85939">
        <ele>86.66</ele>
        <time>2016-10-30T10:07:59Z</time>
      </trkpt>
      <trkpt lat="50.44666" lon="4.85942">
        <ele>86.66</ele>
        <time>2016-10-30T10:08:12Z</time>
      </trkpt>
      <trkpt lat="50.4469" lon="4.85949">
        <ele>86.66</ele>
        <time>2016-10-30T10:08:32Z</time>
      </trkpt>
      <trkpt lat="50.44701" lon="4.85946">
        <ele>86.66</ele>
        <time>2016-10-30T10:08:47Z</time>
      </trkpt>
      <trkpt lat="50.44709" lon="4.85948">
        <ele>86.66</ele>
        <time>2016-10-30T10:09:01Z</time>
      </trkpt>
      <trkpt lat="50.44723" lon="4.8595">
        <ele>86.66</ele>
        <time>2016-10-30T10:09:16Z</time>
      </trkpt>
      <trkpt lat="50.44738" lon="4.85954">
        <ele>86.66</ele>
        <time>2016-10-30T10:09:29Z</time>
      </trkpt>
      <trkpt lat="50.44761" lon="4.8596">
        <ele>86.66</ele>
        <time>2016-10-30T10:09:45Z</time>
      </trkpt>
      <trkpt lat="50.44787" lon="4.85964">
        <ele>86.66</ele>
        <time>2016-10-30T10:10:02Z</time>
      </trkpt>
      <trkpt lat="50.44808" lon="4.85968">
        <ele>86.66</ele>
        <time>2016-10-30T10:10:17Z</time>
      </trkpt>
      <trkpt lat="50.44812" lon="4.85965">
        <ele>86.66</ele>
        <time>2016-10-30T10:10:36Z</time>
      </trkpt>
      <trkpt lat="50.44814" lon="4.85965">
        <ele>87.14</ele>
        <time>2016-10-30T10:10:56Z</time>
      </trkpt>
      <trkpt lat="50.44811" lon="4.85966">
        <ele>87.14</ele>
        <time>2016-10-30T10:11:14Z</time>
      </trkpt>
      <trkpt lat="50.44812" lon="4.85966">
        <ele>87.14</ele>
        <time>2016-10-30T10:11:36Z</time>
      </trkpt>
      <trkpt lat="50.44814" lon="4.85969">
        <ele>87.14</ele>
        <time>2016-10-30T10:11:58Z</time>
      </trkpt>
      <trkpt lat="50.4483" lon="4.85974">
        <ele>86.66</ele>
        <time>2016-10-30T10:12:15Z</time>
      </trkpt>
      <trkpt lat="50.44833" lon="4.85976">
        <ele>86.66</ele>
        <time>2016-10-30T10:12:39Z</time>
      </trkpt>
      <trkpt lat="50.44845" lon="4.85979">
        <ele>86.66</ele>
        <time>2016-10-30T10:12:54Z</time>
      </trkpt>
      <trkpt lat="50.44863" lon="4.85983">
        <ele>86.66</ele>
        <time>2016-10-30T10:13:13Z</time>
      </trkpt>
      <trkpt lat="50.44879" lon="4.85987">
        <ele>86.66</ele>
        <time>2016-10-30T10:13:30Z</time>
      </trkpt>
      <trkpt lat="50.449" lon="4.85994">
        <ele>86.66</ele>
        <time>2016-10-30T10:13:50Z</time>
      </trkpt>
      <trkpt lat="50.44907" lon="4.85994">
        <ele>86.66</ele>
        <time>2016-10-30T10:13:57Z</time>
      </trkpt>
      <trkpt lat="50.44914" lon="4.85978">
        <ele>86.66</ele>
        <time>2016-10-30T10:14:09Z</time>
      </trkpt>
      <trkpt lat="50.44934" lon="4.8598">
        <ele>87.62</ele>
        <time>2016-10-30T10:14:27Z</time>
      </trkpt>
      <trkpt lat="50.44947" lon="4.85984">
        <ele>87.62</ele>
        <time>2016-10-30T10:14:41Z</time>
      </trkpt>
      <trkpt lat="50.44964" lon="4.85986">
        <ele>87.62</ele>
        <time>2016-10-30T10:14:56Z</time>
      </trkpt>
      <trkpt lat="50.44982" lon="4.85991">
        <ele>87.62</ele>
        <time>2016-10-30T10:15:12Z</time>
      </trkpt>
      <trkpt lat="50.45" lon="4.85992">
        <ele>87.14</ele>
        <time>2016-10-30T10:15:28Z</time>
      </trkpt>
      <trkpt lat="50.45017" lon="4.85995">
        <ele>87.14</ele>
        <time>2016-10-30T10:15:44Z</time>
      </trkpt>
      <trkpt lat="50.45036" lon="4.85999">
        <ele>87.14</ele>
        <time>2016-10-30T10:16:00Z</time>
      </trkpt>
      <trkpt lat="50.45051" lon="4.86001">
        <ele>87.14</ele>
        <time>2016-10-30T10:16:15Z</time>
      </trkpt>
      <trkpt lat="50.45061" lon="4.86005">
        <ele>87.14</ele>
        <time>2016-10-30T10:16:24Z</time>
      </trkpt>
      <trkpt lat="50.45064" lon="4.86013">
        <ele>87.14</ele>
        <time>2016-10-30T10:16:30Z</time>
      </trkpt>
      <trkpt lat="50.45065" lon="4.86034">
        <ele>86.66</ele>
        <time>2016-10-30T10:16:44Z</time>
      </trkpt>
      <trkpt lat="50.45088" lon="4.86047">
        <ele>86.66</ele>
        <time>2016-10-30T10:17:04Z</time>
      </trkpt>
      <trkpt lat="50.45109" lon="4.86051">
        <ele>86.66</ele>
        <time>2016-10-30T10:17:21Z</time>
      </trkpt>
      <trkpt lat="50.45128" lon="4.86046">
        <ele>86.66</ele>
        <time>2016-10-30T10:17:39Z</time>
      </trkpt>
      <trkpt lat="50.45134" lon="4.86047">
        <ele>86.66</ele>
        <time>2016-10-30T10:17:49Z</time>
      </trkpt>
      <trkpt lat="50.45154" lon="4.86059">
        <ele>86.66</ele>
        <time>2016-10-30T10:18:05Z</time>
      </trkpt>
      <trkpt lat="50.45157" lon="4.86064">
        <ele>86.66</ele>
        <time>2016-10-30T10:18:13Z</time>
      </trkpt>
      <trkpt lat="50.45154" lon="4.86084">
        <ele>86.66</ele>
        <time>2016-10-30T10:18:30Z</time>
      </trkpt>
      <trkpt lat="50.45132" lon="4.86079">
        <ele>86.66</ele>
        <time>2016-10-30T10:18:48Z</time>
      </trkpt>
      <trkpt lat="50.45117" lon="4.86074">
        <ele>86.66</ele>
        <time>2016-10-30T10:19:02Z</time>
      </trkpt>
      <trkpt lat="50.45116" lon="4.86073">
        <ele>86.66</ele>
        <time>2016-10-30T10:19:04Z</time>
      </trkpt>
      <trkpt lat="50.45106" lon="4.86074">
        <ele>86.66</ele>
        <time>2016-10-30T10:19:20Z</time>
      </trkpt>
      <trkpt lat="50.45103" lon="4.86073">
        <ele>86.66</ele>
        <time>2016-10-30T10:19:30Z</time>
      </trkpt>
      <trkpt lat="50.4508" lon="4.86069">
        <ele>86.66</ele>
        <time>2016-10-30T10:19:50Z</time>
      </trkpt>
      <trkpt lat="50.45073" lon="4.86066">
        <ele>86.18</ele>
        <time>2016-10-30T10:20:04Z</time>
      </trkpt>
      <trkpt lat="50.45058" lon="4.86069">
        <ele>86.66</ele>
        <time>2016-10-30T10:20:20Z</time>
      </trkpt>
      <trkpt lat="50.45056" lon="4.86072">
        <ele>88.1</ele>
        <time>2016-10-30T10:20:26Z</time>
      </trkpt>
      <trkpt lat="50.45056" lon="4.86086">
        <ele>88.1</ele>
        <time>2016-10-30T10:20:40Z</time>
      </trkpt>
      <trkpt lat="50.45057" lon="4.86086">
        <ele>88.1</ele>
        <time>2016-10-30T10:20:44Z</time>
      </trkpt>
      <trkpt lat="50.45054" lon="4.86124">
        <ele>88.58</ele>
        <time>2016-10-30T10:21:03Z</time>
      </trkpt>
      <trkpt lat="50.45052" lon="4.86158">
        <ele>88.58</ele>
        <time>2016-10-30T10:21:19Z</time>
      </trkpt>
      <trkpt lat="50.45048" lon="4.86198">
        <ele>88.58</ele>
        <time>2016-10-30T10:21:39Z</time>
      </trkpt>
      <trkpt lat="50.45047" lon="4.86199">
        <ele>88.58</ele>
        <time>2016-10-30T10:21:53Z</time>
      </trkpt>
      <trkpt lat="50.45048" lon="4.86198">
        <ele>88.58</ele>
        <time>2016-10-30T10:22:21Z</time>
      </trkpt>
      <trkpt lat="50.45046" lon="4.86223">
        <ele>88.58</ele>
        <time>2016-10-30T10:22:35Z</time>
      </trkpt>
      <trkpt lat="50.45047" lon="4.86239">
        <ele>88.1</ele>
        <time>2016-10-30T10:22:44Z</time>
      </trkpt>
      <trkpt lat="50.45053" lon="4.86243">
        <ele>87.14</ele>
        <time>2016-10-30T10:22:49Z</time>
      </trkpt>
      <trkpt lat="50.4507" lon="4.86255">
        <ele>87.14</ele>
        <time>2016-10-30T10:23:03Z</time>
      </trkpt>
      <trkpt lat="50.45093" lon="4.86259">
        <ele>87.14</ele>
        <time>2016-10-30T10:23:20Z</time>
      </trkpt>
      <trkpt lat="50.45116" lon="4.86263">
        <ele>87.14</ele>
        <time>2016-10-30T10:23:36Z</time>
      </trkpt>
      <trkpt lat="50.45137" lon="4.86267">
        <ele>86.66</ele>
        <time>2016-10-30T10:23:52Z</time>
      </trkpt>
      <trkpt lat="50.45167" lon="4.8627">
        <ele>86.66</ele>
        <time>2016-10-30T10:24:12Z</time>
      </trkpt>
      <trkpt lat="50.45193" lon="4.86268">
        <ele>85.69</ele>
        <time>2016-10-30T10:24:31Z</time>
      </trkpt>
      <trkpt lat="50.45214" lon="4.86268">
        <ele>85.69</ele>
        <time>2016-10-30T10:24:48Z</time>
      </trkpt>
      <trkpt lat="50.45235" lon="4.8627">
        <ele>85.69</ele>
        <time>2016-10-30T10:25:06Z</time>
      </trkpt>
      <trkpt lat="50.45254" lon="4.86272">
        <ele>85.69</ele>
        <time>2016-10-30T10:25:23Z</time>
      </trkpt>
      <trkpt lat="50.45273" lon="4.86275">
        <ele>85.21</ele>
        <time>2016-10-30T10:25:39Z</time>
      </trkpt>
      <trkpt lat="50.45285" lon="4.86276">
        <ele>85.21</ele>
        <time>2016-10-30T10:25:51Z</time>
      </trkpt>
      <trkpt lat="50.4529" lon="4.86277">
        <ele>85.21</ele>
        <time>2016-10-30T10:25:56Z</time>
      </trkpt>
      <trkpt lat="50.45316" lon="4.86285">
        <ele>84.73</ele>
        <time>2016-10-30T10:26:19Z</time>
      </trkpt>
      <trkpt lat="50.4533" lon="4.86289">
        <ele>84.25</ele>
        <time>2016-10-30T10:26:33Z</time>
      </trkpt>
      <trkpt lat="50.45353" lon="4.86298">
        <ele>84.25</ele>
        <time>2016-10-30T10:26:54Z</time>
      </trkpt>
      <trkpt lat="50.4536" lon="4.86303">
        <ele>84.25</ele>
        <time>2016-10-30T10:27:00Z</time>
      </trkpt>
      <trkpt lat="50.45363" lon="4.86306">
        <ele>84.25</ele>
        <time>2016-10-30T10:27:03Z</time>
      </trkpt>
      <trkpt lat="50.45381" lon="4.8632">
        <ele>84.25</ele>
        <time>2016-10-30T10:27:19Z</time>
      </trkpt>
      <trkpt lat="50.45396" lon="4.8633">
        <ele>84.25</ele>
        <time>2016-10-30T10:27:35Z</time>
      </trkpt>
      <trkpt lat="50.45401" lon="4.86338">
        <ele>84.25</ele>
        <time>2016-10-30T10:27:42Z</time>
      </trkpt>
      <trkpt lat="50.45421" lon="4.86349">
        <ele>85.21</ele>
        <time>2016-10-30T10:28:01Z</time>
      </trkpt>
      <trkpt lat="50.45435" lon="4.86358">
        <ele>85.21</ele>
        <time>2016-10-30T10:28:17Z</time>
      </trkpt>
      <trkpt lat="50.45453" lon="4.86372">
        <ele>85.21</ele>
        <time>2016-10-30T10:28:35Z</time>
      </trkpt>
      <trkpt lat="50.45467" lon="4.86384">
        <ele>85.21</ele>
        <time>2016-10-30T10:28:50Z</time>
      </trkpt>
      <trkpt lat="50.45482" lon="4.864">
        <ele>85.21</ele>
        <time>2016-10-30T10:29:06Z</time>
      </trkpt>
      <trkpt lat="50.45498" lon="4.86413">
        <ele>85.21</ele>
        <time>2016-10-30T10:29:23Z</time>
      </trkpt>
      <trkpt lat="50.45513" lon="4.86429">
        <ele>85.21</ele>
        <time>2016-10-30T10:29:39Z</time>
      </trkpt>
      <trkpt lat="50.45527" lon="4.86437">
        <ele>84.73</ele>
        <time>2016-10-30T10:29:55Z</time>
      </trkpt>
      <trkpt lat="50.45537" lon="4.86432">
        <ele>84.73</ele>
        <time>2016-10-30T10:30:10Z</time>
      </trkpt>
      <trkpt lat="50.45543" lon="4.86434">
        <ele>83.77</ele>
        <time>2016-10-30T10:30:24Z</time>
      </trkpt>
      <trkpt lat="50.45547" lon="4.86436">
        <ele>83.77</ele>
        <time>2016-10-30T10:30:40Z</time>
      </trkpt>
      <trkpt lat="50.45548" lon="4.86433">
        <ele>83.29</ele>
        <time>2016-10-30T10:30:49Z</time>
      </trkpt>
      <trkpt lat="50.45565" lon="4.86443">
        <ele>82.33</ele>
        <time>2016-10-30T10:31:08Z</time>
      </trkpt>
      <trkpt lat="50.45579" lon="4.86457">
        <ele>82.33</ele>
        <time>2016-10-30T10:31:25Z</time>
      </trkpt>
      <trkpt lat="50.45588" lon="4.86464">
        <ele>82.81</ele>
        <time>2016-10-30T10:31:32Z</time>
      </trkpt>
      <trkpt lat="50.45604" lon="4.86481">
        <ele>82.33</ele>
        <time>2016-10-30T10:31:47Z</time>
      </trkpt>
      <trkpt lat="50.45631" lon="4.86506">
        <ele>82.33</ele>
        <time>2016-10-30T10:32:09Z</time>
      </trkpt>
      <trkpt lat="50.4566" lon="4.86532">
        <ele>82.33</ele>
        <time>2016-10-30T10:32:31Z</time>
      </trkpt>
      <trkpt lat="50.45663" lon="4.86539">
        <ele>82.33</ele>
        <time>2016-10-30T10:32:45Z</time>
      </trkpt>
      <trkpt lat="50.45676" lon="4.86558">
        <ele>82.81</ele>
        <time>2016-10-30T10:33:00Z</time>
      </trkpt>
      <trkpt lat="50.45681" lon="4.86574">
        <ele>84.25</ele>
        <time>2016-10-30T10:33:15Z</time>
      </trkpt>
      <trkpt lat="50.45688" lon="4.86585">
        <ele>86.18</ele>
        <time>2016-10-30T10:33:30Z</time>
      </trkpt>
      <trkpt lat="50.45694" lon="4.86598">
        <ele>86.18</ele>
        <time>2016-10-30T10:33:44Z</time>
      </trkpt>
      <trkpt lat="50.45703" lon="4.86618">
        <ele>86.18</ele>
        <time>2016-10-30T10:34:00Z</time>
      </trkpt>
      <trkpt lat="50.45717" lon="4.86631">
        <ele>86.18</ele>
        <time>2016-10-30T10:34:18Z</time>
      </trkpt>
      <trkpt lat="50.45733" lon="4.86644">
        <ele>86.18</ele>
        <time>2016-10-30T10:34:37Z</time>
      </trkpt>
      <trkpt lat="50.45746" lon="4.86654">
        <ele>86.18</ele>
        <time>2016-10-30T10:34:52Z</time>
      </trkpt>
      <trkpt lat="50.45759" lon="4.86665">
        <ele>85.69</ele>
        <time>2016-10-30T10:35:07Z</time>
      </trkpt>
      <trkpt lat="50.45771" lon="4.86676">
        <ele>85.69</ele>
        <time>2016-10-30T10:35:23Z</time>
      </trkpt>
      <trkpt lat="50.45782" lon="4.86689">
        <ele>86.18</ele>
        <time>2016-10-30T10:35:39Z</time>
      </trkpt>
      <trkpt lat="50.45787" lon="4.86688">
        <ele>86.18</ele>
        <time>2016-10-30T10:35:58Z</time>
      </trkpt>
      <trkpt lat="50.45793" lon="4.86678">
        <ele>87.14</ele>
        <time>2016-10-30T10:36:16Z</time>
      </trkpt>
      <trkpt lat="50.45795" lon="4.86676">
        <ele>87.14</ele>
        <time>2016-10-30T10:36:19Z</time>
      </trkpt>
      <trkpt lat="50.45806" lon="4.86649">
        <ele>88.58</ele>
        <time>2016-10-30T10:36:38Z</time>
      </trkpt>
      <trkpt lat="50.45817" lon="4.86627">
        <ele>89.54</ele>
        <time>2016-10-30T10:36:53Z</time>
      </trkpt>
      <trkpt lat="50.45828" lon="4.86602">
        <ele>90.98</ele>
        <time>2016-10-30T10:37:10Z</time>
      </trkpt>
      <trkpt lat="50.4584" lon="4.86576">
        <ele>90.98</ele>
        <time>2016-10-30T10:37:27Z</time>
      </trkpt>
      <trkpt lat="50.45851" lon="4.8655">
        <ele>88.58</ele>
        <time>2016-10-30T10:37:44Z</time>
      </trkpt>
      <trkpt lat="50.45863" lon="4.86525">
        <ele>88.58</ele>
        <time>2016-10-30T10:38:01Z</time>
      </trkpt>
      <trkpt lat="50.45866" lon="4.86517">
        <ele>87.62</ele>
        <time>2016-10-30T10:38:15Z</time>
      </trkpt>
      <trkpt lat="50.45867" lon="4.86519">
        <ele>87.62</ele>
        <time>2016-10-30T10:38:18Z</time>
      </trkpt>
      <trkpt lat="50.45881" lon="4.86525">
        <ele>87.14</ele>
        <time>2016-10-30T10:38:34Z</time>
      </trkpt>
      <trkpt lat="50.45895" lon="4.86543">
        <ele>86.66</ele>
        <time>2016-10-30T10:38:52Z</time>
      </trkpt>
      <trkpt lat="50.45893" lon="4.86546">
        <ele>86.66</ele>
        <time>2016-10-30T10:39:06Z</time>
      </trkpt>
      <trkpt lat="50.45894" lon="4.86549">
        <ele>86.66</ele>
        <time>2016-10-30T10:39:20Z</time>
      </trkpt>
      <trkpt lat="50.4589" lon="4.86545">
        <ele>84.73</ele>
        <time>2016-10-30T10:39:28Z</time>
      </trkpt>
      <trkpt lat="50.45884" lon="4.86539">
        <ele>83.29</ele>
        <time>2016-10-30T10:39:38Z</time>
      </trkpt>
      <trkpt lat="50.45879" lon="4.86534">
        <ele>81.37</ele>
        <time>2016-10-30T10:39:50Z</time>
      </trkpt>
      <trkpt lat="50.45895" lon="4.8656">
        <ele>81.37</ele>
        <time>2016-10-30T10:40:08Z</time>
      </trkpt>
      <trkpt lat="50.45899" lon="4.86564">
        <ele>81.37</ele>
        <time>2016-10-30T10:40:25Z</time>
      </trkpt>
      <trkpt lat="50.45896" lon="4.86564">
        <ele>81.37</ele>
        <time>2016-10-30T10:40:51Z</time>
      </trkpt>
      <trkpt lat="50.45897" lon="4.86563">
        <ele>81.37</ele>
        <time>2016-10-30T10:41:15Z</time>
      </trkpt>
      <trkpt lat="50.45903" lon="4.86576">
        <ele>81.37</ele>
        <time>2016-10-30T10:41:39Z</time>
      </trkpt>
      <trkpt lat="50.45904" lon="4.86579">
        <ele>81.37</ele>
        <time>2016-10-30T10:41:41Z</time>
      </trkpt>
      <trkpt lat="50.45918" lon="4.86607">
        <ele>82.33</ele>
        <time>2016-10-30T10:42:01Z</time>
      </trkpt>
      <trkpt lat="50.45926" lon="4.86624">
        <ele>81.37</ele>
        <time>2016-10-30T10:42:15Z</time>
      </trkpt>
      <trkpt lat="50.45936" lon="4.86646">
        <ele>81.37</ele>
        <time>2016-10-30T10:42:31Z</time>
      </trkpt>
      <trkpt lat="50.45941" lon="4.86659">
        <ele>81.37</ele>
        <time>2016-10-30T10:42:41Z</time>
      </trkpt>
      <trkpt lat="50.45953" lon="4.86685">
        <ele>81.37</ele>
        <time>2016-10-30T10:42:58Z</time>
      </trkpt>
      <trkpt lat="50.45961" lon="4.86699">
        <ele>81.37</ele>
        <time>2016-10-30T10:43:13Z</time>
      </trkpt>
      <trkpt lat="50.45961" lon="4.86701">
        <ele>81.37</ele>
        <time>2016-10-30T10:43:32Z</time>
      </trkpt>
      <trkpt lat="50.45961" lon="4.86702">
        <ele>82.33</ele>
        <time>2016-10-30T10:43:37Z</time>
      </trkpt>
      <trkpt lat="50.45966" lon="4.86712">
        <ele>82.33</ele>
        <time>2016-10-30T10:43:52Z</time>
      </trkpt>
      <trkpt lat="50.45977" lon="4.8673">
        <ele>82.33</ele>
        <time>2016-10-30T10:44:07Z</time>
      </trkpt>
      <trkpt lat="50.45989" lon="4.86754">
        <ele>82.33</ele>
        <time>2016-10-30T10:44:24Z</time>
      </trkpt>
      <trkpt lat="50.4599" lon="4.86755">
        <ele>82.33</ele>
        <time>2016-10-30T10:45:01Z</time>
      </trkpt>
      <trkpt lat="50.4599" lon="4.86755">
        <ele>82.33</ele>
        <time>2016-10-30T10:45:06Z</time>
      </trkpt>
      <trkpt lat="50.45992" lon="4.86757">
        <ele>82.33</ele>
        <time>2016-10-30T10:45:09Z</time>
      </trkpt>
      <trkpt lat="50.46005" lon="4.86777">
        <ele>83.29</ele>
        <time>2016-10-30T10:45:27Z</time>
      </trkpt>
      <trkpt lat="50.46007" lon="4.86782">
        <ele>81.85</ele>
        <time>2016-10-30T10:45:31Z</time>
      </trkpt>
      <trkpt lat="50.4601" lon="4.86787">
        <ele>81.85</ele>
        <time>2016-10-30T10:45:34Z</time>
      </trkpt>
      <trkpt lat="50.46026" lon="4.86811">
        <ele>81.85</ele>
        <time>2016-10-30T10:45:52Z</time>
      </trkpt>
      <trkpt lat="50.46031" lon="4.8682">
        <ele>81.85</ele>
        <time>2016-10-30T10:45:59Z</time>
      </trkpt>
      <trkpt lat="50.46043" lon="4.86841">
        <ele>81.85</ele>
        <time>2016-10-30T10:46:15Z</time>
      </trkpt>
      <trkpt lat="50.46055" lon="4.86863">
        <ele>81.85</ele>
        <time>2016-10-30T10:46:32Z</time>
      </trkpt>
      <trkpt lat="50.46062" lon="4.86873">
        <ele>81.85</ele>
        <time>2016-10-30T10:46:41Z</time>
      </trkpt>
      <trkpt lat="50.46063" lon="4.86876">
        <ele>81.85</ele>
        <time>2016-10-30T10:46:43Z</time>
      </trkpt>
      <trkpt lat="50.46076" lon="4.869">
        <ele>81.85</ele>
        <time>2016-10-30T10:47:00Z</time>
      </trkpt>
      <trkpt lat="50.46081" lon="4.86911">
        <ele>81.85</ele>
        <time>2016-10-30T10:47:08Z</time>
      </trkpt>
      <trkpt lat="50.46092" lon="4.86929">
        <ele>81.85</ele>
        <time>2016-10-30T10:47:23Z</time>
      </trkpt>
      <trkpt lat="50.46105" lon="4.86951">
        <ele>81.85</ele>
        <time>2016-10-30T10:47:39Z</time>
      </trkpt>
      <trkpt lat="50.46122" lon="4.86972">
        <ele>81.85</ele>
        <time>2016-10-30T10:47:55Z</time>
      </trkpt>
      <trkpt lat="50.46134" lon="4.8699">
        <ele>81.85</ele>
        <time>2016-10-30T10:48:09Z</time>
      </trkpt>
      <trkpt lat="50.46149" lon="4.87014">
        <ele>81.85</ele>
        <time>2016-10-30T10:48:27Z</time>
      </trkpt>
      <trkpt lat="50.4616" lon="4.87031">
        <ele>81.85</ele>
        <time>2016-10-30T10:48:42Z</time>
      </trkpt>
      <trkpt lat="50.46162" lon="4.87032">
        <ele>81.85</ele>
        <time>2016-10-30T10:48:58Z</time>
      </trkpt>
      <trkpt lat="50.46161" lon="4.87031">
        <ele>82.81</ele>
        <time>2016-10-30T10:49:18Z</time>
      </trkpt>
      <trkpt lat="50.46163" lon="4.87033">
        <ele>82.81</ele>
        <time>2016-10-30T10:49:34Z</time>
      </trkpt>
      <trkpt lat="50.46163" lon="4.87036">
        <ele>82.81</ele>
        <time>2016-10-30T10:49:52Z</time>
      </trkpt>
      <trkpt lat="50.46163" lon="4.87033">
        <ele>82.33</ele>
        <time>2016-10-30T10:50:10Z</time>
      </trkpt>
      <trkpt lat="50.4616" lon="4.87031">
        <ele>82.33</ele>
        <time>2016-10-30T10:50:32Z</time>
      </trkpt>
      <trkpt lat="50.46161" lon="4.87032">
        <ele>82.33</ele>
        <time>2016-10-30T10:50:56Z</time>
      </trkpt>
      <trkpt lat="50.46161" lon="4.87031">
        <ele>82.33</ele>
        <time>2016-10-30T10:51:23Z</time>
      </trkpt>
      <trkpt lat="50.46161" lon="4.8703">
        <ele>82.33</ele>
        <time>2016-10-30T10:51:48Z</time>
      </trkpt>
      <trkpt lat="50.46161" lon="4.87029">
        <ele>81.85</ele>
        <time>2016-10-30T10:52:10Z</time>
      </trkpt>
      <trkpt lat="50.46163" lon="4.8703">
        <ele>81.85</ele>
        <time>2016-10-30T10:52:35Z</time>
      </trkpt>
      <trkpt lat="50.46169" lon="4.87032">
        <ele>81.85</ele>
        <time>2016-10-30T10:52:44Z</time>
      </trkpt>
      <trkpt lat="50.46178" lon="4.87036">
        <ele>81.85</ele>
        <time>2016-10-30T10:52:59Z</time>
      </trkpt>
      <trkpt lat="50.46179" lon="4.87032">
        <ele>81.85</ele>
        <time>2016-10-30T10:53:02Z</time>
      </trkpt>
      <trkpt lat="50.46179" lon="4.87011">
        <ele>81.85</ele>
        <time>2016-10-30T10:53:13Z</time>
      </trkpt>
      <trkpt lat="50.46183" lon="4.86988">
        <ele>81.37</ele>
        <time>2016-10-30T10:53:27Z</time>
      </trkpt>
      <trkpt lat="50.46183" lon="4.86966">
        <ele>80.89</ele>
        <time>2016-10-30T10:53:40Z</time>
      </trkpt>
      <trkpt lat="50.46183" lon="4.86948">
        <ele>80.89</ele>
        <time>2016-10-30T10:53:52Z</time>
      </trkpt>
      <trkpt lat="50.46188" lon="4.86932">
        <ele>80.89</ele>
        <time>2016-10-30T10:54:05Z</time>
      </trkpt>
      <trkpt lat="50.46191" lon="4.86931">
        <ele>80.89</ele>
        <time>2016-10-30T10:54:25Z</time>
      </trkpt>
      <trkpt lat="50.46192" lon="4.86929">
        <ele>80.89</ele>
        <time>2016-10-30T10:54:46Z</time>
      </trkpt>
      <trkpt lat="50.46194" lon="4.86923">
        <ele>80.89</ele>
        <time>2016-10-30T10:54:51Z</time>
      </trkpt>
      <trkpt lat="50.46195" lon="4.86918">
        <ele>80.89</ele>
        <time>2016-10-30T10:54:54Z</time>
      </trkpt>
      <trkpt lat="50.46197" lon="4.86913">
        <ele>80.89</ele>
        <time>2016-10-30T10:54:58Z</time>
      </trkpt>
      <trkpt lat="50.46198" lon="4.8689">
        <ele>80.89</ele>
        <time>2016-10-30T10:55:12Z</time>
      </trkpt>
      <trkpt lat="50.46198" lon="4.86878">
        <ele>80.89</ele>
        <time>2016-10-30T10:55:18Z</time>
      </trkpt>
      <trkpt lat="50.462" lon="4.86851">
        <ele>81.37</ele>
        <time>2016-10-30T10:55:33Z</time>
      </trkpt>
      <trkpt lat="50.46201" lon="4.86846">
        <ele>81.37</ele>
        <time>2016-10-30T10:55:36Z</time>
      </trkpt>
      <trkpt lat="50.46202" lon="4.8683">
        <ele>81.37</ele>
        <time>2016-10-30T10:55:47Z</time>
      </trkpt>
      <trkpt lat="50.46203" lon="4.8681">
        <ele>81.37</ele>
        <time>2016-10-30T10:56:00Z</time>
      </trkpt>
      <trkpt lat="50.46206" lon="4.86798">
        <ele>81.37</ele>
        <time>2016-10-30T10:56:11Z</time>
      </trkpt>
      <trkpt lat="50.46201" lon="4.86778">
        <ele>81.37</ele>
        <time>2016-10-30T10:56:25Z</time>
      </trkpt>
      <trkpt lat="50.46201" lon="4.86758">
        <ele>81.85</ele>
        <time>2016-10-30T10:56:39Z</time>
      </trkpt>
      <trkpt lat="50.46209" lon="4.86747">
        <ele>81.85</ele>
        <time>2016-10-30T10:57:04Z</time>
      </trkpt>
      <trkpt lat="50.46209" lon="4.8673">
        <ele>81.85</ele>
        <time>2016-10-30T10:57:17Z</time>
      </trkpt>
      <trkpt lat="50.4621" lon="4.86722">
        <ele>81.85</ele>
        <time>2016-10-30T10:57:22Z</time>
      </trkpt>
      <trkpt lat="50.46211" lon="4.86709">
        <ele>82.33</ele>
        <time>2016-10-30T10:57:33Z</time>
      </trkpt>
      <trkpt lat="50.46212" lon="4.86683">
        <ele>82.33</ele>
        <time>2016-10-30T10:57:50Z</time>
      </trkpt>
      <trkpt lat="50.46211" lon="4.8668">
        <ele>82.33</ele>
        <time>2016-10-30T10:57:52Z</time>
      </trkpt>
      <trkpt lat="50.46209" lon="4.86651">
        <ele>82.33</ele>
        <time>2016-10-30T10:58:10Z</time>
      </trkpt>
      <trkpt lat="50.46206" lon="4.8664">
        <ele>82.81</ele>
        <time>2016-10-30T10:58:17Z</time>
      </trkpt>
      <trkpt lat="50.46199" lon="4.86616">
        <ele>82.81</ele>
        <time>2016-10-30T10:58:35Z</time>
      </trkpt>
      <trkpt lat="50.46195" lon="4.86597">
        <ele>82.81</ele>
        <time>2016-10-30T10:58:49Z</time>
      </trkpt>
      <trkpt lat="50.46193" lon="4.8659">
        <ele>83.29</ele>
        <time>2016-10-30T10:58:54Z</time>
      </trkpt>
      <trkpt lat="50.46194" lon="4.86586">
        <ele>83.29</ele>
        <time>2016-10-30T10:58:57Z</time>
      </trkpt>
      <trkpt lat="50.46194" lon="4.86582">
        <ele>83.29</ele>
        <time>2016-10-30T10:59:00Z</time>
      </trkpt>
      <trkpt lat="50.46191" lon="4.86557">
        <ele>83.29</ele>
        <time>2016-10-30T10:59:15Z</time>
      </trkpt>
      <trkpt lat="50.46191" lon="4.8655">
        <ele>83.29</ele>
        <time>2016-10-30T10:59:21Z</time>
      </trkpt>
      <trkpt lat="50.46186" lon="4.86527">
        <ele>83.77</ele>
        <time>2016-10-30T10:59:34Z</time>
      </trkpt>
      <trkpt lat="50.46185" lon="4.86521">
        <ele>83.77</ele>
        <time>2016-10-30T10:59:39Z</time>
      </trkpt>
      <trkpt lat="50.46184" lon="4.86497">
        <ele>84.25</ele>
        <time>2016-10-30T10:59:53Z</time>
      </trkpt>
      <trkpt lat="50.46185" lon="4.86489">
        <ele>84.25</ele>
        <time>2016-10-30T10:59:57Z</time>
      </trkpt>
      <trkpt lat="50.46185" lon="4.86467">
        <ele>85.69</ele>
        <time>2016-10-30T11:00:08Z</time>
      </trkpt>
      <trkpt lat="50.46183" lon="4.86464">
        <ele>85.69</ele>
        <time>2016-10-30T11:00:10Z</time>
      </trkpt>
      <trkpt lat="50.46182" lon="4.86456">
        <ele>86.66</ele>
        <time>2016-10-30T11:00:14Z</time>
      </trkpt>
      <trkpt lat="50.46179" lon="4.86437">
        <ele>87.14</ele>
        <time>2016-10-30T11:00:24Z</time>
      </trkpt>
      <trkpt lat="50.46151" lon="4.86412">
        <ele>88.1</ele>
        <time>2016-10-30T11:00:40Z</time>
      </trkpt>
      <trkpt lat="50.46134" lon="4.86415">
        <ele>90.02</ele>
        <time>2016-10-30T11:00:53Z</time>
      </trkpt>
      <trkpt lat="50.46133" lon="4.8642">
        <ele>90.02</ele>
        <time>2016-10-30T11:00:56Z</time>
      </trkpt>
      <trkpt lat="50.46129" lon="4.86457">
        <ele>90.02</ele>
        <time>2016-10-30T11:01:14Z</time>
      </trkpt>
      <trkpt lat="50.46131" lon="4.86486">
        <ele>90.02</ele>
        <time>2016-10-30T11:01:31Z</time>
      </trkpt>
      <trkpt lat="50.46132" lon="4.86504">
        <ele>90.02</ele>
        <time>2016-10-30T11:01:45Z</time>
      </trkpt>
      <trkpt lat="50.46134" lon="4.86509">
        <ele>89.54</ele>
        <time>2016-10-30T11:02:10Z</time>
      </trkpt>
      <trkpt lat="50.46133" lon="4.86507">
        <ele>89.54</ele>
        <time>2016-10-30T11:02:34Z</time>
      </trkpt>
      <trkpt lat="50.46136" lon="4.86525">
        <ele>89.06</ele>
        <time>2016-10-30T11:02:52Z</time>
      </trkpt>
      <trkpt lat="50.46138" lon="4.86545">
        <ele>89.06</ele>
        <time>2016-10-30T11:03:06Z</time>
      </trkpt>
      <trkpt lat="50.46138" lon="4.8655">
        <ele>89.06</ele>
        <time>2016-10-30T11:03:10Z</time>
      </trkpt>
      <trkpt lat="50.4614" lon="4.86562">
        <ele>88.58</ele>
        <time>2016-10-30T11:03:21Z</time>
      </trkpt>
      <trkpt lat="50.46146" lon="4.86583">
        <ele>88.58</ele>
        <time>2016-10-30T11:03:36Z</time>
      </trkpt>
      <trkpt lat="50.46147" lon="4.86585">
        <ele>88.58</ele>
        <time>2016-10-30T11:03:37Z</time>
      </trkpt>
      <trkpt lat="50.46148" lon="4.86616">
        <ele>88.1</ele>
        <time>2016-10-30T11:03:51Z</time>
      </trkpt>
      <trkpt lat="50.46152" lon="4.86635">
        <ele>88.1</ele>
        <time>2016-10-30T11:04:03Z</time>
      </trkpt>
      <trkpt lat="50.46156" lon="4.86654">
        <ele>88.1</ele>
        <time>2016-10-30T11:04:12Z</time>
      </trkpt>
      <trkpt lat="50.46159" lon="4.86669">
        <ele>88.1</ele>
        <time>2016-10-30T11:04:21Z</time>
      </trkpt>
      <trkpt lat="50.46162" lon="4.86696">
        <ele>87.62</ele>
        <time>2016-10-30T11:04:36Z</time>
      </trkpt>
      <trkpt lat="50.4617" lon="4.8672">
        <ele>87.62</ele>
        <time>2016-10-30T11:04:51Z</time>
      </trkpt>
      <trkpt lat="50.46171" lon="4.86739">
        <ele>87.62</ele>
        <time>2016-10-30T11:05:01Z</time>
      </trkpt>
      <trkpt lat="50.46166" lon="4.86758">
        <ele>86.18</ele>
        <time>2016-10-30T11:05:16Z</time>
      </trkpt>
      <trkpt lat="50.4617" lon="4.86791">
        <ele>87.62</ele>
        <time>2016-10-30T11:05:35Z</time>
      </trkpt>
      <trkpt lat="50.46171" lon="4.86791">
        <ele>87.62</ele>
        <time>2016-10-30T11:05:36Z</time>
      </trkpt>
      <trkpt lat="50.4619" lon="4.86783">
        <ele>88.58</ele>
        <time>2016-10-30T11:05:55Z</time>
      </trkpt>
      <trkpt lat="50.46207" lon="4.86776">
        <ele>88.58</ele>
        <time>2016-10-30T11:06:10Z</time>
      </trkpt>
      <trkpt lat="50.46209" lon="4.86776">
        <ele>88.1</ele>
        <time>2016-10-30T11:06:25Z</time>
      </trkpt>
      <trkpt lat="50.46208" lon="4.86778">
        <ele>86.66</ele>
        <time>2016-10-30T11:06:35Z</time>
      </trkpt>
      <trkpt lat="50.46204" lon="4.86779">
        <ele>86.66</ele>
        <time>2016-10-30T11:07:00Z</time>
      </trkpt>
      <trkpt lat="50.46211" lon="4.8679">
        <ele>86.66</ele>
        <time>2016-10-30T11:07:26Z</time>
      </trkpt>
      <trkpt lat="50.46211" lon="4.86791">
        <ele>86.66</ele>
        <time>2016-10-30T11:07:48Z</time>
      </trkpt>
      <trkpt lat="50.46219" lon="4.8679">
        <ele>86.18</ele>
        <time>2016-10-30T11:08:24Z</time>
      </trkpt>
      <trkpt lat="50.46218" lon="4.86797">
        <ele>86.18</ele>
        <time>2016-10-30T11:08:40Z</time>
      </trkpt>
      <trkpt lat="50.4622" lon="4.86794">
        <ele>85.69</ele>
        <time>2016-10-30T11:08:59Z</time>
      </trkpt>
      <trkpt lat="50.46225" lon="4.8679">
        <ele>85.69</ele>
        <time>2016-10-30T11:09:24Z</time>
      </trkpt>
      <trkpt lat="50.46226" lon="4.86787">
        <ele>85.21</ele>
        <time>2016-10-30T11:09:44Z</time>
      </trkpt>
      <trkpt lat="50.4623" lon="4.86778">
        <ele>85.21</ele>
        <time>2016-10-30T11:09:59Z</time>
      </trkpt>
      <trkpt lat="50.46233" lon="4.86763">
        <ele>84.73</ele>
        <time>2016-10-30T11:10:14Z</time>
      </trkpt>
      <trkpt lat="50.46233" lon="4.86749">
        <ele>84.73</ele>
        <time>2016-10-30T11:10:25Z</time>
      </trkpt>
      <trkpt lat="50.46235" lon="4.86729">
        <ele>84.73</ele>
        <time>2016-10-30T11:10:39Z</time>
      </trkpt>
      <trkpt lat="50.46234" lon="4.86697">
        <ele>86.18</ele>
        <time>2016-10-30T11:10:56Z</time>
      </trkpt>
      <trkpt lat="50.46234" lon="4.86668">
        <ele>85.69</ele>
        <time>2016-10-30T11:11:10Z</time>
      </trkpt>
      <trkpt lat="50.46231" lon="4.86648">
        <ele>86.18</ele>
        <time>2016-10-30T11:11:24Z</time>
      </trkpt>
      <trkpt lat="50.4623" lon="4.8663">
        <ele>86.18</ele>
        <time>2016-10-30T11:11:37Z</time>
      </trkpt>
      <trkpt lat="50.46225" lon="4.86604">
        <ele>85.69</ele>
        <time>2016-10-30T11:11:54Z</time>
      </trkpt>
      <trkpt lat="50.46221" lon="4.86585">
        <ele>85.69</ele>
        <time>2016-10-30T11:12:10Z</time>
      </trkpt>
      <trkpt lat="50.46216" lon="4.86565">
        <ele>84.25</ele>
        <time>2016-10-30T11:12:24Z</time>
      </trkpt>
      <trkpt lat="50.46215" lon="4.86561">
        <ele>84.25</ele>
        <time>2016-10-30T11:12:39Z</time>
      </trkpt>
      <trkpt lat="50.46215" lon="4.86538">
        <ele>84.25</ele>
        <time>2016-10-30T11:12:58Z</time>
      </trkpt>
      <trkpt lat="50.4621" lon="4.86523">
        <ele>84.25</ele>
        <time>2016-10-30T11:13:16Z</time>
      </trkpt>
      <trkpt lat="50.46215" lon="4.86521">
        <ele>84.25</ele>
        <time>2016-10-30T11:13:39Z</time>
      </trkpt>
      <trkpt lat="50.46204" lon="4.86507">
        <ele>83.77</ele>
        <time>2016-10-30T11:13:50Z</time>
      </trkpt>
      <trkpt lat="50.46198" lon="4.86503">
        <ele>83.77</ele>
        <time>2016-10-30T11:14:03Z</time>
      </trkpt>
      <trkpt lat="50.46188" lon="4.86508">
        <ele>82.81</ele>
        <time>2016-10-30T11:14:13Z</time>
      </trkpt>
      <trkpt lat="50.46178" lon="4.86509">
        <ele>82.81</ele>
        <time>2016-10-30T11:14:20Z</time>
      </trkpt>
      <trkpt lat="50.46174" lon="4.8651">
        <ele>82.33</ele>
        <time>2016-10-30T11:14:24Z</time>
      </trkpt>
      <trkpt lat="50.4617" lon="4.86503">
        <ele>82.33</ele>
        <time>2016-10-30T11:14:29Z</time>
      </trkpt>
      <trkpt lat="50.46167" lon="4.86484">
        <ele>81.85</ele>
        <time>2016-10-30T11:14:41Z</time>
      </trkpt>
      <trkpt lat="50.46166" lon="4.86481">
        <ele>81.85</ele>
        <time>2016-10-30T11:14:43Z</time>
      </trkpt>
      <trkpt lat="50.46166" lon="4.86472">
        <ele>81.85</ele>
        <time>2016-10-30T11:14:48Z</time>
      </trkpt>
      <trkpt lat="50.46164" lon="4.86457">
        <ele>81.37</ele>
        <time>2016-10-30T11:15:01Z</time>
      </trkpt>
      <trkpt lat="50.46164" lon="4.86455">
        <ele>81.37</ele>
        <time>2016-10-30T11:15:03Z</time>
      </trkpt>
      <trkpt lat="50.46161" lon="4.86426">
        <ele>81.37</ele>
        <time>2016-10-30T11:15:19Z</time>
      </trkpt>
      <trkpt lat="50.46162" lon="4.86418">
        <ele>81.37</ele>
        <time>2016-10-30T11:15:23Z</time>
      </trkpt>
      <trkpt lat="50.46164" lon="4.86396">
        <ele>81.37</ele>
        <time>2016-10-30T11:15:36Z</time>
      </trkpt>
      <trkpt lat="50.46166" lon="4.86381">
        <ele>81.37</ele>
        <time>2016-10-30T11:15:47Z</time>
      </trkpt>
      <trkpt lat="50.46167" lon="4.86376">
        <ele>81.37</ele>
        <time>2016-10-30T11:16:04Z</time>
      </trkpt>
      <trkpt lat="50.46168" lon="4.86374">
        <ele>80.89</ele>
        <time>2016-10-30T11:16:20Z</time>
      </trkpt>
      <trkpt lat="50.46171" lon="4.86361">
        <ele>80.89</ele>
        <time>2016-10-30T11:16:38Z</time>
      </trkpt>
      <trkpt lat="50.46173" lon="4.86341">
        <ele>80.89</ele>
        <time>2016-10-30T11:16:51Z</time>
      </trkpt>
      <trkpt lat="50.46176" lon="4.86313">
        <ele>80.89</ele>
        <time>2016-10-30T11:17:08Z</time>
      </trkpt>
      <trkpt lat="50.46178" lon="4.86292">
        <ele>80.89</ele>
        <time>2016-10-30T11:17:22Z</time>
      </trkpt>
      <trkpt lat="50.46179" lon="4.86273">
        <ele>80.89</ele>
        <time>2016-10-30T11:17:33Z</time>
      </trkpt>
      <trkpt lat="50.46181" lon="4.86264">
        <ele>80.41</ele>
        <time>2016-10-30T11:17:38Z</time>
      </trkpt>
      <trkpt lat="50.46188" lon="4.86235">
        <ele>80.41</ele>
        <time>2016-10-30T11:17:54Z</time>
      </trkpt>
      <trkpt lat="50.46193" lon="4.86208">
        <ele>80.41</ele>
        <time>2016-10-30T11:18:09Z</time>
      </trkpt>
      <trkpt lat="50.46195" lon="4.86205">
        <ele>80.41</ele>
        <time>2016-10-30T11:18:24Z</time>
      </trkpt>
      <trkpt lat="50.46198" lon="4.86194">
        <ele>80.41</ele>
        <time>2016-10-30T11:18:30Z</time>
      </trkpt>
      <trkpt lat="50.46202" lon="4.86176">
        <ele>80.41</ele>
        <time>2016-10-30T11:18:44Z</time>
      </trkpt>
      <trkpt lat="50.46209" lon="4.86152">
        <ele>80.41</ele>
        <time>2016-10-30T11:18:59Z</time>
      </trkpt>
      <trkpt lat="50.46214" lon="4.86133">
        <ele>80.41</ele>
        <time>2016-10-30T11:19:13Z</time>
      </trkpt>
      <trkpt lat="50.46217" lon="4.86115">
        <ele>80.41</ele>
        <time>2016-10-30T11:19:23Z</time>
      </trkpt>
      <trkpt lat="50.46219" lon="4.861">
        <ele>79.93</ele>
        <time>2016-10-30T11:19:31Z</time>
      </trkpt>
      <trkpt lat="50.46219" lon="4.86096">
        <ele>79.93</ele>
        <time>2016-10-30T11:19:33Z</time>
      </trkpt>
      <trkpt lat="50.4622" lon="4.86084">
        <ele>79.93</ele>
        <time>2016-10-30T11:19:40Z</time>
      </trkpt>
      <trkpt lat="50.4622" lon="4.86063">
        <ele>79.93</ele>
        <time>2016-10-30T11:19:52Z</time>
      </trkpt>
      <trkpt lat="50.46226" lon="4.86046">
        <ele>79.93</ele>
        <time>2016-10-30T11:20:05Z</time>
      </trkpt>
      <trkpt lat="50.46232" lon="4.86025">
        <ele>79.93</ele>
        <time>2016-10-30T11:20:17Z</time>
      </trkpt>
      <trkpt lat="50.4624" lon="4.86009">
        <ele>79.45</ele>
        <time>2016-10-30T11:20:30Z</time>
      </trkpt>
      <trkpt lat="50.46241" lon="4.86006">
        <ele>79.45</ele>
        <time>2016-10-30T11:20:32Z</time>
      </trkpt>
      <trkpt lat="50.46241" lon="4.86001">
        <ele>79.45</ele>
        <time>2016-10-30T11:20:35Z</time>
      </trkpt>
      <trkpt lat="50.46244" lon="4.85988">
        <ele>79.45</ele>
        <time>2016-10-30T11:20:42Z</time>
      </trkpt>
      <trkpt lat="50.46245" lon="4.85982">
        <ele>79.45</ele>
        <time>2016-10-30T11:20:45Z</time>
      </trkpt>
      <trkpt lat="50.46247" lon="4.85979">
        <ele>79.45</ele>
        <time>2016-10-30T11:20:47Z</time>
      </trkpt>
      <trkpt lat="50.4625" lon="4.85966">
        <ele>79.45</ele>
        <time>2016-10-30T11:20:54Z</time>
      </trkpt>
      <trkpt lat="50.46255" lon="4.85943">
        <ele>80.41</ele>
        <time>2016-10-30T11:21:07Z</time>
      </trkpt>
      <trkpt lat="50.46259" lon="4.85921">
        <ele>79.93</ele>
        <time>2016-10-30T11:21:22Z</time>
      </trkpt>
      <trkpt lat="50.46264" lon="4.85896">
        <ele>79.93</ele>
        <time>2016-10-30T11:21:34Z</time>
      </trkpt>
      <trkpt lat="50.46269" lon="4.85883">
        <ele>79.93</ele>
        <time>2016-10-30T11:21:44Z</time>
      </trkpt>
      <trkpt lat="50.46274" lon="4.85867">
        <ele>79.45</ele>
        <time>2016-10-30T11:21:57Z</time>
      </trkpt>
      <trkpt lat="50.46283" lon="4.85851">
        <ele>79.45</ele>
        <time>2016-10-30T11:22:09Z</time>
      </trkpt>
      <trkpt lat="50.46292" lon="4.85828">
        <ele>78.97</ele>
        <time>2016-10-30T11:22:24Z</time>
      </trkpt>
      <trkpt lat="50.46294" lon="4.85818">
        <ele>78.97</ele>
        <time>2016-10-30T11:22:29Z</time>
      </trkpt>
      <trkpt lat="50.46298" lon="4.85808">
        <ele>78.97</ele>
        <time>2016-10-30T11:22:35Z</time>
      </trkpt>
      <trkpt lat="50.46308" lon="4.85787">
        <ele>78.97</ele>
        <time>2016-10-30T11:22:47Z</time>
      </trkpt>
      <trkpt lat="50.46314" lon="4.85779">
        <ele>78.97</ele>
        <time>2016-10-30T11:22:53Z</time>
      </trkpt>
      <trkpt lat="50.46317" lon="4.85775">
        <ele>78.97</ele>
        <time>2016-10-30T11:22:56Z</time>
      </trkpt>
      <trkpt lat="50.46331" lon="4.85751">
        <ele>78.48</ele>
        <time>2016-10-30T11:23:12Z</time>
      </trkpt>
      <trkpt lat="50.46343" lon="4.85736">
        <ele>78.48</ele>
        <time>2016-10-30T11:23:24Z</time>
      </trkpt>
      <trkpt lat="50.46354" lon="4.85721">
        <ele>78.48</ele>
        <time>2016-10-30T11:23:38Z</time>
      </trkpt>
      <trkpt lat="50.46364" lon="4.85719">
        <ele>71.76</ele>
        <time>2016-10-30T11:23:49Z</time>
      </trkpt>
      <trkpt lat="50.46365" lon="4.85717">
        <ele>80.41</ele>
        <time>2016-10-30T11:23:50Z</time>
      </trkpt>
      <trkpt lat="50.46365" lon="4.85717">
        <ele>80.41</ele>
        <time>2016-10-30T11:23:51Z</time>
      </trkpt>
      <trkpt lat="50.46377" lon="4.8571">
        <ele>78.97</ele>
        <time>2016-10-30T11:24:03Z</time>
      </trkpt>
      <trkpt lat="50.46391" lon="4.85695">
        <ele>79.93</ele>
        <time>2016-10-30T11:24:17Z</time>
      </trkpt>
      <trkpt lat="50.46394" lon="4.85691">
        <ele>79.93</ele>
        <time>2016-10-30T11:24:20Z</time>
      </trkpt>
      <trkpt lat="50.46398" lon="4.85687">
        <ele>80.41</ele>
        <time>2016-10-30T11:24:24Z</time>
      </trkpt>
      <trkpt lat="50.46401" lon="4.85683">
        <ele>80.41</ele>
        <time>2016-10-30T11:24:27Z</time>
      </trkpt>
      <trkpt lat="50.46403" lon="4.8568">
        <ele>80.41</ele>
        <time>2016-10-30T11:24:29Z</time>
      </trkpt>
      <trkpt lat="50.46411" lon="4.8567">
        <ele>80.41</ele>
        <time>2016-10-30T11:24:37Z</time>
      </trkpt>
      <trkpt lat="50.46417" lon="4.85662">
        <ele>80.89</ele>
        <time>2016-10-30T11:24:43Z</time>
      </trkpt>
      <trkpt lat="50.46428" lon="4.8565">
        <ele>80.89</ele>
        <time>2016-10-30T11:24:56Z</time>
      </trkpt>
      <trkpt lat="50.46432" lon="4.85652">
        <ele>80.89</ele>
        <time>2016-10-30T11:25:14Z</time>
      </trkpt>
      <trkpt lat="50.46434" lon="4.85648">
        <ele>80.89</ele>
        <time>2016-10-30T11:25:40Z</time>
      </trkpt>
      <trkpt lat="50.46445" lon="4.85642">
        <ele>81.37</ele>
        <time>2016-10-30T11:25:52Z</time>
      </trkpt>
      <trkpt lat="50.46447" lon="4.85641">
        <ele>81.37</ele>
        <time>2016-10-30T11:25:55Z</time>
      </trkpt>
      <trkpt lat="50.46459" lon="4.85632">
        <ele>81.37</ele>
        <time>2016-10-30T11:26:10Z</time>
      </trkpt>
      <trkpt lat="50.46467" lon="4.85621">
        <ele>81.37</ele>
        <time>2016-10-30T11:26:20Z</time>
      </trkpt>
      <trkpt lat="50.46477" lon="4.85606">
        <ele>81.37</ele>
        <time>2016-10-30T11:26:32Z</time>
      </trkpt>
      <trkpt lat="50.46489" lon="4.85593">
        <ele>81.37</ele>
        <time>2016-10-30T11:26:45Z</time>
      </trkpt>
      <trkpt lat="50.46501" lon="4.85579">
        <ele>80.89</ele>
        <time>2016-10-30T11:26:59Z</time>
      </trkpt>
      <trkpt lat="50.46515" lon="4.85571">
        <ele>81.37</ele>
        <time>2016-10-30T11:27:12Z</time>
      </trkpt>
      <trkpt lat="50.46522" lon="4.85573">
        <ele>81.37</ele>
        <time>2016-10-30T11:27:24Z</time>
      </trkpt>
      <trkpt lat="50.46527" lon="4.85581">
        <ele>81.37</ele>
        <time>2016-10-30T11:27:36Z</time>
      </trkpt>
      <trkpt lat="50.46539" lon="4.85593">
        <ele>81.37</ele>
        <time>2016-10-30T11:27:52Z</time>
      </trkpt>
      <trkpt lat="50.46552" lon="4.85606">
        <ele>81.37</ele>
        <time>2016-10-30T11:28:02Z</time>
      </trkpt>
      <trkpt lat="50.46566" lon="4.85622">
        <ele>81.37</ele>
        <time>2016-10-30T11:28:18Z</time>
      </trkpt>
      <trkpt lat="50.46579" lon="4.85629">
        <ele>80.89</ele>
        <time>2016-10-30T11:28:32Z</time>
      </trkpt>
      <trkpt lat="50.46594" lon="4.85634">
        <ele>80.89</ele>
        <time>2016-10-30T11:28:47Z</time>
      </trkpt>
      <trkpt lat="50.46608" lon="4.85644">
        <ele>79.45</ele>
        <time>2016-10-30T11:29:02Z</time>
      </trkpt>
      <trkpt lat="50.46627" lon="4.85661">
        <ele>79.45</ele>
        <time>2016-10-30T11:29:19Z</time>
      </trkpt>
      <trkpt lat="50.46639" lon="4.85673">
        <ele>78.97</ele>
        <time>2016-10-30T11:29:32Z</time>
      </trkpt>
      <trkpt lat="50.46648" lon="4.85678">
        <ele>78.97</ele>
        <time>2016-10-30T11:29:45Z</time>
      </trkpt>
      <trkpt lat="50.46659" lon="4.85678">
        <ele>78</ele>
        <time>2016-10-30T11:29:57Z</time>
      </trkpt>
      <trkpt lat="50.46676" lon="4.85693">
        <ele>78</ele>
        <time>2016-10-30T11:30:09Z</time>
      </trkpt>
      <trkpt lat="50.46687" lon="4.85708">
        <ele>78</ele>
        <time>2016-10-30T11:30:24Z</time>
      </trkpt>
      <trkpt lat="50.46699" lon="4.8571">
        <ele>77.04</ele>
        <time>2016-10-30T11:30:38Z</time>
      </trkpt>
      <trkpt lat="50.4671" lon="4.85695">
        <ele>77.04</ele>
        <time>2016-10-30T11:30:53Z</time>
      </trkpt>
      <trkpt lat="50.46714" lon="4.85679">
        <ele>76.56</ele>
        <time>2016-10-30T11:31:07Z</time>
      </trkpt>
      <trkpt lat="50.46714" lon="4.85671">
        <ele>76.56</ele>
        <time>2016-10-30T11:31:24Z</time>
      </trkpt>
      <trkpt lat="50.46715" lon="4.85661">
        <ele>76.56</ele>
        <time>2016-10-30T11:31:37Z</time>
      </trkpt>
      <trkpt lat="50.46715" lon="4.85657">
        <ele>76.56</ele>
        <time>2016-10-30T11:32:01Z</time>
      </trkpt>
      <trkpt lat="50.46705" lon="4.85641">
        <ele>77.52</ele>
        <time>2016-10-30T11:32:14Z</time>
      </trkpt>
      <trkpt lat="50.46702" lon="4.85638">
        <ele>77.52</ele>
        <time>2016-10-30T11:32:17Z</time>
      </trkpt>
      <trkpt lat="50.46691" lon="4.85635">
        <ele>77.52</ele>
        <time>2016-10-30T11:32:31Z</time>
      </trkpt>
      <trkpt lat="50.46687" lon="4.85648">
        <ele>77.04</ele>
        <time>2016-10-30T11:32:46Z</time>
      </trkpt>
      <trkpt lat="50.46686" lon="4.85643">
        <ele>77.04</ele>
        <time>2016-10-30T11:33:05Z</time>
      </trkpt>
      <trkpt lat="50.46685" lon="4.85638">
        <ele>77.04</ele>
        <time>2016-10-30T11:33:20Z</time>
      </trkpt>
      <trkpt lat="50.46685" lon="4.85632">
        <ele>77.04</ele>
        <time>2016-10-30T11:33:38Z</time>
      </trkpt>
      <trkpt lat="50.46683" lon="4.85629">
        <ele>77.04</ele>
        <time>2016-10-30T11:34:00Z</time>
      </trkpt>
      <trkpt lat="50.46684" lon="4.85629">
        <ele>77.04</ele>
        <time>2016-10-30T11:34:22Z</time>
      </trkpt>
      <trkpt lat="50.46689" lon="4.85632">
        <ele>77.04</ele>
        <time>2016-10-30T11:34:41Z</time>
      </trkpt>
      <trkpt lat="50.46687" lon="4.85634">
        <ele>77.04</ele>
        <time>2016-10-30T11:35:00Z</time>
      </trkpt>
      <trkpt lat="50.46685" lon="4.85627">
        <ele>77.04</ele>
        <time>2016-10-30T11:35:19Z</time>
      </trkpt>
      <trkpt lat="50.46686" lon="4.85624">
        <ele>77.04</ele>
        <time>2016-10-30T11:35:37Z</time>
      </trkpt>
      <trkpt lat="50.46685" lon="4.85622">
        <ele>77.52</ele>
        <time>2016-10-30T11:35:42Z</time>
      </trkpt>
      <trkpt lat="50.46681" lon="4.8561">
        <ele>77.52</ele>
        <time>2016-10-30T11:35:56Z</time>
      </trkpt>
      <trkpt lat="50.4668" lon="4.85591">
        <ele>77.52</ele>
        <time>2016-10-30T11:36:10Z</time>
      </trkpt>
      <trkpt lat="50.46679" lon="4.85573">
        <ele>77.52</ele>
        <time>2016-10-30T11:36:22Z</time>
      </trkpt>
      <trkpt lat="50.46674" lon="4.85545">
        <ele>78</ele>
        <time>2016-10-30T11:36:37Z</time>
      </trkpt>
      <trkpt lat="50.46671" lon="4.85523">
        <ele>79.93</ele>
        <time>2016-10-30T11:36:51Z</time>
      </trkpt>
      <trkpt lat="50.46672" lon="4.85502">
        <ele>80.89</ele>
        <time>2016-10-30T11:37:06Z</time>
      </trkpt>
      <trkpt lat="50.46674" lon="4.85483">
        <ele>81.85</ele>
        <time>2016-10-30T11:37:19Z</time>
      </trkpt>
      <trkpt lat="50.46667" lon="4.8546">
        <ele>81.85</ele>
        <time>2016-10-30T11:37:31Z</time>
      </trkpt>
      <trkpt lat="50.46666" lon="4.85455">
        <ele>82.33</ele>
        <time>2016-10-30T11:37:34Z</time>
      </trkpt>
      <trkpt lat="50.46659" lon="4.85435">
        <ele>82.33</ele>
        <time>2016-10-30T11:37:48Z</time>
      </trkpt>
      <trkpt lat="50.4665" lon="4.85411">
        <ele>82.81</ele>
        <time>2016-10-30T11:38:05Z</time>
      </trkpt>
      <trkpt lat="50.46642" lon="4.85391">
        <ele>83.77</ele>
        <time>2016-10-30T11:38:19Z</time>
      </trkpt>
      <trkpt lat="50.46639" lon="4.85379">
        <ele>82.33</ele>
        <time>2016-10-30T11:38:33Z</time>
      </trkpt>
      <trkpt lat="50.46639" lon="4.85378">
        <ele>82.33</ele>
        <time>2016-10-30T11:38:34Z</time>
      </trkpt>
      <trkpt lat="50.46643" lon="4.85372">
        <ele>82.33</ele>
        <time>2016-10-30T11:38:41Z</time>
      </trkpt>
      <trkpt lat="50.46645" lon="4.85359">
        <ele>82.33</ele>
        <time>2016-10-30T11:38:49Z</time>
      </trkpt>
      <trkpt lat="50.46647" lon="4.85355">
        <ele>82.33</ele>
        <time>2016-10-30T11:38:52Z</time>
      </trkpt>
      <trkpt lat="50.46656" lon="4.85352">
        <ele>81.85</ele>
        <time>2016-10-30T11:39:05Z</time>
      </trkpt>
      <trkpt lat="50.4666" lon="4.85355">
        <ele>79.45</ele>
        <time>2016-10-30T11:39:18Z</time>
      </trkpt>
      <trkpt lat="50.46663" lon="4.85351">
        <ele>76.56</ele>
        <time>2016-10-30T11:39:33Z</time>
      </trkpt>
      <trkpt lat="50.46667" lon="4.85358">
        <ele>76.56</ele>
        <time>2016-10-30T11:39:39Z</time>
      </trkpt>
      <trkpt lat="50.4666" lon="4.85362">
        <ele>76.08</ele>
        <time>2016-10-30T11:39:53Z</time>
      </trkpt>
      <trkpt lat="50.46661" lon="4.85364">
        <ele>76.08</ele>
        <time>2016-10-30T11:40:15Z</time>
      </trkpt>
      <trkpt lat="50.46652" lon="4.85374">
        <ele>76.08</ele>
        <time>2016-10-30T11:40:29Z</time>
      </trkpt>
      <trkpt lat="50.46651" lon="4.85376">
        <ele>76.08</ele>
        <time>2016-10-30T11:40:31Z</time>
      </trkpt>
      <trkpt lat="50.4664" lon="4.85393">
        <ele>76.08</ele>
        <time>2016-10-30T11:40:46Z</time>
      </trkpt>
      <trkpt lat="50.46626" lon="4.85413">
        <ele>76.08</ele>
        <time>2016-10-30T11:40:59Z</time>
      </trkpt>
      <trkpt lat="50.46624" lon="4.85416">
        <ele>76.08</ele>
        <time>2016-10-30T11:41:02Z</time>
      </trkpt>
      <trkpt lat="50.46622" lon="4.85417">
        <ele>76.08</ele>
        <time>2016-10-30T11:41:04Z</time>
      </trkpt>
      <trkpt lat="50.46619" lon="4.85417">
        <ele>76.08</ele>
        <time>2016-10-30T11:41:07Z</time>
      </trkpt>
      <trkpt lat="50.46617" lon="4.85419">
        <ele>76.08</ele>
        <time>2016-10-30T11:41:09Z</time>
      </trkpt>
      <trkpt lat="50.46605" lon="4.85423">
        <ele>76.08</ele>
        <time>2016-10-30T11:41:20Z</time>
      </trkpt>
      <trkpt lat="50.46588" lon="4.85433">
        <ele>76.08</ele>
        <time>2016-10-30T11:41:36Z</time>
      </trkpt>
      <trkpt lat="50.46571" lon="4.85443">
        <ele>76.08</ele>
        <time>2016-10-30T11:41:52Z</time>
      </trkpt>
      <trkpt lat="50.46554" lon="4.85452">
        <ele>76.08</ele>
        <time>2016-10-30T11:42:09Z</time>
      </trkpt>
      <trkpt lat="50.4654" lon="4.85462">
        <ele>76.08</ele>
        <time>2016-10-30T11:42:23Z</time>
      </trkpt>
      <trkpt lat="50.46524" lon="4.85477">
        <ele>76.08</ele>
        <time>2016-10-30T11:42:37Z</time>
      </trkpt>
      <trkpt lat="50.46505" lon="4.85489">
        <ele>76.08</ele>
        <time>2016-10-30T11:42:53Z</time>
      </trkpt>
      <trkpt lat="50.4649" lon="4.85498">
        <ele>76.08</ele>
        <time>2016-10-30T11:43:09Z</time>
      </trkpt>
      <trkpt lat="50.46477" lon="4.85509">
        <ele>76.08</ele>
        <time>2016-10-30T11:43:25Z</time>
      </trkpt>
      <trkpt lat="50.46458" lon="4.8553">
        <ele>76.08</ele>
        <time>2016-10-30T11:43:42Z</time>
      </trkpt>
      <trkpt lat="50.46448" lon="4.85543">
        <ele>76.08</ele>
        <time>2016-10-30T11:43:57Z</time>
      </trkpt>
      <trkpt lat="50.46434" lon="4.85554">
        <ele>76.08</ele>
        <time>2016-10-30T11:44:11Z</time>
      </trkpt>
      <trkpt lat="50.46425" lon="4.85568">
        <ele>75.6</ele>
        <time>2016-10-30T11:44:27Z</time>
      </trkpt>
      <trkpt lat="50.46417" lon="4.85576">
        <ele>75.6</ele>
        <time>2016-10-30T11:44:37Z</time>
      </trkpt>
      <trkpt lat="50.4641" lon="4.85582">
        <ele>75.6</ele>
        <time>2016-10-30T11:44:43Z</time>
      </trkpt>
      <trkpt lat="50.46404" lon="4.85585">
        <ele>75.6</ele>
        <time>2016-10-30T11:44:47Z</time>
      </trkpt>
      <trkpt lat="50.46388" lon="4.85599">
        <ele>75.6</ele>
        <time>2016-10-30T11:45:00Z</time>
      </trkpt>
      <trkpt lat="50.46378" lon="4.85607">
        <ele>75.6</ele>
        <time>2016-10-30T11:45:09Z</time>
      </trkpt>
      <trkpt lat="50.46373" lon="4.8561">
        <ele>75.6</ele>
        <time>2016-10-30T11:45:14Z</time>
      </trkpt>
      <trkpt lat="50.46364" lon="4.85619">
        <ele>75.6</ele>
        <time>2016-10-30T11:45:24Z</time>
      </trkpt>
      <trkpt lat="50.46357" lon="4.85632">
        <ele>75.6</ele>
        <time>2016-10-30T11:45:32Z</time>
      </trkpt>
      <trkpt lat="50.46347" lon="4.85651">
        <ele>75.6</ele>
        <time>2016-10-30T11:45:47Z</time>
      </trkpt>
      <trkpt lat="50.46334" lon="4.85666">
        <ele>75.6</ele>
        <time>2016-10-30T11:46:00Z</time>
      </trkpt>
      <trkpt lat="50.46328" lon="4.85677">
        <ele>75.6</ele>
        <time>2016-10-30T11:46:09Z</time>
      </trkpt>
      <trkpt lat="50.46313" lon="4.85695">
        <ele>75.6</ele>
        <time>2016-10-30T11:46:26Z</time>
      </trkpt>
      <trkpt lat="50.46302" lon="4.85711">
        <ele>75.6</ele>
        <time>2016-10-30T11:46:42Z</time>
      </trkpt>
      <trkpt lat="50.46297" lon="4.85717">
        <ele>75.6</ele>
        <time>2016-10-30T11:46:47Z</time>
      </trkpt>
      <trkpt lat="50.46288" lon="4.85733">
        <ele>75.6</ele>
        <time>2016-10-30T11:46:59Z</time>
      </trkpt>
      <trkpt lat="50.46276" lon="4.85753">
        <ele>77.04</ele>
        <time>2016-10-30T11:47:14Z</time>
      </trkpt>
      <trkpt lat="50.46273" lon="4.85755">
        <ele>77.04</ele>
        <time>2016-10-30T11:47:16Z</time>
      </trkpt>
      <trkpt lat="50.46261" lon="4.85776">
        <ele>77.04</ele>
        <time>2016-10-30T11:47:30Z</time>
      </trkpt>
      <trkpt lat="50.4625" lon="4.858">
        <ele>77.52</ele>
        <time>2016-10-30T11:47:47Z</time>
      </trkpt>
      <trkpt lat="50.46242" lon="4.85818">
        <ele>78</ele>
        <time>2016-10-30T11:48:00Z</time>
      </trkpt>
      <trkpt lat="50.46241" lon="4.85822">
        <ele>78</ele>
        <time>2016-10-30T11:48:03Z</time>
      </trkpt>
      <trkpt lat="50.46239" lon="4.85825">
        <ele>78</ele>
        <time>2016-10-30T11:48:05Z</time>
      </trkpt>
      <trkpt lat="50.46234" lon="4.85832">
        <ele>78.48</ele>
        <time>2016-10-30T11:48:11Z</time>
      </trkpt>
      <trkpt lat="50.46232" lon="4.85837">
        <ele>78.97</ele>
        <time>2016-10-30T11:48:14Z</time>
      </trkpt>
      <trkpt lat="50.46227" lon="4.85856">
        <ele>79.93</ele>
        <time>2016-10-30T11:48:28Z</time>
      </trkpt>
      <trkpt lat="50.46225" lon="4.85863">
        <ele>80.41</ele>
        <time>2016-10-30T11:48:52Z</time>
      </trkpt>
      <trkpt lat="50.46218" lon="4.85877">
        <ele>81.37</ele>
        <time>2016-10-30T11:49:03Z</time>
      </trkpt>
      <trkpt lat="50.46211" lon="4.85879">
        <ele>81.37</ele>
        <time>2016-10-30T11:49:09Z</time>
      </trkpt>
      <trkpt lat="50.46208" lon="4.85871">
        <ele>81.85</ele>
        <time>2016-10-30T11:49:21Z</time>
      </trkpt>
      <trkpt lat="50.46207" lon="4.85868">
        <ele>81.85</ele>
        <time>2016-10-30T11:49:40Z</time>
      </trkpt>
      <trkpt lat="50.46205" lon="4.85868">
        <ele>81.85</ele>
        <time>2016-10-30T11:49:42Z</time>
      </trkpt>
      <trkpt lat="50.46192" lon="4.8587">
        <ele>81.85</ele>
        <time>2016-10-30T11:49:57Z</time>
      </trkpt>
      <trkpt lat="50.46181" lon="4.85866">
        <ele>84.25</ele>
        <time>2016-10-30T11:50:12Z</time>
      </trkpt>
      <trkpt lat="50.46172" lon="4.85856">
        <ele>85.69</ele>
        <time>2016-10-30T11:50:24Z</time>
      </trkpt>
      <trkpt lat="50.4616" lon="4.85853">
        <ele>88.1</ele>
        <time>2016-10-30T11:50:37Z</time>
      </trkpt>
      <trkpt lat="50.46147" lon="4.85855">
        <ele>90.02</ele>
        <time>2016-10-30T11:50:52Z</time>
      </trkpt>
      <trkpt lat="50.46146" lon="4.85857">
        <ele>90.5</ele>
        <time>2016-10-30T11:50:55Z</time>
      </trkpt>
      <trkpt lat="50.4614" lon="4.85875">
        <ele>90.98</ele>
        <time>2016-10-30T11:51:09Z</time>
      </trkpt>
      <trkpt lat="50.46135" lon="4.85883">
        <ele>91.94</ele>
        <time>2016-10-30T11:51:22Z</time>
      </trkpt>
      <trkpt lat="50.46134" lon="4.85879">
        <ele>91.94</ele>
        <time>2016-10-30T11:51:26Z</time>
      </trkpt>
      <trkpt lat="50.46134" lon="4.85867">
        <ele>92.42</ele>
        <time>2016-10-30T11:51:33Z</time>
      </trkpt>
      <trkpt lat="50.46133" lon="4.85862">
        <ele>92.42</ele>
        <time>2016-10-30T11:51:36Z</time>
      </trkpt>
      <trkpt lat="50.46133" lon="4.85852">
        <ele>92.9</ele>
        <time>2016-10-30T11:51:42Z</time>
      </trkpt>
      <trkpt lat="50.46133" lon="4.85833">
        <ele>93.87</ele>
        <time>2016-10-30T11:51:54Z</time>
      </trkpt>
      <trkpt lat="50.46131" lon="4.85814">
        <ele>94.35</ele>
        <time>2016-10-30T11:52:07Z</time>
      </trkpt>
      <trkpt lat="50.46131" lon="4.85793">
        <ele>95.31</ele>
        <time>2016-10-30T11:52:19Z</time>
      </trkpt>
      <trkpt lat="50.46132" lon="4.85763">
        <ele>96.27</ele>
        <time>2016-10-30T11:52:35Z</time>
      </trkpt>
      <trkpt lat="50.46131" lon="4.85727">
        <ele>97.23</ele>
        <time>2016-10-30T11:52:53Z</time>
      </trkpt>
      <trkpt lat="50.46132" lon="4.857">
        <ele>98.19</ele>
        <time>2016-10-30T11:53:09Z</time>
      </trkpt>
      <trkpt lat="50.46131" lon="4.85694">
        <ele>98.67</ele>
        <time>2016-10-30T11:53:13Z</time>
      </trkpt>
      <trkpt lat="50.46131" lon="4.85675">
        <ele>99.15</ele>
        <time>2016-10-30T11:53:23Z</time>
      </trkpt>
      <trkpt lat="50.4613" lon="4.85656">
        <ele>99.15</ele>
        <time>2016-10-30T11:53:35Z</time>
      </trkpt>
      <trkpt lat="50.46128" lon="4.8563">
        <ele>100.6</ele>
        <time>2016-10-30T11:53:52Z</time>
      </trkpt>
      <trkpt lat="50.46119" lon="4.85606">
        <ele>101.56</ele>
        <time>2016-10-30T11:54:07Z</time>
      </trkpt>
      <trkpt lat="50.46124" lon="4.85591">
        <ele>102.04</ele>
        <time>2016-10-30T11:54:20Z</time>
      </trkpt>
      <trkpt lat="50.46127" lon="4.85573">
        <ele>102.04</ele>
        <time>2016-10-30T11:54:34Z</time>
      </trkpt>
      <trkpt lat="50.4613" lon="4.85554">
        <ele>103</ele>
        <time>2016-10-30T11:54:48Z</time>
      </trkpt>
      <trkpt lat="50.46133" lon="4.85533">
        <ele>103.48</ele>
        <time>2016-10-30T11:55:00Z</time>
      </trkpt>
      <trkpt lat="50.46141" lon="4.85511">
        <ele>103.96</ele>
        <time>2016-10-30T11:55:15Z</time>
      </trkpt>
      <trkpt lat="50.46146" lon="4.85497">
        <ele>104.44</ele>
        <time>2016-10-30T11:55:29Z</time>
      </trkpt>
      <trkpt lat="50.46151" lon="4.85475">
        <ele>105.88</ele>
        <time>2016-10-30T11:55:43Z</time>
      </trkpt>
      <trkpt lat="50.46155" lon="4.85443">
        <ele>106.84</ele>
        <time>2016-10-30T11:55:58Z</time>
      </trkpt>
      <trkpt lat="50.46151" lon="4.85427">
        <ele>109.25</ele>
        <time>2016-10-30T11:56:13Z</time>
      </trkpt>
      <trkpt lat="50.46151" lon="4.85396">
        <ele>112.13</ele>
        <time>2016-10-30T11:56:30Z</time>
      </trkpt>
      <trkpt lat="50.4615" lon="4.85377">
        <ele>115.01</ele>
        <time>2016-10-30T11:56:45Z</time>
      </trkpt>
      <trkpt lat="50.46149" lon="4.85365">
        <ele>117.9</ele>
        <time>2016-10-30T11:56:57Z</time>
      </trkpt>
      <trkpt lat="50.46151" lon="4.85347">
        <ele>120.78</ele>
        <time>2016-10-30T11:57:13Z</time>
      </trkpt>
      <trkpt lat="50.46148" lon="4.85335">
        <ele>124.15</ele>
        <time>2016-10-30T11:57:25Z</time>
      </trkpt>
      <trkpt lat="50.46149" lon="4.85317">
        <ele>125.11</ele>
        <time>2016-10-30T11:57:40Z</time>
      </trkpt>
      <trkpt lat="50.4615" lon="4.85314">
        <ele>125.11</ele>
        <time>2016-10-30T11:57:42Z</time>
      </trkpt>
      <trkpt lat="50.46153" lon="4.85296">
        <ele>126.07</ele>
        <time>2016-10-30T11:57:55Z</time>
      </trkpt>
      <trkpt lat="50.46158" lon="4.85272">
        <ele>127.03</ele>
        <time>2016-10-30T11:58:13Z</time>
      </trkpt>
      <trkpt lat="50.46159" lon="4.85232">
        <ele>127.03</ele>
        <time>2016-10-30T11:58:30Z</time>
      </trkpt>
      <trkpt lat="50.46165" lon="4.85207">
        <ele>129.43</ele>
        <time>2016-10-30T11:58:46Z</time>
      </trkpt>
      <trkpt lat="50.46168" lon="4.85181">
        <ele>130.4</ele>
        <time>2016-10-30T11:59:02Z</time>
      </trkpt>
      <trkpt lat="50.46169" lon="4.85154">
        <ele>131.36</ele>
        <time>2016-10-30T11:59:17Z</time>
      </trkpt>
      <trkpt lat="50.46172" lon="4.85128">
        <ele>132.32</ele>
        <time>2016-10-30T11:59:34Z</time>
      </trkpt>
      <trkpt lat="50.46174" lon="4.8511">
        <ele>133.28</ele>
        <time>2016-10-30T11:59:46Z</time>
      </trkpt>
      <trkpt lat="50.46176" lon="4.85089">
        <ele>133.76</ele>
        <time>2016-10-30T12:00:01Z</time>
      </trkpt>
      <trkpt lat="50.46175" lon="4.85082">
        <ele>134.24</ele>
        <time>2016-10-30T12:00:06Z</time>
      </trkpt>
      <trkpt lat="50.46175" lon="4.85079">
        <ele>134.24</ele>
        <time>2016-10-30T12:00:08Z</time>
      </trkpt>
      <trkpt lat="50.46167" lon="4.85055">
        <ele>134.72</ele>
        <time>2016-10-30T12:00:22Z</time>
      </trkpt>
      <trkpt lat="50.46156" lon="4.85044">
        <ele>135.68</ele>
        <time>2016-10-30T12:00:35Z</time>
      </trkpt>
      <trkpt lat="50.46143" lon="4.85036">
        <ele>137.61</ele>
        <time>2016-10-30T12:00:52Z</time>
      </trkpt>
      <trkpt lat="50.46131" lon="4.8503">
        <ele>139.53</ele>
        <time>2016-10-30T12:01:06Z</time>
      </trkpt>
      <trkpt lat="50.46121" lon="4.85028">
        <ele>140.49</ele>
        <time>2016-10-30T12:01:16Z</time>
      </trkpt>
      <trkpt lat="50.46104" lon="4.8502">
        <ele>141.45</ele>
        <time>2016-10-30T12:01:32Z</time>
      </trkpt>
      <trkpt lat="50.4609" lon="4.85017">
        <ele>142.41</ele>
        <time>2016-10-30T12:01:47Z</time>
      </trkpt>
      <trkpt lat="50.46087" lon="4.85015">
        <ele>142.41</ele>
        <time>2016-10-30T12:01:50Z</time>
      </trkpt>
      <trkpt lat="50.46078" lon="4.85006">
        <ele>142.89</ele>
        <time>2016-10-30T12:02:01Z</time>
      </trkpt>
      <trkpt lat="50.46069" lon="4.84999">
        <ele>142.89</ele>
        <time>2016-10-30T12:02:13Z</time>
      </trkpt>
      <trkpt lat="50.46065" lon="4.84998">
        <ele>143.37</ele>
        <time>2016-10-30T12:02:18Z</time>
      </trkpt>
      <trkpt lat="50.4606" lon="4.84995">
        <ele>143.37</ele>
        <time>2016-10-30T12:02:24Z</time>
      </trkpt>
      <trkpt lat="50.46041" lon="4.84994">
        <ele>143.85</ele>
        <time>2016-10-30T12:02:38Z</time>
      </trkpt>
      <trkpt lat="50.46025" lon="4.8499">
        <ele>145.3</ele>
        <time>2016-10-30T12:02:52Z</time>
      </trkpt>
      <trkpt lat="50.46016" lon="4.84987">
        <ele>145.78</ele>
        <time>2016-10-30T12:03:06Z</time>
      </trkpt>
      <trkpt lat="50.45995" lon="4.84981">
        <ele>146.74</ele>
        <time>2016-10-30T12:03:21Z</time>
      </trkpt>
      <trkpt lat="50.45986" lon="4.84974">
        <ele>148.66</ele>
        <time>2016-10-30T12:03:36Z</time>
      </trkpt>
      <trkpt lat="50.45973" lon="4.84965">
        <ele>150.58</ele>
        <time>2016-10-30T12:03:51Z</time>
      </trkpt>
      <trkpt lat="50.4596" lon="4.84958">
        <ele>153.47</ele>
        <time>2016-10-30T12:04:07Z</time>
      </trkpt>
      <trkpt lat="50.45948" lon="4.84954">
        <ele>155.87</ele>
        <time>2016-10-30T12:04:22Z</time>
      </trkpt>
      <trkpt lat="50.4593" lon="4.84947">
        <ele>159.24</ele>
        <time>2016-10-30T12:04:40Z</time>
      </trkpt>
      <trkpt lat="50.45919" lon="4.84943">
        <ele>161.16</ele>
        <time>2016-10-30T12:04:55Z</time>
      </trkpt>
      <trkpt lat="50.45908" lon="4.84939">
        <ele>163.56</ele>
        <time>2016-10-30T12:05:09Z</time>
      </trkpt>
      <trkpt lat="50.45897" lon="4.84932">
        <ele>165.48</ele>
        <time>2016-10-30T12:05:24Z</time>
      </trkpt>
      <trkpt lat="50.45887" lon="4.84931">
        <ele>168.85</ele>
        <time>2016-10-30T12:05:39Z</time>
      </trkpt>
      <trkpt lat="50.45875" lon="4.84934">
        <ele>169.33</ele>
        <time>2016-10-30T12:05:53Z</time>
      </trkpt>
      <trkpt lat="50.4586" lon="4.84939">
        <ele>169.81</ele>
        <time>2016-10-30T12:06:07Z</time>
      </trkpt>
      <trkpt lat="50.4585" lon="4.84942">
        <ele>171.25</ele>
        <time>2016-10-30T12:06:22Z</time>
      </trkpt>
      <trkpt lat="50.45846" lon="4.8495">
        <ele>172.21</ele>
        <time>2016-10-30T12:06:39Z</time>
      </trkpt>
      <trkpt lat="50.45843" lon="4.84941">
        <ele>172.21</ele>
        <time>2016-10-30T12:07:07Z</time>
      </trkpt>
      <trkpt lat="50.45842" lon="4.84943">
        <ele>171.73</ele>
        <time>2016-10-30T12:07:34Z</time>
      </trkpt>
      <trkpt lat="50.45839" lon="4.84951">
        <ele>171.73</ele>
        <time>2016-10-30T12:08:06Z</time>
      </trkpt>
      <trkpt lat="50.45835" lon="4.84961">
        <ele>173.17</ele>
        <time>2016-10-30T12:08:21Z</time>
      </trkpt>
      <trkpt lat="50.45824" lon="4.84975">
        <ele>173.66</ele>
        <time>2016-10-30T12:08:35Z</time>
      </trkpt>
      <trkpt lat="50.45811" lon="4.84993">
        <ele>176.06</ele>
        <time>2016-10-30T12:08:51Z</time>
      </trkpt>
      <trkpt lat="50.45801" lon="4.85005">
        <ele>177.02</ele>
        <time>2016-10-30T12:09:04Z</time>
      </trkpt>
      <trkpt lat="50.45789" lon="4.85019">
        <ele>177.98</ele>
        <time>2016-10-30T12:09:19Z</time>
      </trkpt>
      <trkpt lat="50.45778" lon="4.85033">
        <ele>178.94</ele>
        <time>2016-10-30T12:09:33Z</time>
      </trkpt>
      <trkpt lat="50.4577" lon="4.85045">
        <ele>180.38</ele>
        <time>2016-10-30T12:09:45Z</time>
      </trkpt>
      <trkpt lat="50.45766" lon="4.85063">
        <ele>181.35</ele>
        <time>2016-10-30T12:09:58Z</time>
      </trkpt>
      <trkpt lat="50.45764" lon="4.85081">
        <ele>181.35</ele>
        <time>2016-10-30T12:10:10Z</time>
      </trkpt>
      <trkpt lat="50.45761" lon="4.85099">
        <ele>182.31</ele>
        <time>2016-10-30T12:10:22Z</time>
      </trkpt>
      <trkpt lat="50.45761" lon="4.85102">
        <ele>182.31</ele>
        <time>2016-10-30T12:10:24Z</time>
      </trkpt>
      <trkpt lat="50.45758" lon="4.85115">
        <ele>183.27</ele>
        <time>2016-10-30T12:10:34Z</time>
      </trkpt>
      <trkpt lat="50.45755" lon="4.85134">
        <ele>185.67</ele>
        <time>2016-10-30T12:10:49Z</time>
      </trkpt>
      <trkpt lat="50.45748" lon="4.85154">
        <ele>187.59</ele>
        <time>2016-10-30T12:11:03Z</time>
      </trkpt>
      <trkpt lat="50.45743" lon="4.85167">
        <ele>188.08</ele>
        <time>2016-10-30T12:11:16Z</time>
      </trkpt>
      <trkpt lat="50.45736" lon="4.85187">
        <ele>186.63</ele>
        <time>2016-10-30T12:11:29Z</time>
      </trkpt>
      <trkpt lat="50.45736" lon="4.85202">
        <ele>186.15</ele>
        <time>2016-10-30T12:11:37Z</time>
      </trkpt>
      <trkpt lat="50.45732" lon="4.85222">
        <ele>186.15</ele>
        <time>2016-10-30T12:11:50Z</time>
      </trkpt>
      <trkpt lat="50.45734" lon="4.8524">
        <ele>186.15</ele>
        <time>2016-10-30T12:12:01Z</time>
      </trkpt>
      <trkpt lat="50.45738" lon="4.85261">
        <ele>186.15</ele>
        <time>2016-10-30T12:12:16Z</time>
      </trkpt>
      <trkpt lat="50.45738" lon="4.85262">
        <ele>185.67</ele>
        <time>2016-10-30T12:12:17Z</time>
      </trkpt>
      <trkpt lat="50.45739" lon="4.85269">
        <ele>185.19</ele>
        <time>2016-10-30T12:12:23Z</time>
      </trkpt>
      <trkpt lat="50.45738" lon="4.8529">
        <ele>183.27</ele>
        <time>2016-10-30T12:12:38Z</time>
      </trkpt>
      <trkpt lat="50.45738" lon="4.85306">
        <ele>182.31</ele>
        <time>2016-10-30T12:12:49Z</time>
      </trkpt>
      <trkpt lat="50.45739" lon="4.85319">
        <ele>181.83</ele>
        <time>2016-10-30T12:13:01Z</time>
      </trkpt>
      <trkpt lat="50.45739" lon="4.8532">
        <ele>181.83</ele>
        <time>2016-10-30T12:13:15Z</time>
      </trkpt>
      <trkpt lat="50.45736" lon="4.85324">
        <ele>181.83</ele>
        <time>2016-10-30T12:13:34Z</time>
      </trkpt>
      <trkpt lat="50.45736" lon="4.85339">
        <ele>180.87</ele>
        <time>2016-10-30T12:13:47Z</time>
      </trkpt>
      <trkpt lat="50.45735" lon="4.85357">
        <ele>179.9</ele>
        <time>2016-10-30T12:13:58Z</time>
      </trkpt>
      <trkpt lat="50.45733" lon="4.8537">
        <ele>179.9</ele>
        <time>2016-10-30T12:14:06Z</time>
      </trkpt>
      <trkpt lat="50.45732" lon="4.85382">
        <ele>180.38</ele>
        <time>2016-10-30T12:14:15Z</time>
      </trkpt>
      <trkpt lat="50.45731" lon="4.85401">
        <ele>180.38</ele>
        <time>2016-10-30T12:14:30Z</time>
      </trkpt>
      <trkpt lat="50.45729" lon="4.85421">
        <ele>179.9</ele>
        <time>2016-10-30T12:14:42Z</time>
      </trkpt>
      <trkpt lat="50.45724" lon="4.85451">
        <ele>179.42</ele>
        <time>2016-10-30T12:14:56Z</time>
      </trkpt>
      <trkpt lat="50.45721" lon="4.85473">
        <ele>178.94</ele>
        <time>2016-10-30T12:15:09Z</time>
      </trkpt>
      <trkpt lat="50.45723" lon="4.8548">
        <ele>178.94</ele>
        <time>2016-10-30T12:15:23Z</time>
      </trkpt>
      <trkpt lat="50.45724" lon="4.85485">
        <ele>178.94</ele>
        <time>2016-10-30T12:15:41Z</time>
      </trkpt>
      <trkpt lat="50.45724" lon="4.85491">
        <ele>178.94</ele>
        <time>2016-10-30T12:15:59Z</time>
      </trkpt>
      <trkpt lat="50.45722" lon="4.85503">
        <ele>179.42</ele>
        <time>2016-10-30T12:16:12Z</time>
      </trkpt>
      <trkpt lat="50.45722" lon="4.85504">
        <ele>178.94</ele>
        <time>2016-10-30T12:16:29Z</time>
      </trkpt>
      <trkpt lat="50.45721" lon="4.85514">
        <ele>178.94</ele>
        <time>2016-10-30T12:16:41Z</time>
      </trkpt>
      <trkpt lat="50.45723" lon="4.85517">
        <ele>178.94</ele>
        <time>2016-10-30T12:17:06Z</time>
      </trkpt>
      <trkpt lat="50.45723" lon="4.85527">
        <ele>178.94</ele>
        <time>2016-10-30T12:17:21Z</time>
      </trkpt>
      <trkpt lat="50.45721" lon="4.8555">
        <ele>178.94</ele>
        <time>2016-10-30T12:17:35Z</time>
      </trkpt>
      <trkpt lat="50.45721" lon="4.85558">
        <ele>178.94</ele>
        <time>2016-10-30T12:17:52Z</time>
      </trkpt>
      <trkpt lat="50.4572" lon="4.85566">
        <ele>178.94</ele>
        <time>2016-10-30T12:18:00Z</time>
      </trkpt>
      <trkpt lat="50.45718" lon="4.85574">
        <ele>178.94</ele>
        <time>2016-10-30T12:18:04Z</time>
      </trkpt>
      <trkpt lat="50.45712" lon="4.85599">
        <ele>178.94</ele>
        <time>2016-10-30T12:18:20Z</time>
      </trkpt>
      <trkpt lat="50.45708" lon="4.85615">
        <ele>180.38</ele>
        <time>2016-10-30T12:18:31Z</time>
      </trkpt>
      <trkpt lat="50.45702" lon="4.85633">
        <ele>181.83</ele>
        <time>2016-10-30T12:18:47Z</time>
      </trkpt>
      <trkpt lat="50.45696" lon="4.85645">
        <ele>182.79</ele>
        <time>2016-10-30T12:18:59Z</time>
      </trkpt>
      <trkpt lat="50.45692" lon="4.8567">
        <ele>183.27</ele>
        <time>2016-10-30T12:19:16Z</time>
      </trkpt>
      <trkpt lat="50.45684" lon="4.85689">
        <ele>183.75</ele>
        <time>2016-10-30T12:19:31Z</time>
      </trkpt>
      <trkpt lat="50.45676" lon="4.85704">
        <ele>183.75</ele>
        <time>2016-10-30T12:19:44Z</time>
      </trkpt>
      <trkpt lat="50.45674" lon="4.85705">
        <ele>183.75</ele>
        <time>2016-10-30T12:19:46Z</time>
      </trkpt>
      <trkpt lat="50.45661" lon="4.85725">
        <ele>183.75</ele>
        <time>2016-10-30T12:20:04Z</time>
      </trkpt>
      <trkpt lat="50.45652" lon="4.8574">
        <ele>183.75</ele>
        <time>2016-10-30T12:20:19Z</time>
      </trkpt>
      <trkpt lat="50.45647" lon="4.85747">
        <ele>183.75</ele>
        <time>2016-10-30T12:20:38Z</time>
      </trkpt>
      <trkpt lat="50.45642" lon="4.8575">
        <ele>183.75</ele>
        <time>2016-10-30T12:20:54Z</time>
      </trkpt>
      <trkpt lat="50.45633" lon="4.85748">
        <ele>183.75</ele>
        <time>2016-10-30T12:21:11Z</time>
      </trkpt>
      <trkpt lat="50.45617" lon="4.85756">
        <ele>183.75</ele>
        <time>2016-10-30T12:21:27Z</time>
      </trkpt>
      <trkpt lat="50.45613" lon="4.85757">
        <ele>183.75</ele>
        <time>2016-10-30T12:21:41Z</time>
      </trkpt>
      <trkpt lat="50.45613" lon="4.85756">
        <ele>182.79</ele>
        <time>2016-10-30T12:22:02Z</time>
      </trkpt>
      <trkpt lat="50.45613" lon="4.85754">
        <ele>182.79</ele>
        <time>2016-10-30T12:22:20Z</time>
      </trkpt>
      <trkpt lat="50.45614" lon="4.85754">
        <ele>182.79</ele>
        <time>2016-10-30T12:22:38Z</time>
      </trkpt>
      <trkpt lat="50.45614" lon="4.85755">
        <ele>182.79</ele>
        <time>2016-10-30T12:23:00Z</time>
      </trkpt>
      <trkpt lat="50.45614" lon="4.85756">
        <ele>182.79</ele>
        <time>2016-10-30T12:23:17Z</time>
      </trkpt>
      <trkpt lat="50.45613" lon="4.85756">
        <ele>182.79</ele>
        <time>2016-10-30T12:23:36Z</time>
      </trkpt>
      <trkpt lat="50.45613" lon="4.85754">
        <ele>182.79</ele>
        <time>2016-10-30T12:23:51Z</time>
      </trkpt>
      <trkpt lat="50.45612" lon="4.85756">
        <ele>182.79</ele>
        <time>2016-10-30T12:24:10Z</time>
      </trkpt>
      <trkpt lat="50.45616" lon="4.85754">
        <ele>182.79</ele>
        <time>2016-10-30T12:24:26Z</time>
      </trkpt>
      <trkpt lat="50.45616" lon="4.85755">
        <ele>182.79</ele>
        <time>2016-10-30T12:24:45Z</time>
      </trkpt>
      <trkpt lat="50.45616" lon="4.85756">
        <ele>182.79</ele>
        <time>2016-10-30T12:24:55Z</time>
      </trkpt>
      <trkpt lat="50.45613" lon="4.85759">
        <ele>182.79</ele>
        <time>2016-10-30T12:25:08Z</time>
      </trkpt>
      <trkpt lat="50.45613" lon="4.85756">
        <ele>184.23</ele>
        <time>2016-10-30T12:25:14Z</time>
      </trkpt>
      <trkpt lat="50.45614" lon="4.85754">
        <ele>184.23</ele>
        <time>2016-10-30T12:25:31Z</time>
      </trkpt>
      <trkpt lat="50.45613" lon="4.85752">
        <ele>184.23</ele>
        <time>2016-10-30T12:25:51Z</time>
      </trkpt>
      <trkpt lat="50.45615" lon="4.85757">
        <ele>184.23</ele>
        <time>2016-10-30T12:26:10Z</time>
      </trkpt>
      <trkpt lat="50.45617" lon="4.85752">
        <ele>184.23</ele>
        <time>2016-10-30T12:26:24Z</time>
      </trkpt>
      <trkpt lat="50.45619" lon="4.85754">
        <ele>184.23</ele>
        <time>2016-10-30T12:26:41Z</time>
      </trkpt>
      <trkpt lat="50.45618" lon="4.85754">
        <ele>184.23</ele>
        <time>2016-10-30T12:27:07Z</time>
      </trkpt>
      <trkpt lat="50.45619" lon="4.85755">
        <ele>184.23</ele>
        <time>2016-10-30T12:27:23Z</time>
      </trkpt>
      <trkpt lat="50.45616" lon="4.85753">
        <ele>184.23</ele>
        <time>2016-10-30T12:27:34Z</time>
      </trkpt>
      <trkpt lat="50.45615" lon="4.85754">
        <ele>184.23</ele>
        <time>2016-10-30T12:27:48Z</time>
      </trkpt>
      <trkpt lat="50.45616" lon="4.85751">
        <ele>184.23</ele>
        <time>2016-10-30T12:28:08Z</time>
      </trkpt>
      <trkpt lat="50.45618" lon="4.85753">
        <ele>184.23</ele>
        <time>2016-10-30T12:28:10Z</time>
      </trkpt>
      <trkpt lat="50.45614" lon="4.85758">
        <ele>184.23</ele>
        <time>2016-10-30T12:28:24Z</time>
      </trkpt>
      <trkpt lat="50.45614" lon="4.85757">
        <ele>184.23</ele>
        <time>2016-10-30T12:28:42Z</time>
      </trkpt>
      <trkpt lat="50.45615" lon="4.85755">
        <ele>184.71</ele>
        <time>2016-10-30T12:28:59Z</time>
      </trkpt>
      <trkpt lat="50.45614" lon="4.85754">
        <ele>184.71</ele>
        <time>2016-10-30T12:29:14Z</time>
      </trkpt>
      <trkpt lat="50.45614" lon="4.85752">
        <ele>184.71</ele>
        <time>2016-10-30T12:29:34Z</time>
      </trkpt>
      <trkpt lat="50.45616" lon="4.85757">
        <ele>184.71</ele>
        <time>2016-10-30T12:29:50Z</time>
      </trkpt>
      <trkpt lat="50.45615" lon="4.85758">
        <ele>184.71</ele>
        <time>2016-10-30T12:29:55Z</time>
      </trkpt>
      <trkpt lat="50.4561" lon="4.85751">
        <ele>186.15</ele>
        <time>2016-10-30T12:30:08Z</time>
      </trkpt>
      <trkpt lat="50.45609" lon="4.8575">
        <ele>186.15</ele>
        <time>2016-10-30T12:30:12Z</time>
      </trkpt>
      <trkpt lat="50.45607" lon="4.85744">
        <ele>186.63</ele>
        <time>2016-10-30T12:30:24Z</time>
      </trkpt>
      <trkpt lat="50.4561" lon="4.85747">
        <ele>186.63</ele>
        <time>2016-10-30T12:30:42Z</time>
      </trkpt>
      <trkpt lat="50.45613" lon="4.85751">
        <ele>185.67</ele>
        <time>2016-10-30T12:30:55Z</time>
      </trkpt>
      <trkpt lat="50.45616" lon="4.85756">
        <ele>184.71</ele>
        <time>2016-10-30T12:31:08Z</time>
      </trkpt>
      <trkpt lat="50.45618" lon="4.85751">
        <ele>184.71</ele>
        <time>2016-10-30T12:31:19Z</time>
      </trkpt>
      <trkpt lat="50.45617" lon="4.85754">
        <ele>184.71</ele>
        <time>2016-10-30T12:31:36Z</time>
      </trkpt>
      <trkpt lat="50.45617" lon="4.85755">
        <ele>184.71</ele>
        <time>2016-10-30T12:31:55Z</time>
      </trkpt>
      <trkpt lat="50.45615" lon="4.85754">
        <ele>184.71</ele>
        <time>2016-10-30T12:32:15Z</time>
      </trkpt>
      <trkpt lat="50.45616" lon="4.85751">
        <ele>184.71</ele>
        <time>2016-10-30T12:32:40Z</time>
      </trkpt>
      <trkpt lat="50.45617" lon="4.85753">
        <ele>184.23</ele>
        <time>2016-10-30T12:33:01Z</time>
      </trkpt>
      <trkpt lat="50.45617" lon="4.85752">
        <ele>184.23</ele>
        <time>2016-10-30T12:33:21Z</time>
      </trkpt>
      <trkpt lat="50.45616" lon="4.85752">
        <ele>184.23</ele>
        <time>2016-10-30T12:33:41Z</time>
      </trkpt>
      <trkpt lat="50.45616" lon="4.8575">
        <ele>184.23</ele>
        <time>2016-10-30T12:33:58Z</time>
      </trkpt>
      <trkpt lat="50.45616" lon="4.85759">
        <ele>184.23</ele>
        <time>2016-10-30T12:34:06Z</time>
      </trkpt>
      <trkpt lat="50.45612" lon="4.85759">
        <ele>185.19</ele>
        <time>2016-10-30T12:34:17Z</time>
      </trkpt>
      <trkpt lat="50.45613" lon="4.85755">
        <ele>185.19</ele>
        <time>2016-10-30T12:34:31Z</time>
      </trkpt>
      <trkpt lat="50.45612" lon="4.85753">
        <ele>185.19</ele>
        <time>2016-10-30T12:34:49Z</time>
      </trkpt>
      <trkpt lat="50.45615" lon="4.85757">
        <ele>185.19</ele>
        <time>2016-10-30T12:35:16Z</time>
      </trkpt>
      <trkpt lat="50.45614" lon="4.85753">
        <ele>185.19</ele>
        <time>2016-10-30T12:35:42Z</time>
      </trkpt>
      <trkpt lat="50.45615" lon="4.85755">
        <ele>185.19</ele>
        <time>2016-10-30T12:36:13Z</time>
      </trkpt>
      <trkpt lat="50.45615" lon="4.85754">
        <ele>185.19</ele>
        <time>2016-10-30T12:36:53Z</time>
      </trkpt>
      <trkpt lat="50.45615" lon="4.85754">
        <ele>185.67</ele>
        <time>2016-10-30T12:37:25Z</time>
      </trkpt>
      <trkpt lat="50.45614" lon="4.85754">
        <ele>185.67</ele>
        <time>2016-10-30T12:37:52Z</time>
      </trkpt>
      <trkpt lat="50.45615" lon="4.85755">
        <ele>185.67</ele>
        <time>2016-10-30T12:38:28Z</time>
      </trkpt>
      <trkpt lat="50.45613" lon="4.85754">
        <ele>185.67</ele>
        <time>2016-10-30T12:39:00Z</time>
      </trkpt>
      <trkpt lat="50.45615" lon="4.85754">
        <ele>185.67</ele>
        <time>2016-10-30T12:39:36Z</time>
      </trkpt>
      <trkpt lat="50.45614" lon="4.85752">
        <ele>185.67</ele>
        <time>2016-10-30T12:40:19Z</time>
      </trkpt>
      <trkpt lat="50.45616" lon="4.85754">
        <ele>185.67</ele>
        <time>2016-10-30T12:40:53Z</time>
      </trkpt>
      <trkpt lat="50.45616" lon="4.85756">
        <ele>185.67</ele>
        <time>2016-10-30T12:41:27Z</time>
      </trkpt>
      <trkpt lat="50.45615" lon="4.85755">
        <ele>185.67</ele>
        <time>2016-10-30T12:41:57Z</time>
      </trkpt>
      <trkpt lat="50.45614" lon="4.85753">
        <ele>185.67</ele>
        <time>2016-10-30T12:42:27Z</time>
      </trkpt>
      <trkpt lat="50.45613" lon="4.85754">
        <ele>185.67</ele>
        <time>2016-10-30T12:42:52Z</time>
      </trkpt>
      <trkpt lat="50.45613" lon="4.85753">
        <ele>185.67</ele>
        <time>2016-10-30T12:43:21Z</time>
      </trkpt>
      <trkpt lat="50.45614" lon="4.85753">
        <ele>185.67</ele>
        <time>2016-10-30T12:43:45Z</time>
      </trkpt>
      <trkpt lat="50.45613" lon="4.85754">
        <ele>185.67</ele>
        <time>2016-10-30T12:44:09Z</time>
      </trkpt>
      <trkpt lat="50.45613" lon="4.85754">
        <ele>185.67</ele>
        <time>2016-10-30T12:44:38Z</time>
      </trkpt>
      <trkpt lat="50.45613" lon="4.85753">
        <ele>186.15</ele>
        <time>2016-10-30T12:45:05Z</time>
      </trkpt>
      <trkpt lat="50.45613" lon="4.85754">
        <ele>186.15</ele>
        <time>2016-10-30T12:45:40Z</time>
      </trkpt>
      <trkpt lat="50.45614" lon="4.85753">
        <ele>186.15</ele>
        <time>2016-10-30T12:46:04Z</time>
      </trkpt>
      <trkpt lat="50.45615" lon="4.85755">
        <ele>186.15</ele>
        <time>2016-10-30T12:46:35Z</time>
      </trkpt>
      <trkpt lat="50.45615" lon="4.85756">
        <ele>186.15</ele>
        <time>2016-10-30T12:47:09Z</time>
      </trkpt>
      <trkpt lat="50.45614" lon="4.85754">
        <ele>186.15</ele>
        <time>2016-10-30T12:47:43Z</time>
      </trkpt>
      <trkpt lat="50.45613" lon="4.85751">
        <ele>186.15</ele>
        <time>2016-10-30T12:48:12Z</time>
      </trkpt>
      <trkpt lat="50.45613" lon="4.85752">
        <ele>186.15</ele>
        <time>2016-10-30T12:48:38Z</time>
      </trkpt>
      <trkpt lat="50.45614" lon="4.85756">
        <ele>186.15</ele>
        <time>2016-10-30T12:49:09Z</time>
      </trkpt>
      <trkpt lat="50.45613" lon="4.85753">
        <ele>186.15</ele>
        <time>2016-10-30T12:49:40Z</time>
      </trkpt>
      <trkpt lat="50.45614" lon="4.85755">
        <ele>186.15</ele>
        <time>2016-10-30T12:50:14Z</time>
      </trkpt>
      <trkpt lat="50.45613" lon="4.85753">
        <ele>186.15</ele>
        <time>2016-10-30T12:50:40Z</time>
      </trkpt>
      <trkpt lat="50.45614" lon="4.85754">
        <ele>186.15</ele>
        <time>2016-10-30T12:51:08Z</time>
      </trkpt>
      <trkpt lat="50.45614" lon="4.85753">
        <ele>186.15</ele>
        <time>2016-10-30T12:51:31Z</time>
      </trkpt>
      <trkpt lat="50.45614" lon="4.85754">
        <ele>186.15</ele>
        <time>2016-10-30T12:51:55Z</time>
      </trkpt>
      <trkpt lat="50.45614" lon="4.85753">
        <ele>186.15</ele>
        <time>2016-10-30T12:52:32Z</time>
      </trkpt>
      <trkpt lat="50.45615" lon="4.85754">
        <ele>186.15</ele>
        <time>2016-10-30T12:53:04Z</time>
      </trkpt>
      <trkpt lat="50.45614" lon="4.85752">
        <ele>186.15</ele>
        <time>2016-10-30T12:53:40Z</time>
      </trkpt>
      <trkpt lat="50.45612" lon="4.85753">
        <ele>186.15</ele>
        <time>2016-10-30T12:54:03Z</time>
      </trkpt>
      <trkpt lat="50.45613" lon="4.85753">
        <ele>186.63</ele>
        <time>2016-10-30T12:54:20Z</time>
      </trkpt>
      <trkpt lat="50.45614" lon="4.85753">
        <ele>186.63</ele>
        <time>2016-10-30T12:54:45Z</time>
      </trkpt>
      <trkpt lat="50.45612" lon="4.85752">
        <ele>186.63</ele>
        <time>2016-10-30T12:55:08Z</time>
      </trkpt>
      <trkpt lat="50.45613" lon="4.85752">
        <ele>186.63</ele>
        <time>2016-10-30T12:55:33Z</time>
      </trkpt>
      <trkpt lat="50.45613" lon="4.85754">
        <ele>185.67</ele>
        <time>2016-10-30T12:56:01Z</time>
      </trkpt>
      <trkpt lat="50.45612" lon="4.85754">
        <ele>187.11</ele>
        <time>2016-10-30T12:56:05Z</time>
      </trkpt>
      <trkpt lat="50.45613" lon="4.85754">
        <ele>185.67</ele>
        <time>2016-10-30T12:56:23Z</time>
      </trkpt>
      <trkpt lat="50.45612" lon="4.85753">
        <ele>187.11</ele>
        <time>2016-10-30T12:56:37Z</time>
      </trkpt>
      <trkpt lat="50.45613" lon="4.85754">
        <ele>187.11</ele>
        <time>2016-10-30T12:56:52Z</time>
      </trkpt>
      <trkpt lat="50.45613" lon="4.85753">
        <ele>187.59</ele>
        <time>2016-10-30T12:57:10Z</time>
      </trkpt>
      <trkpt lat="50.45613" lon="4.85753">
        <ele>187.59</ele>
        <time>2016-10-30T12:57:31Z</time>
      </trkpt>
      <trkpt lat="50.45613" lon="4.85754">
        <ele>187.11</ele>
        <time>2016-10-30T12:57:53Z</time>
      </trkpt>
      <trkpt lat="50.45614" lon="4.85757">
        <ele>187.11</ele>
        <time>2016-10-30T12:58:11Z</time>
      </trkpt>
      <trkpt lat="50.45617" lon="4.8577">
        <ele>187.11</ele>
        <time>2016-10-30T12:58:26Z</time>
      </trkpt>
      <trkpt lat="50.45616" lon="4.85771">
        <ele>187.11</ele>
        <time>2016-10-30T12:58:27Z</time>
      </trkpt>
      <trkpt lat="50.4562" lon="4.85794">
        <ele>187.11</ele>
        <time>2016-10-30T12:58:42Z</time>
      </trkpt>
      <trkpt lat="50.45621" lon="4.85795">
        <ele>187.11</ele>
        <time>2016-10-30T12:58:43Z</time>
      </trkpt>
      <trkpt lat="50.45636" lon="4.85819">
        <ele>187.11</ele>
        <time>2016-10-30T12:59:00Z</time>
      </trkpt>
      <trkpt lat="50.45646" lon="4.85836">
        <ele>187.11</ele>
        <time>2016-10-30T12:59:14Z</time>
      </trkpt>
      <trkpt lat="50.45662" lon="4.85859">
        <ele>187.11</ele>
        <time>2016-10-30T12:59:33Z</time>
      </trkpt>
      <trkpt lat="50.45665" lon="4.85862">
        <ele>187.11</ele>
        <time>2016-10-30T12:59:48Z</time>
      </trkpt>
      <trkpt lat="50.45675" lon="4.85879">
        <ele>187.11</ele>
        <time>2016-10-30T13:00:04Z</time>
      </trkpt>
      <trkpt lat="50.45685" lon="4.85894">
        <ele>187.11</ele>
        <time>2016-10-30T13:00:19Z</time>
      </trkpt>
      <trkpt lat="50.45696" lon="4.8591">
        <ele>187.59</ele>
        <time>2016-10-30T13:00:34Z</time>
      </trkpt>
      <trkpt lat="50.45708" lon="4.85924">
        <ele>187.59</ele>
        <time>2016-10-30T13:00:48Z</time>
      </trkpt>
      <trkpt lat="50.45723" lon="4.85935">
        <ele>188.08</ele>
        <time>2016-10-30T13:01:02Z</time>
      </trkpt>
      <trkpt lat="50.45735" lon="4.8594">
        <ele>188.08</ele>
        <time>2016-10-30T13:01:17Z</time>
      </trkpt>
      <trkpt lat="50.45735" lon="4.8594">
        <ele>188.08</ele>
        <time>2016-10-30T13:01:38Z</time>
      </trkpt>
      <trkpt lat="50.45728" lon="4.85939">
        <ele>188.08</ele>
        <time>2016-10-30T13:01:47Z</time>
      </trkpt>
      <trkpt lat="50.45718" lon="4.85938">
        <ele>187.59</ele>
        <time>2016-10-30T13:02:01Z</time>
      </trkpt>
      <trkpt lat="50.45718" lon="4.85937">
        <ele>187.59</ele>
        <time>2016-10-30T13:02:02Z</time>
      </trkpt>
      <trkpt lat="50.45709" lon="4.85935">
        <ele>187.59</ele>
        <time>2016-10-30T13:02:17Z</time>
      </trkpt>
      <trkpt lat="50.45704" lon="4.8592">
        <ele>187.59</ele>
        <time>2016-10-30T13:02:33Z</time>
      </trkpt>
      <trkpt lat="50.45693" lon="4.85905">
        <ele>187.59</ele>
        <time>2016-10-30T13:02:47Z</time>
      </trkpt>
      <trkpt lat="50.45681" lon="4.85888">
        <ele>187.59</ele>
        <time>2016-10-30T13:03:01Z</time>
      </trkpt>
      <trkpt lat="50.45673" lon="4.85885">
        <ele>187.59</ele>
        <time>2016-10-30T13:03:13Z</time>
      </trkpt>
      <trkpt lat="50.45675" lon="4.85889">
        <ele>186.15</ele>
        <time>2016-10-30T13:03:16Z</time>
      </trkpt>
      <trkpt lat="50.45685" lon="4.85912">
        <ele>184.23</ele>
        <time>2016-10-30T13:03:32Z</time>
      </trkpt>
      <trkpt lat="50.45683" lon="4.85928">
        <ele>182.79</ele>
        <time>2016-10-30T13:03:42Z</time>
      </trkpt>
      <trkpt lat="50.45681" lon="4.85943">
        <ele>180.87</ele>
        <time>2016-10-30T13:03:52Z</time>
      </trkpt>
      <trkpt lat="50.4568" lon="4.85963">
        <ele>178.46</ele>
        <time>2016-10-30T13:04:09Z</time>
      </trkpt>
      <trkpt lat="50.45678" lon="4.85974">
        <ele>177.02</ele>
        <time>2016-10-30T13:04:23Z</time>
      </trkpt>
      <trkpt lat="50.45677" lon="4.85978">
        <ele>177.02</ele>
        <time>2016-10-30T13:04:42Z</time>
      </trkpt>
      <trkpt lat="50.45677" lon="4.85982">
        <ele>176.54</ele>
        <time>2016-10-30T13:04:45Z</time>
      </trkpt>
      <trkpt lat="50.45682" lon="4.85996">
        <ele>174.14</ele>
        <time>2016-10-30T13:05:00Z</time>
      </trkpt>
      <trkpt lat="50.4569" lon="4.86001">
        <ele>172.21</ele>
        <time>2016-10-30T13:05:09Z</time>
      </trkpt>
      <trkpt lat="50.45692" lon="4.86002">
        <ele>172.21</ele>
        <time>2016-10-30T13:05:11Z</time>
      </trkpt>
      <trkpt lat="50.45702" lon="4.86012">
        <ele>170.29</ele>
        <time>2016-10-30T13:05:20Z</time>
      </trkpt>
      <trkpt lat="50.45705" lon="4.86018">
        <ele>169.33</ele>
        <time>2016-10-30T13:05:26Z</time>
      </trkpt>
      <trkpt lat="50.45714" lon="4.86043">
        <ele>168.37</ele>
        <time>2016-10-30T13:05:40Z</time>
      </trkpt>
      <trkpt lat="50.45719" lon="4.86051">
        <ele>167.41</ele>
        <time>2016-10-30T13:05:46Z</time>
      </trkpt>
      <trkpt lat="50.45721" lon="4.86052">
        <ele>168.85</ele>
        <time>2016-10-30T13:05:48Z</time>
      </trkpt>
      <trkpt lat="50.45722" lon="4.86053">
        <ele>167.41</ele>
        <time>2016-10-30T13:05:49Z</time>
      </trkpt>
      <trkpt lat="50.45727" lon="4.86061">
        <ele>167.41</ele>
        <time>2016-10-30T13:05:55Z</time>
      </trkpt>
      <trkpt lat="50.45743" lon="4.86081">
        <ele>165.48</ele>
        <time>2016-10-30T13:06:13Z</time>
      </trkpt>
      <trkpt lat="50.45756" lon="4.86094">
        <ele>165</ele>
        <time>2016-10-30T13:06:27Z</time>
      </trkpt>
      <trkpt lat="50.45762" lon="4.86103">
        <ele>164.04</ele>
        <time>2016-10-30T13:06:38Z</time>
      </trkpt>
      <trkpt lat="50.45764" lon="4.86105">
        <ele>164.04</ele>
        <time>2016-10-30T13:06:40Z</time>
      </trkpt>
      <trkpt lat="50.45778" lon="4.86118">
        <ele>162.6</ele>
        <time>2016-10-30T13:06:54Z</time>
      </trkpt>
      <trkpt lat="50.45791" lon="4.86131">
        <ele>162.12</ele>
        <time>2016-10-30T13:07:07Z</time>
      </trkpt>
      <trkpt lat="50.45796" lon="4.86134">
        <ele>161.64</ele>
        <time>2016-10-30T13:07:22Z</time>
      </trkpt>
      <trkpt lat="50.45812" lon="4.86147">
        <ele>160.2</ele>
        <time>2016-10-30T13:07:40Z</time>
      </trkpt>
      <trkpt lat="50.45823" lon="4.86155">
        <ele>159.24</ele>
        <time>2016-10-30T13:07:51Z</time>
      </trkpt>
      <trkpt lat="50.45839" lon="4.86171">
        <ele>157.79</ele>
        <time>2016-10-30T13:08:08Z</time>
      </trkpt>
      <trkpt lat="50.45852" lon="4.86189">
        <ele>156.83</ele>
        <time>2016-10-30T13:08:23Z</time>
      </trkpt>
      <trkpt lat="50.45866" lon="4.86209">
        <ele>155.39</ele>
        <time>2016-10-30T13:08:37Z</time>
      </trkpt>
      <trkpt lat="50.45869" lon="4.8621">
        <ele>155.39</ele>
        <time>2016-10-30T13:08:40Z</time>
      </trkpt>
      <trkpt lat="50.45871" lon="4.8621">
        <ele>155.39</ele>
        <time>2016-10-30T13:08:43Z</time>
      </trkpt>
      <trkpt lat="50.45873" lon="4.86211">
        <ele>155.39</ele>
        <time>2016-10-30T13:08:46Z</time>
      </trkpt>
      <trkpt lat="50.45875" lon="4.86214">
        <ele>154.91</ele>
        <time>2016-10-30T13:08:50Z</time>
      </trkpt>
      <trkpt lat="50.45877" lon="4.86213">
        <ele>154.91</ele>
        <time>2016-10-30T13:08:52Z</time>
      </trkpt>
      <trkpt lat="50.45889" lon="4.86204">
        <ele>154.91</ele>
        <time>2016-10-30T13:09:06Z</time>
      </trkpt>
      <trkpt lat="50.45904" lon="4.86204">
        <ele>154.91</ele>
        <time>2016-10-30T13:09:20Z</time>
      </trkpt>
      <trkpt lat="50.45908" lon="4.862">
        <ele>155.87</ele>
        <time>2016-10-30T13:09:24Z</time>
      </trkpt>
      <trkpt lat="50.4592" lon="4.86193">
        <ele>156.35</ele>
        <time>2016-10-30T13:09:39Z</time>
      </trkpt>
      <trkpt lat="50.45925" lon="4.86192">
        <ele>156.35</ele>
        <time>2016-10-30T13:09:44Z</time>
      </trkpt>
      <trkpt lat="50.4594" lon="4.86204">
        <ele>156.83</ele>
        <time>2016-10-30T13:09:59Z</time>
      </trkpt>
      <trkpt lat="50.45952" lon="4.86216">
        <ele>156.83</ele>
        <time>2016-10-30T13:10:13Z</time>
      </trkpt>
      <trkpt lat="50.45954" lon="4.86218">
        <ele>156.35</ele>
        <time>2016-10-30T13:10:15Z</time>
      </trkpt>
      <trkpt lat="50.45952" lon="4.86221">
        <ele>156.35</ele>
        <time>2016-10-30T13:10:27Z</time>
      </trkpt>
      <trkpt lat="50.4595" lon="4.8622">
        <ele>156.35</ele>
        <time>2016-10-30T13:10:39Z</time>
      </trkpt>
      <trkpt lat="50.4594" lon="4.86226">
        <ele>156.83</ele>
        <time>2016-10-30T13:10:50Z</time>
      </trkpt>
      <trkpt lat="50.45936" lon="4.86229">
        <ele>156.83</ele>
        <time>2016-10-30T13:10:55Z</time>
      </trkpt>
      <trkpt lat="50.45936" lon="4.86237">
        <ele>158.27</ele>
        <time>2016-10-30T13:11:09Z</time>
      </trkpt>
      <trkpt lat="50.45935" lon="4.86244">
        <ele>159.72</ele>
        <time>2016-10-30T13:11:20Z</time>
      </trkpt>
      <trkpt lat="50.45932" lon="4.86247">
        <ele>160.68</ele>
        <time>2016-10-30T13:11:34Z</time>
      </trkpt>
      <trkpt lat="50.45933" lon="4.86246">
        <ele>160.2</ele>
        <time>2016-10-30T13:11:53Z</time>
      </trkpt>
      <trkpt lat="50.45934" lon="4.86252">
        <ele>160.2</ele>
        <time>2016-10-30T13:12:18Z</time>
      </trkpt>
      <trkpt lat="50.45934" lon="4.86253">
        <ele>160.2</ele>
        <time>2016-10-30T13:12:57Z</time>
      </trkpt>
      <trkpt lat="50.45934" lon="4.86252">
        <ele>160.2</ele>
        <time>2016-10-30T13:13:29Z</time>
      </trkpt>
      <trkpt lat="50.45935" lon="4.86253">
        <ele>160.2</ele>
        <time>2016-10-30T13:13:58Z</time>
      </trkpt>
      <trkpt lat="50.45934" lon="4.86254">
        <ele>160.2</ele>
        <time>2016-10-30T13:14:28Z</time>
      </trkpt>
      <trkpt lat="50.45935" lon="4.86253">
        <ele>160.2</ele>
        <time>2016-10-30T13:15:02Z</time>
      </trkpt>
      <trkpt lat="50.45934" lon="4.86252">
        <ele>160.2</ele>
        <time>2016-10-30T13:15:38Z</time>
      </trkpt>
      <trkpt lat="50.45933" lon="4.86252">
        <ele>160.2</ele>
        <time>2016-10-30T13:16:10Z</time>
      </trkpt>
      <trkpt lat="50.45935" lon="4.86252">
        <ele>159.72</ele>
        <time>2016-10-30T13:16:46Z</time>
      </trkpt>
      <trkpt lat="50.45935" lon="4.8625">
        <ele>159.72</ele>
        <time>2016-10-30T13:17:21Z</time>
      </trkpt>
      <trkpt lat="50.45934" lon="4.86255">
        <ele>160.68</ele>
        <time>2016-10-30T13:17:38Z</time>
      </trkpt>
      <trkpt lat="50.45933" lon="4.86256">
        <ele>160.68</ele>
        <time>2016-10-30T13:17:55Z</time>
      </trkpt>
      <trkpt lat="50.45932" lon="4.86252">
        <ele>160.68</ele>
        <time>2016-10-30T13:18:18Z</time>
      </trkpt>
      <trkpt lat="50.45934" lon="4.8625">
        <ele>160.68</ele>
        <time>2016-10-30T13:18:35Z</time>
      </trkpt>
      <trkpt lat="50.45933" lon="4.86252">
        <ele>160.68</ele>
        <time>2016-10-30T13:18:46Z</time>
      </trkpt>
      <trkpt lat="50.45931" lon="4.86252">
        <ele>160.68</ele>
        <time>2016-10-30T13:18:48Z</time>
      </trkpt>
      <trkpt lat="50.45929" lon="4.86254">
        <ele>160.68</ele>
        <time>2016-10-30T13:18:50Z</time>
      </trkpt>
      <trkpt lat="50.45916" lon="4.86261">
        <ele>160.68</ele>
        <time>2016-10-30T13:19:04Z</time>
      </trkpt>
      <trkpt lat="50.45914" lon="4.86259">
        <ele>160.68</ele>
        <time>2016-10-30T13:19:23Z</time>
      </trkpt>
      <trkpt lat="50.45916" lon="4.8626">
        <ele>160.68</ele>
        <time>2016-10-30T13:19:46Z</time>
      </trkpt>
      <trkpt lat="50.45915" lon="4.86262">
        <ele>160.68</ele>
        <time>2016-10-30T13:19:58Z</time>
      </trkpt>
      <trkpt lat="50.45915" lon="4.86258">
        <ele>156.35</ele>
        <time>2016-10-30T13:20:01Z</time>
      </trkpt>
      <trkpt lat="50.45915" lon="4.86257">
        <ele>159.72</ele>
        <time>2016-10-30T13:20:02Z</time>
      </trkpt>
      <trkpt lat="50.45914" lon="4.86253">
        <ele>159.72</ele>
        <time>2016-10-30T13:20:05Z</time>
      </trkpt>
      <trkpt lat="50.45911" lon="4.86247">
        <ele>159.72</ele>
        <time>2016-10-30T13:20:09Z</time>
      </trkpt>
      <trkpt lat="50.45912" lon="4.86243">
        <ele>158.27</ele>
        <time>2016-10-30T13:20:12Z</time>
      </trkpt>
      <trkpt lat="50.45915" lon="4.86235">
        <ele>157.79</ele>
        <time>2016-10-30T13:20:20Z</time>
      </trkpt>
      <trkpt lat="50.45922" lon="4.86211">
        <ele>156.83</ele>
        <time>2016-10-30T13:20:34Z</time>
      </trkpt>
      <trkpt lat="50.45922" lon="4.86209">
        <ele>156.83</ele>
        <time>2016-10-30T13:20:36Z</time>
      </trkpt>
      <trkpt lat="50.45922" lon="4.86206">
        <ele>156.83</ele>
        <time>2016-10-30T13:20:38Z</time>
      </trkpt>
      <trkpt lat="50.4592" lon="4.86183">
        <ele>156.35</ele>
        <time>2016-10-30T13:20:52Z</time>
      </trkpt>
      <trkpt lat="50.4592" lon="4.86172">
        <ele>156.35</ele>
        <time>2016-10-30T13:20:59Z</time>
      </trkpt>
      <trkpt lat="50.45917" lon="4.86169">
        <ele>156.35</ele>
        <time>2016-10-30T13:21:15Z</time>
      </trkpt>
      <trkpt lat="50.45919" lon="4.86166">
        <ele>156.35</ele>
        <time>2016-10-30T13:21:25Z</time>
      </trkpt>
      <trkpt lat="50.45919" lon="4.86158">
        <ele>156.35</ele>
        <time>2016-10-30T13:21:31Z</time>
      </trkpt>
      <trkpt lat="50.45916" lon="4.8615">
        <ele>156.35</ele>
        <time>2016-10-30T13:21:43Z</time>
      </trkpt>
      <trkpt lat="50.45914" lon="4.86148">
        <ele>155.87</ele>
        <time>2016-10-30T13:21:56Z</time>
      </trkpt>
      <trkpt lat="50.45913" lon="4.86147">
        <ele>157.79</ele>
        <time>2016-10-30T13:30:09Z</time>
      </trkpt>
      <trkpt lat="50.45917" lon="4.86144">
        <ele>157.79</ele>
        <time>2016-10-30T13:30:12Z</time>
      </trkpt>
      <trkpt lat="50.45917" lon="4.86157">
        <ele>157.31</ele>
        <time>2016-10-30T13:30:25Z</time>
      </trkpt>
      <trkpt lat="50.45916" lon="4.86162">
        <ele>157.31</ele>
        <time>2016-10-30T13:30:46Z</time>
      </trkpt>
      <trkpt lat="50.45916" lon="4.86154">
        <ele>157.31</ele>
        <time>2016-10-30T13:31:17Z</time>
      </trkpt>
      <trkpt lat="50.45918" lon="4.86155">
        <ele>157.79</ele>
        <time>2016-10-30T13:31:53Z</time>
      </trkpt>
      <trkpt lat="50.45919" lon="4.86155">
        <ele>157.79</ele>
        <time>2016-10-30T13:32:28Z</time>
      </trkpt>
      <trkpt lat="50.45921" lon="4.86161">
        <ele>157.79</ele>
        <time>2016-10-30T13:33:06Z</time>
      </trkpt>
      <trkpt lat="50.45921" lon="4.86166">
        <ele>157.79</ele>
        <time>2016-10-30T13:33:28Z</time>
      </trkpt>
      <trkpt lat="50.45917" lon="4.86162">
        <ele>157.79</ele>
        <time>2016-10-30T13:34:01Z</time>
      </trkpt>
      <trkpt lat="50.45919" lon="4.86168">
        <ele>157.79</ele>
        <time>2016-10-30T13:34:27Z</time>
      </trkpt>
      <trkpt lat="50.45916" lon="4.86167">
        <ele>157.79</ele>
        <time>2016-10-30T13:34:58Z</time>
      </trkpt>
      <trkpt lat="50.45916" lon="4.86165">
        <ele>157.79</ele>
        <time>2016-10-30T13:35:20Z</time>
      </trkpt>
      <trkpt lat="50.45916" lon="4.86161">
        <ele>157.79</ele>
        <time>2016-10-30T13:35:45Z</time>
      </trkpt>
      <trkpt lat="50.45916" lon="4.86158">
        <ele>157.79</ele>
        <time>2016-10-30T13:36:09Z</time>
      </trkpt>
      <trkpt lat="50.45915" lon="4.8616">
        <ele>158.27</ele>
        <time>2016-10-30T13:36:40Z</time>
      </trkpt>
      <trkpt lat="50.45917" lon="4.86161">
        <ele>158.27</ele>
        <time>2016-10-30T13:37:03Z</time>
      </trkpt>
      <trkpt lat="50.45917" lon="4.86162">
        <ele>158.27</ele>
        <time>2016-10-30T13:37:29Z</time>
      </trkpt>
      <trkpt lat="50.45916" lon="4.86161">
        <ele>158.75</ele>
        <time>2016-10-30T13:38:01Z</time>
      </trkpt>
      <trkpt lat="50.45917" lon="4.86162">
        <ele>158.75</ele>
        <time>2016-10-30T13:38:21Z</time>
      </trkpt>
      <trkpt lat="50.45916" lon="4.86165">
        <ele>158.75</ele>
        <time>2016-10-30T13:38:45Z</time>
      </trkpt>
      <trkpt lat="50.45919" lon="4.86163">
        <ele>159.24</ele>
        <time>2016-10-30T13:39:11Z</time>
      </trkpt>
      <trkpt lat="50.45918" lon="4.86162">
        <ele>159.24</ele>
        <time>2016-10-30T13:39:36Z</time>
      </trkpt>
      <trkpt lat="50.45917" lon="4.86162">
        <ele>159.24</ele>
        <time>2016-10-30T13:39:54Z</time>
      </trkpt>
      <trkpt lat="50.45915" lon="4.86161">
        <ele>159.24</ele>
        <time>2016-10-30T13:40:23Z</time>
      </trkpt>
      <trkpt lat="50.45913" lon="4.86162">
        <ele>159.24</ele>
        <time>2016-10-30T13:40:41Z</time>
      </trkpt>
      <trkpt lat="50.45912" lon="4.86159">
        <ele>159.24</ele>
        <time>2016-10-30T13:41:00Z</time>
      </trkpt>
      <trkpt lat="50.45913" lon="4.8616">
        <ele>159.24</ele>
        <time>2016-10-30T13:41:16Z</time>
      </trkpt>
      <trkpt lat="50.45918" lon="4.86159">
        <ele>159.24</ele>
        <time>2016-10-30T13:41:41Z</time>
      </trkpt>
      <trkpt lat="50.45918" lon="4.86166">
        <ele>159.24</ele>
        <time>2016-10-30T13:42:09Z</time>
      </trkpt>
      <trkpt lat="50.45918" lon="4.86166">
        <ele>159.72</ele>
        <time>2016-10-30T13:42:32Z</time>
      </trkpt>
      <trkpt lat="50.45919" lon="4.86166">
        <ele>159.72</ele>
        <time>2016-10-30T13:42:58Z</time>
      </trkpt>
      <trkpt lat="50.45917" lon="4.86164">
        <ele>159.72</ele>
        <time>2016-10-30T13:43:23Z</time>
      </trkpt>
      <trkpt lat="50.45916" lon="4.86161">
        <ele>159.72</ele>
        <time>2016-10-30T13:43:46Z</time>
      </trkpt>
      <trkpt lat="50.45916" lon="4.8616">
        <ele>159.72</ele>
        <time>2016-10-30T13:44:09Z</time>
      </trkpt>
      <trkpt lat="50.45915" lon="4.86158">
        <ele>159.72</ele>
        <time>2016-10-30T13:44:35Z</time>
      </trkpt>
      <trkpt lat="50.45915" lon="4.86159">
        <ele>160.2</ele>
        <time>2016-10-30T13:45:00Z</time>
      </trkpt>
      <trkpt lat="50.45915" lon="4.86158">
        <ele>160.2</ele>
        <time>2016-10-30T13:45:22Z</time>
      </trkpt>
      <trkpt lat="50.45915" lon="4.86157">
        <ele>160.2</ele>
        <time>2016-10-30T13:45:43Z</time>
      </trkpt>
      <trkpt lat="50.45916" lon="4.86158">
        <ele>160.68</ele>
        <time>2016-10-30T13:46:03Z</time>
      </trkpt>
      <trkpt lat="50.45914" lon="4.86158">
        <ele>160.68</ele>
        <time>2016-10-30T13:46:28Z</time>
      </trkpt>
      <trkpt lat="50.45913" lon="4.86159">
        <ele>160.68</ele>
        <time>2016-10-30T13:46:53Z</time>
      </trkpt>
      <trkpt lat="50.45916" lon="4.86163">
        <ele>160.68</ele>
        <time>2016-10-30T13:47:08Z</time>
      </trkpt>
      <trkpt lat="50.45917" lon="4.8616">
        <ele>160.68</ele>
        <time>2016-10-30T13:47:26Z</time>
      </trkpt>
      <trkpt lat="50.45918" lon="4.86162">
        <ele>160.68</ele>
        <time>2016-10-30T13:47:45Z</time>
      </trkpt>
      <trkpt lat="50.45918" lon="4.86158">
        <ele>160.68</ele>
        <time>2016-10-30T13:48:16Z</time>
      </trkpt>
      <trkpt lat="50.45916" lon="4.86157">
        <ele>161.16</ele>
        <time>2016-10-30T13:48:46Z</time>
      </trkpt>
      <trkpt lat="50.45913" lon="4.86156">
        <ele>161.16</ele>
        <time>2016-10-30T13:49:10Z</time>
      </trkpt>
      <trkpt lat="50.45915" lon="4.86155">
        <ele>161.16</ele>
        <time>2016-10-30T13:49:37Z</time>
      </trkpt>
      <trkpt lat="50.45916" lon="4.86149">
        <ele>161.16</ele>
        <time>2016-10-30T13:50:02Z</time>
      </trkpt>
      <trkpt lat="50.45914" lon="4.86152">
        <ele>161.16</ele>
        <time>2016-10-30T13:50:23Z</time>
      </trkpt>
      <trkpt lat="50.45915" lon="4.8615">
        <ele>161.16</ele>
        <time>2016-10-30T13:50:49Z</time>
      </trkpt>
      <trkpt lat="50.45915" lon="4.86157">
        <ele>161.16</ele>
        <time>2016-10-30T13:51:12Z</time>
      </trkpt>
      <trkpt lat="50.45914" lon="4.86156">
        <ele>161.16</ele>
        <time>2016-10-30T13:51:46Z</time>
      </trkpt>
      <trkpt lat="50.45914" lon="4.8616">
        <ele>161.16</ele>
        <time>2016-10-30T13:52:13Z</time>
      </trkpt>
      <trkpt lat="50.45915" lon="4.86161">
        <ele>161.16</ele>
        <time>2016-10-30T13:52:48Z</time>
      </trkpt>
      <trkpt lat="50.45917" lon="4.86157">
        <ele>161.16</ele>
        <time>2016-10-30T13:53:22Z</time>
      </trkpt>
      <trkpt lat="50.45917" lon="4.86154">
        <ele>161.16</ele>
        <time>2016-10-30T13:53:54Z</time>
      </trkpt>
      <trkpt lat="50.45915" lon="4.86159">
        <ele>161.16</ele>
        <time>2016-10-30T13:54:24Z</time>
      </trkpt>
      <trkpt lat="50.45917" lon="4.86162">
        <ele>160.68</ele>
        <time>2016-10-30T13:54:50Z</time>
      </trkpt>
      <trkpt lat="50.45917" lon="4.86163">
        <ele>160.68</ele>
        <time>2016-10-30T13:55:12Z</time>
      </trkpt>
      <trkpt lat="50.45917" lon="4.86165">
        <ele>160.68</ele>
        <time>2016-10-30T13:55:18Z</time>
      </trkpt>
      <trkpt lat="50.45919" lon="4.86178">
        <ele>161.64</ele>
        <time>2016-10-30T13:55:29Z</time>
      </trkpt>
      <trkpt lat="50.45924" lon="4.86191">
        <ele>161.64</ele>
        <time>2016-10-30T13:55:41Z</time>
      </trkpt>
      <trkpt lat="50.45934" lon="4.86206">
        <ele>161.64</ele>
        <time>2016-10-30T13:55:53Z</time>
      </trkpt>
      <trkpt lat="50.45932" lon="4.86228">
        <ele>161.64</ele>
        <time>2016-10-30T13:56:08Z</time>
      </trkpt>
      <trkpt lat="50.4593" lon="4.86229">
        <ele>161.64</ele>
        <time>2016-10-30T13:56:27Z</time>
      </trkpt>
      <trkpt lat="50.45928" lon="4.8623">
        <ele>161.64</ele>
        <time>2016-10-30T13:56:45Z</time>
      </trkpt>
      <trkpt lat="50.45927" lon="4.8623">
        <ele>161.64</ele>
        <time>2016-10-30T13:57:19Z</time>
      </trkpt>
      <trkpt lat="50.45929" lon="4.86231">
        <ele>161.64</ele>
        <time>2016-10-30T13:57:52Z</time>
      </trkpt>
      <trkpt lat="50.45928" lon="4.86231">
        <ele>161.64</ele>
        <time>2016-10-30T13:58:18Z</time>
      </trkpt>
      <trkpt lat="50.45926" lon="4.86231">
        <ele>161.64</ele>
        <time>2016-10-30T13:58:39Z</time>
      </trkpt>
      <trkpt lat="50.45925" lon="4.86232">
        <ele>161.64</ele>
        <time>2016-10-30T13:59:15Z</time>
      </trkpt>
      <trkpt lat="50.4593" lon="4.86232">
        <ele>161.16</ele>
        <time>2016-10-30T13:59:39Z</time>
      </trkpt>
      <trkpt lat="50.45929" lon="4.86229">
        <ele>154.43</ele>
        <time>2016-10-30T13:59:56Z</time>
      </trkpt>
      <trkpt lat="50.45929" lon="4.86229">
        <ele>162.12</ele>
        <time>2016-10-30T13:59:57Z</time>
      </trkpt>
      <trkpt lat="50.45928" lon="4.86229">
        <ele>162.12</ele>
        <time>2016-10-30T14:00:09Z</time>
      </trkpt>
      <trkpt lat="50.45929" lon="4.86229">
        <ele>161.64</ele>
        <time>2016-10-30T14:00:30Z</time>
      </trkpt>
      <trkpt lat="50.45928" lon="4.86228">
        <ele>161.64</ele>
        <time>2016-10-30T14:01:01Z</time>
      </trkpt>
      <trkpt lat="50.45927" lon="4.86228">
        <ele>161.64</ele>
        <time>2016-10-30T14:01:25Z</time>
      </trkpt>
      <trkpt lat="50.45927" lon="4.86226">
        <ele>161.64</ele>
        <time>2016-10-30T14:01:46Z</time>
      </trkpt>
      <trkpt lat="50.45933" lon="4.86223">
        <ele>161.64</ele>
        <time>2016-10-30T14:02:09Z</time>
      </trkpt>
      <trkpt lat="50.45936" lon="4.86209">
        <ele>161.16</ele>
        <time>2016-10-30T14:02:24Z</time>
      </trkpt>
      <trkpt lat="50.45935" lon="4.86205">
        <ele>160.2</ele>
        <time>2016-10-30T14:02:27Z</time>
      </trkpt>
      <trkpt lat="50.45934" lon="4.86188">
        <ele>160.2</ele>
        <time>2016-10-30T14:02:41Z</time>
      </trkpt>
      <trkpt lat="50.45932" lon="4.86173">
        <ele>160.2</ele>
        <time>2016-10-30T14:02:57Z</time>
      </trkpt>
      <trkpt lat="50.45932" lon="4.86154">
        <ele>160.2</ele>
        <time>2016-10-30T14:03:09Z</time>
      </trkpt>
      <trkpt lat="50.45931" lon="4.86136">
        <ele>160.2</ele>
        <time>2016-10-30T14:03:22Z</time>
      </trkpt>
      <trkpt lat="50.45929" lon="4.8611">
        <ele>160.2</ele>
        <time>2016-10-30T14:03:38Z</time>
      </trkpt>
      <trkpt lat="50.45928" lon="4.86094">
        <ele>159.72</ele>
        <time>2016-10-30T14:03:48Z</time>
      </trkpt>
      <trkpt lat="50.45928" lon="4.86092">
        <ele>159.72</ele>
        <time>2016-10-30T14:03:49Z</time>
      </trkpt>
      <trkpt lat="50.45928" lon="4.86068">
        <ele>159.72</ele>
        <time>2016-10-30T14:04:03Z</time>
      </trkpt>
      <trkpt lat="50.45928" lon="4.86062">
        <ele>159.72</ele>
        <time>2016-10-30T14:04:06Z</time>
      </trkpt>
      <trkpt lat="50.45928" lon="4.86061">
        <ele>159.72</ele>
        <time>2016-10-30T14:04:07Z</time>
      </trkpt>
      <trkpt lat="50.45929" lon="4.86058">
        <ele>159.72</ele>
        <time>2016-10-30T14:04:08Z</time>
      </trkpt>
      <trkpt lat="50.45929" lon="4.86057">
        <ele>159.24</ele>
        <time>2016-10-30T14:04:09Z</time>
      </trkpt>
      <trkpt lat="50.45933" lon="4.86049">
        <ele>159.24</ele>
        <time>2016-10-30T14:04:15Z</time>
      </trkpt>
      <trkpt lat="50.45937" lon="4.86046">
        <ele>154.43</ele>
        <time>2016-10-30T14:04:24Z</time>
      </trkpt>
      <trkpt lat="50.45938" lon="4.86047">
        <ele>159.24</ele>
        <time>2016-10-30T14:04:25Z</time>
      </trkpt>
      <trkpt lat="50.45938" lon="4.86047">
        <ele>159.24</ele>
        <time>2016-10-30T14:04:26Z</time>
      </trkpt>
      <trkpt lat="50.45944" lon="4.86054">
        <ele>158.75</ele>
        <time>2016-10-30T14:04:42Z</time>
      </trkpt>
      <trkpt lat="50.45946" lon="4.86061">
        <ele>158.75</ele>
        <time>2016-10-30T14:04:48Z</time>
      </trkpt>
      <trkpt lat="50.45947" lon="4.86063">
        <ele>158.75</ele>
        <time>2016-10-30T14:04:49Z</time>
      </trkpt>
      <trkpt lat="50.45947" lon="4.86066">
        <ele>158.75</ele>
        <time>2016-10-30T14:04:51Z</time>
      </trkpt>
      <trkpt lat="50.45948" lon="4.86068">
        <ele>158.75</ele>
        <time>2016-10-30T14:04:52Z</time>
      </trkpt>
      <trkpt lat="50.45953" lon="4.86086">
        <ele>156.35</ele>
        <time>2016-10-30T14:05:07Z</time>
      </trkpt>
      <trkpt lat="50.45954" lon="4.86092">
        <ele>155.87</ele>
        <time>2016-10-30T14:05:11Z</time>
      </trkpt>
      <trkpt lat="50.4596" lon="4.8611">
        <ele>153.95</ele>
        <time>2016-10-30T14:05:25Z</time>
      </trkpt>
      <trkpt lat="50.45962" lon="4.86118">
        <ele>153.47</ele>
        <time>2016-10-30T14:05:31Z</time>
      </trkpt>
      <trkpt lat="50.45963" lon="4.8612">
        <ele>153.47</ele>
        <time>2016-10-30T14:05:32Z</time>
      </trkpt>
      <trkpt lat="50.45966" lon="4.86128">
        <ele>152.51</ele>
        <time>2016-10-30T14:05:38Z</time>
      </trkpt>
      <trkpt lat="50.45971" lon="4.86151">
        <ele>151.06</ele>
        <time>2016-10-30T14:05:53Z</time>
      </trkpt>
      <trkpt lat="50.45976" lon="4.86174">
        <ele>149.62</ele>
        <time>2016-10-30T14:06:08Z</time>
      </trkpt>
      <trkpt lat="50.45981" lon="4.86194">
        <ele>149.14</ele>
        <time>2016-10-30T14:06:20Z</time>
      </trkpt>
      <trkpt lat="50.45989" lon="4.86213">
        <ele>148.66</ele>
        <time>2016-10-30T14:06:31Z</time>
      </trkpt>
      <trkpt lat="50.45997" lon="4.86219">
        <ele>147.7</ele>
        <time>2016-10-30T14:06:39Z</time>
      </trkpt>
      <trkpt lat="50.46002" lon="4.86217">
        <ele>147.22</ele>
        <time>2016-10-30T14:06:44Z</time>
      </trkpt>
      <trkpt lat="50.46003" lon="4.86217">
        <ele>147.22</ele>
        <time>2016-10-30T14:06:45Z</time>
      </trkpt>
      <trkpt lat="50.46005" lon="4.86216">
        <ele>147.22</ele>
        <time>2016-10-30T14:06:46Z</time>
      </trkpt>
      <trkpt lat="50.46013" lon="4.86203">
        <ele>146.26</ele>
        <time>2016-10-30T14:06:56Z</time>
      </trkpt>
      <trkpt lat="50.46012" lon="4.86178">
        <ele>144.34</ele>
        <time>2016-10-30T14:07:10Z</time>
      </trkpt>
      <trkpt lat="50.4601" lon="4.86168">
        <ele>143.85</ele>
        <time>2016-10-30T14:07:15Z</time>
      </trkpt>
      <trkpt lat="50.46009" lon="4.86158">
        <ele>142.89</ele>
        <time>2016-10-30T14:07:21Z</time>
      </trkpt>
      <trkpt lat="50.46009" lon="4.86153">
        <ele>142.89</ele>
        <time>2016-10-30T14:07:24Z</time>
      </trkpt>
      <trkpt lat="50.46009" lon="4.86151">
        <ele>142.89</ele>
        <time>2016-10-30T14:07:25Z</time>
      </trkpt>
      <trkpt lat="50.46004" lon="4.86132">
        <ele>141.45</ele>
        <time>2016-10-30T14:07:39Z</time>
      </trkpt>
      <trkpt lat="50.45998" lon="4.86106">
        <ele>139.53</ele>
        <time>2016-10-30T14:07:55Z</time>
      </trkpt>
      <trkpt lat="50.45992" lon="4.86081">
        <ele>138.09</ele>
        <time>2016-10-30T14:08:11Z</time>
      </trkpt>
      <trkpt lat="50.45991" lon="4.86067">
        <ele>137.13</ele>
        <time>2016-10-30T14:08:20Z</time>
      </trkpt>
      <trkpt lat="50.45997" lon="4.86045">
        <ele>135.68</ele>
        <time>2016-10-30T14:08:35Z</time>
      </trkpt>
      <trkpt lat="50.46004" lon="4.86039">
        <ele>134.72</ele>
        <time>2016-10-30T14:08:44Z</time>
      </trkpt>
      <trkpt lat="50.46005" lon="4.86039">
        <ele>134.72</ele>
        <time>2016-10-30T14:08:45Z</time>
      </trkpt>
      <trkpt lat="50.46025" lon="4.86044">
        <ele>132.8</ele>
        <time>2016-10-30T14:09:02Z</time>
      </trkpt>
      <trkpt lat="50.46033" lon="4.86047">
        <ele>131.84</ele>
        <time>2016-10-30T14:09:10Z</time>
      </trkpt>
      <trkpt lat="50.46034" lon="4.86047">
        <ele>131.84</ele>
        <time>2016-10-30T14:09:11Z</time>
      </trkpt>
      <trkpt lat="50.46045" lon="4.86069">
        <ele>129.92</ele>
        <time>2016-10-30T14:09:27Z</time>
      </trkpt>
      <trkpt lat="50.46046" lon="4.86071">
        <ele>129.43</ele>
        <time>2016-10-30T14:09:29Z</time>
      </trkpt>
      <trkpt lat="50.46058" lon="4.86106">
        <ele>126.55</ele>
        <time>2016-10-30T14:09:50Z</time>
      </trkpt>
      <trkpt lat="50.46065" lon="4.8612">
        <ele>126.07</ele>
        <time>2016-10-30T14:10:04Z</time>
      </trkpt>
      <trkpt lat="50.46062" lon="4.86123">
        <ele>125.59</ele>
        <time>2016-10-30T14:10:27Z</time>
      </trkpt>
      <trkpt lat="50.46069" lon="4.86139">
        <ele>125.59</ele>
        <time>2016-10-30T14:10:40Z</time>
      </trkpt>
      <trkpt lat="50.46072" lon="4.86159">
        <ele>125.59</ele>
        <time>2016-10-30T14:10:52Z</time>
      </trkpt>
      <trkpt lat="50.46074" lon="4.86192">
        <ele>125.59</ele>
        <time>2016-10-30T14:11:11Z</time>
      </trkpt>
      <trkpt lat="50.46073" lon="4.86206">
        <ele>125.59</ele>
        <time>2016-10-30T14:11:22Z</time>
      </trkpt>
      <trkpt lat="50.46072" lon="4.86208">
        <ele>125.59</ele>
        <time>2016-10-30T14:11:23Z</time>
      </trkpt>
      <trkpt lat="50.4607" lon="4.86215">
        <ele>125.59</ele>
        <time>2016-10-30T14:11:28Z</time>
      </trkpt>
      <trkpt lat="50.46073" lon="4.86224">
        <ele>127.03</ele>
        <time>2016-10-30T14:11:34Z</time>
      </trkpt>
      <trkpt lat="50.46074" lon="4.86225">
        <ele>127.03</ele>
        <time>2016-10-30T14:11:35Z</time>
      </trkpt>
      <trkpt lat="50.46074" lon="4.86225">
        <ele>127.03</ele>
        <time>2016-10-30T14:11:51Z</time>
      </trkpt>
      <trkpt lat="50.46073" lon="4.86228">
        <ele>127.03</ele>
        <time>2016-10-30T14:12:14Z</time>
      </trkpt>
      <trkpt lat="50.46074" lon="4.86235">
        <ele>127.03</ele>
        <time>2016-10-30T14:12:30Z</time>
      </trkpt>
      <trkpt lat="50.46076" lon="4.86253">
        <ele>127.51</ele>
        <time>2016-10-30T14:12:45Z</time>
      </trkpt>
      <trkpt lat="50.46075" lon="4.86253">
        <ele>127.51</ele>
        <time>2016-10-30T14:13:05Z</time>
      </trkpt>
      <trkpt lat="50.46074" lon="4.86255">
        <ele>127.51</ele>
        <time>2016-10-30T14:13:34Z</time>
      </trkpt>
      <trkpt lat="50.46075" lon="4.86255">
        <ele>115.98</ele>
        <time>2016-10-30T14:13:38Z</time>
      </trkpt>
      <trkpt lat="50.46075" lon="4.86254">
        <ele>127.51</ele>
        <time>2016-10-30T14:13:39Z</time>
      </trkpt>
      <trkpt lat="50.46074" lon="4.86248">
        <ele>127.03</ele>
        <time>2016-10-30T14:13:57Z</time>
      </trkpt>
      <trkpt lat="50.46073" lon="4.86249">
        <ele>127.03</ele>
        <time>2016-10-30T14:14:30Z</time>
      </trkpt>
      <trkpt lat="50.46072" lon="4.8626">
        <ele>127.03</ele>
        <time>2016-10-30T14:14:38Z</time>
      </trkpt>
      <trkpt lat="50.46076" lon="4.86282">
        <ele>127.03</ele>
        <time>2016-10-30T14:14:53Z</time>
      </trkpt>
      <trkpt lat="50.46076" lon="4.86304">
        <ele>127.03</ele>
        <time>2016-10-30T14:15:08Z</time>
      </trkpt>
      <trkpt lat="50.46076" lon="4.86307">
        <ele>128.47</ele>
        <time>2016-10-30T14:15:10Z</time>
      </trkpt>
      <trkpt lat="50.46077" lon="4.86333">
        <ele>128.95</ele>
        <time>2016-10-30T14:15:26Z</time>
      </trkpt>
      <trkpt lat="50.46075" lon="4.86356">
        <ele>129.43</ele>
        <time>2016-10-30T14:15:42Z</time>
      </trkpt>
      <trkpt lat="50.46076" lon="4.86374">
        <ele>129.92</ele>
        <time>2016-10-30T14:15:53Z</time>
      </trkpt>
      <trkpt lat="50.46075" lon="4.86383">
        <ele>130.4</ele>
        <time>2016-10-30T14:16:02Z</time>
      </trkpt>
      <trkpt lat="50.46085" lon="4.86394">
        <ele>130.4</ele>
        <time>2016-10-30T14:16:14Z</time>
      </trkpt>
      <trkpt lat="50.46086" lon="4.86393">
        <ele>130.88</ele>
        <time>2016-10-30T14:16:45Z</time>
      </trkpt>
      <trkpt lat="50.46085" lon="4.86388">
        <ele>130.88</ele>
        <time>2016-10-30T14:17:04Z</time>
      </trkpt>
      <trkpt lat="50.46083" lon="4.86378">
        <ele>130.88</ele>
        <time>2016-10-30T14:17:21Z</time>
      </trkpt>
      <trkpt lat="50.46088" lon="4.86381">
        <ele>123.67</ele>
        <time>2016-10-30T14:17:37Z</time>
      </trkpt>
      <trkpt lat="50.46087" lon="4.86381">
        <ele>131.36</ele>
        <time>2016-10-30T14:17:38Z</time>
      </trkpt>
      <trkpt lat="50.46085" lon="4.86386">
        <ele>131.84</ele>
        <time>2016-10-30T14:17:56Z</time>
      </trkpt>
      <trkpt lat="50.46084" lon="4.86387">
        <ele>130.4</ele>
        <time>2016-10-30T14:18:15Z</time>
      </trkpt>
      <trkpt lat="50.46083" lon="4.86388">
        <ele>130.4</ele>
        <time>2016-10-30T14:18:28Z</time>
      </trkpt>
      <trkpt lat="50.46078" lon="4.86391">
        <ele>130.4</ele>
        <time>2016-10-30T14:18:54Z</time>
      </trkpt>
      <trkpt lat="50.46078" lon="4.86393">
        <ele>130.4</ele>
        <time>2016-10-30T14:18:55Z</time>
      </trkpt>
      <trkpt lat="50.46068" lon="4.86421">
        <ele>132.32</ele>
        <time>2016-10-30T14:19:08Z</time>
      </trkpt>
      <trkpt lat="50.46061" lon="4.8642">
        <ele>132.8</ele>
        <time>2016-10-30T14:19:21Z</time>
      </trkpt>
      <trkpt lat="50.46057" lon="4.86418">
        <ele>132.8</ele>
        <time>2016-10-30T14:19:27Z</time>
      </trkpt>
      <trkpt lat="50.46055" lon="4.86418">
        <ele>132.8</ele>
        <time>2016-10-30T14:19:28Z</time>
      </trkpt>
      <trkpt lat="50.46038" lon="4.86416">
        <ele>132.8</ele>
        <time>2016-10-30T14:19:43Z</time>
      </trkpt>
      <trkpt lat="50.46026" lon="4.86424">
        <ele>132.8</ele>
        <time>2016-10-30T14:19:57Z</time>
      </trkpt>
      <trkpt lat="50.46023" lon="4.86427">
        <ele>131.36</ele>
        <time>2016-10-30T14:20:00Z</time>
      </trkpt>
      <trkpt lat="50.46006" lon="4.86444">
        <ele>130.4</ele>
        <time>2016-10-30T14:20:18Z</time>
      </trkpt>
      <trkpt lat="50.46" lon="4.8645">
        <ele>129.92</ele>
        <time>2016-10-30T14:20:25Z</time>
      </trkpt>
      <trkpt lat="50.45995" lon="4.86466">
        <ele>128.95</ele>
        <time>2016-10-30T14:20:38Z</time>
      </trkpt>
      <trkpt lat="50.45995" lon="4.86468">
        <ele>128.95</ele>
        <time>2016-10-30T14:20:39Z</time>
      </trkpt>
      <trkpt lat="50.45993" lon="4.86466">
        <ele>128.47</ele>
        <time>2016-10-30T14:20:53Z</time>
      </trkpt>
      <trkpt lat="50.45995" lon="4.86473">
        <ele>127.99</ele>
        <time>2016-10-30T14:21:11Z</time>
      </trkpt>
      <trkpt lat="50.45997" lon="4.86483">
        <ele>127.99</ele>
        <time>2016-10-30T14:21:17Z</time>
      </trkpt>
      <trkpt lat="50.45997" lon="4.86488">
        <ele>127.51</ele>
        <time>2016-10-30T14:21:20Z</time>
      </trkpt>
      <trkpt lat="50.45997" lon="4.86491">
        <ele>127.51</ele>
        <time>2016-10-30T14:21:21Z</time>
      </trkpt>
      <trkpt lat="50.45997" lon="4.86492">
        <ele>127.51</ele>
        <time>2016-10-30T14:21:22Z</time>
      </trkpt>
      <trkpt lat="50.45996" lon="4.86494">
        <ele>127.51</ele>
        <time>2016-10-30T14:21:23Z</time>
      </trkpt>
      <trkpt lat="50.45996" lon="4.86496">
        <ele>127.03</ele>
        <time>2016-10-30T14:21:24Z</time>
      </trkpt>
      <trkpt lat="50.45994" lon="4.86498">
        <ele>127.03</ele>
        <time>2016-10-30T14:21:40Z</time>
      </trkpt>
      <trkpt lat="50.45989" lon="4.8649">
        <ele>126.07</ele>
        <time>2016-10-30T14:21:58Z</time>
      </trkpt>
      <trkpt lat="50.45988" lon="4.86489">
        <ele>126.07</ele>
        <time>2016-10-30T14:21:59Z</time>
      </trkpt>
      <trkpt lat="50.45975" lon="4.8647">
        <ele>125.11</ele>
        <time>2016-10-30T14:22:17Z</time>
      </trkpt>
      <trkpt lat="50.4596" lon="4.86454">
        <ele>123.19</ele>
        <time>2016-10-30T14:22:34Z</time>
      </trkpt>
      <trkpt lat="50.45955" lon="4.86437">
        <ele>123.19</ele>
        <time>2016-10-30T14:22:49Z</time>
      </trkpt>
      <trkpt lat="50.45954" lon="4.86432">
        <ele>123.19</ele>
        <time>2016-10-30T14:22:52Z</time>
      </trkpt>
      <trkpt lat="50.45952" lon="4.86431">
        <ele>122.71</ele>
        <time>2016-10-30T14:22:54Z</time>
      </trkpt>
      <trkpt lat="50.4595" lon="4.86429">
        <ele>122.71</ele>
        <time>2016-10-30T14:22:56Z</time>
      </trkpt>
      <trkpt lat="50.45949" lon="4.86428">
        <ele>122.71</ele>
        <time>2016-10-30T14:22:57Z</time>
      </trkpt>
      <trkpt lat="50.45938" lon="4.86407">
        <ele>121.74</ele>
        <time>2016-10-30T14:23:12Z</time>
      </trkpt>
      <trkpt lat="50.45926" lon="4.86386">
        <ele>121.26</ele>
        <time>2016-10-30T14:23:28Z</time>
      </trkpt>
      <trkpt lat="50.45909" lon="4.86357">
        <ele>119.34</ele>
        <time>2016-10-30T14:23:48Z</time>
      </trkpt>
      <trkpt lat="50.45894" lon="4.86337">
        <ele>118.86</ele>
        <time>2016-10-30T14:24:05Z</time>
      </trkpt>
      <trkpt lat="50.4588" lon="4.86321">
        <ele>117.42</ele>
        <time>2016-10-30T14:24:20Z</time>
      </trkpt>
      <trkpt lat="50.45864" lon="4.86302">
        <ele>116.46</ele>
        <time>2016-10-30T14:24:37Z</time>
      </trkpt>
      <trkpt lat="50.45846" lon="4.86285">
        <ele>115.01</ele>
        <time>2016-10-30T14:24:55Z</time>
      </trkpt>
      <trkpt lat="50.45827" lon="4.86273">
        <ele>113.57</ele>
        <time>2016-10-30T14:25:12Z</time>
      </trkpt>
      <trkpt lat="50.45808" lon="4.8626">
        <ele>112.61</ele>
        <time>2016-10-30T14:25:30Z</time>
      </trkpt>
      <trkpt lat="50.4579" lon="4.86247">
        <ele>111.65</ele>
        <time>2016-10-30T14:25:46Z</time>
      </trkpt>
      <trkpt lat="50.45774" lon="4.86236">
        <ele>110.69</ele>
        <time>2016-10-30T14:26:01Z</time>
      </trkpt>
      <trkpt lat="50.45765" lon="4.86229">
        <ele>110.21</ele>
        <time>2016-10-30T14:26:11Z</time>
      </trkpt>
      <trkpt lat="50.45765" lon="4.86227">
        <ele>110.21</ele>
        <time>2016-10-30T14:26:12Z</time>
      </trkpt>
      <trkpt lat="50.45765" lon="4.86225">
        <ele>110.21</ele>
        <time>2016-10-30T14:26:13Z</time>
      </trkpt>
      <trkpt lat="50.45764" lon="4.86224">
        <ele>110.21</ele>
        <time>2016-10-30T14:26:14Z</time>
      </trkpt>
      <trkpt lat="50.45763" lon="4.86222">
        <ele>110.21</ele>
        <time>2016-10-30T14:26:15Z</time>
      </trkpt>
      <trkpt lat="50.45753" lon="4.86216">
        <ele>109.73</ele>
        <time>2016-10-30T14:26:24Z</time>
      </trkpt>
      <trkpt lat="50.45752" lon="4.86215">
        <ele>109.73</ele>
        <time>2016-10-30T14:26:25Z</time>
      </trkpt>
      <trkpt lat="50.45751" lon="4.86214">
        <ele>109.73</ele>
        <time>2016-10-30T14:26:26Z</time>
      </trkpt>
      <trkpt lat="50.45749" lon="4.86213">
        <ele>109.73</ele>
        <time>2016-10-30T14:26:27Z</time>
      </trkpt>
      <trkpt lat="50.45748" lon="4.86213">
        <ele>109.73</ele>
        <time>2016-10-30T14:26:28Z</time>
      </trkpt>
      <trkpt lat="50.45747" lon="4.86212">
        <ele>109.73</ele>
        <time>2016-10-30T14:26:29Z</time>
      </trkpt>
      <trkpt lat="50.45736" lon="4.86204">
        <ele>109.25</ele>
        <time>2016-10-30T14:26:43Z</time>
      </trkpt>
      <trkpt lat="50.45734" lon="4.86207">
        <ele>109.25</ele>
        <time>2016-10-30T14:27:04Z</time>
      </trkpt>
      <trkpt lat="50.45732" lon="4.86202">
        <ele>109.25</ele>
        <time>2016-10-30T14:27:20Z</time>
      </trkpt>
      <trkpt lat="50.45727" lon="4.86199">
        <ele>109.25</ele>
        <time>2016-10-30T14:27:40Z</time>
      </trkpt>
      <trkpt lat="50.45716" lon="4.8619">
        <ele>109.25</ele>
        <time>2016-10-30T14:27:53Z</time>
      </trkpt>
      <trkpt lat="50.45707" lon="4.86179">
        <ele>111.17</ele>
        <time>2016-10-30T14:28:05Z</time>
      </trkpt>
      <trkpt lat="50.4571" lon="4.86172">
        <ele>113.57</ele>
        <time>2016-10-30T14:28:19Z</time>
      </trkpt>
      <trkpt lat="50.4572" lon="4.86175">
        <ele>115.98</ele>
        <time>2016-10-30T14:28:32Z</time>
      </trkpt>
      <trkpt lat="50.45731" lon="4.86179">
        <ele>118.86</ele>
        <time>2016-10-30T14:28:48Z</time>
      </trkpt>
      <trkpt lat="50.45726" lon="4.86173">
        <ele>119.82</ele>
        <time>2016-10-30T14:28:57Z</time>
      </trkpt>
      <trkpt lat="50.45721" lon="4.86168">
        <ele>120.78</ele>
        <time>2016-10-30T14:29:03Z</time>
      </trkpt>
      <trkpt lat="50.45715" lon="4.86156">
        <ele>122.71</ele>
        <time>2016-10-30T14:29:15Z</time>
      </trkpt>
      <trkpt lat="50.45705" lon="4.8614">
        <ele>126.07</ele>
        <time>2016-10-30T14:29:31Z</time>
      </trkpt>
      <trkpt lat="50.45695" lon="4.86127">
        <ele>127.99</ele>
        <time>2016-10-30T14:29:45Z</time>
      </trkpt>
      <trkpt lat="50.45685" lon="4.86114">
        <ele>130.4</ele>
        <time>2016-10-30T14:30:01Z</time>
      </trkpt>
      <trkpt lat="50.45675" lon="4.861">
        <ele>133.28</ele>
        <time>2016-10-30T14:30:16Z</time>
      </trkpt>
      <trkpt lat="50.45668" lon="4.86086">
        <ele>135.2</ele>
        <time>2016-10-30T14:30:31Z</time>
      </trkpt>
      <trkpt lat="50.45673" lon="4.86086">
        <ele>138.09</ele>
        <time>2016-10-30T14:30:47Z</time>
      </trkpt>
      <trkpt lat="50.45684" lon="4.86094">
        <ele>140.49</ele>
        <time>2016-10-30T14:31:04Z</time>
      </trkpt>
      <trkpt lat="50.45694" lon="4.86096">
        <ele>143.37</ele>
        <time>2016-10-30T14:31:18Z</time>
      </trkpt>
      <trkpt lat="50.45707" lon="4.86102">
        <ele>145.78</ele>
        <time>2016-10-30T14:31:34Z</time>
      </trkpt>
      <trkpt lat="50.45719" lon="4.86108">
        <ele>147.22</ele>
        <time>2016-10-30T14:31:52Z</time>
      </trkpt>
      <trkpt lat="50.45735" lon="4.86112">
        <ele>150.58</ele>
        <time>2016-10-30T14:32:10Z</time>
      </trkpt>
      <trkpt lat="50.45749" lon="4.8612">
        <ele>152.99</ele>
        <time>2016-10-30T14:32:27Z</time>
      </trkpt>
      <trkpt lat="50.45751" lon="4.86114">
        <ele>154.91</ele>
        <time>2016-10-30T14:32:39Z</time>
      </trkpt>
      <trkpt lat="50.45748" lon="4.86107">
        <ele>155.87</ele>
        <time>2016-10-30T14:32:52Z</time>
      </trkpt>
      <trkpt lat="50.45745" lon="4.86101">
        <ele>156.35</ele>
        <time>2016-10-30T14:32:58Z</time>
      </trkpt>
      <trkpt lat="50.45738" lon="4.86091">
        <ele>158.27</ele>
        <time>2016-10-30T14:33:10Z</time>
      </trkpt>
      <trkpt lat="50.45728" lon="4.8608">
        <ele>160.68</ele>
        <time>2016-10-30T14:33:24Z</time>
      </trkpt>
      <trkpt lat="50.45717" lon="4.86066">
        <ele>163.08</ele>
        <time>2016-10-30T14:33:40Z</time>
      </trkpt>
      <trkpt lat="50.45706" lon="4.86053">
        <ele>165.48</ele>
        <time>2016-10-30T14:33:54Z</time>
      </trkpt>
      <trkpt lat="50.45697" lon="4.86041">
        <ele>167.41</ele>
        <time>2016-10-30T14:34:07Z</time>
      </trkpt>
      <trkpt lat="50.45689" lon="4.86027">
        <ele>168.85</ele>
        <time>2016-10-30T14:34:20Z</time>
      </trkpt>
      <trkpt lat="50.45676" lon="4.86014">
        <ele>170.29</ele>
        <time>2016-10-30T14:34:34Z</time>
      </trkpt>
      <trkpt lat="50.45675" lon="4.86013">
        <ele>169.81</ele>
        <time>2016-10-30T14:34:35Z</time>
      </trkpt>
      <trkpt lat="50.45674" lon="4.86011">
        <ele>169.81</ele>
        <time>2016-10-30T14:34:36Z</time>
      </trkpt>
      <trkpt lat="50.45668" lon="4.85994">
        <ele>170.77</ele>
        <time>2016-10-30T14:34:48Z</time>
      </trkpt>
      <trkpt lat="50.45667" lon="4.85986">
        <ele>171.25</ele>
        <time>2016-10-30T14:34:52Z</time>
      </trkpt>
      <trkpt lat="50.45667" lon="4.85963">
        <ele>171.73</ele>
        <time>2016-10-30T14:35:06Z</time>
      </trkpt>
      <trkpt lat="50.45668" lon="4.85937">
        <ele>172.21</ele>
        <time>2016-10-30T14:35:21Z</time>
      </trkpt>
      <trkpt lat="50.45661" lon="4.85915">
        <ele>173.17</ele>
        <time>2016-10-30T14:35:35Z</time>
      </trkpt>
      <trkpt lat="50.45654" lon="4.85897">
        <ele>174.62</ele>
        <time>2016-10-30T14:35:48Z</time>
      </trkpt>
      <trkpt lat="50.45651" lon="4.85893">
        <ele>174.62</ele>
        <time>2016-10-30T14:36:04Z</time>
      </trkpt>
      <trkpt lat="50.4565" lon="4.85896">
        <ele>173.17</ele>
        <time>2016-10-30T14:36:34Z</time>
      </trkpt>
      <trkpt lat="50.4565" lon="4.85897">
        <ele>173.17</ele>
        <time>2016-10-30T14:37:03Z</time>
      </trkpt>
      <trkpt lat="50.45652" lon="4.85893">
        <ele>174.14</ele>
        <time>2016-10-30T14:37:21Z</time>
      </trkpt>
      <trkpt lat="50.45644" lon="4.8588">
        <ele>174.62</ele>
        <time>2016-10-30T14:37:36Z</time>
      </trkpt>
      <trkpt lat="50.45633" lon="4.85866">
        <ele>175.58</ele>
        <time>2016-10-30T14:37:49Z</time>
      </trkpt>
      <trkpt lat="50.45621" lon="4.85851">
        <ele>176.06</ele>
        <time>2016-10-30T14:38:05Z</time>
      </trkpt>
      <trkpt lat="50.45621" lon="4.8585">
        <ele>176.06</ele>
        <time>2016-10-30T14:38:06Z</time>
      </trkpt>
      <trkpt lat="50.4562" lon="4.85849">
        <ele>176.06</ele>
        <time>2016-10-30T14:38:07Z</time>
      </trkpt>
      <trkpt lat="50.45606" lon="4.85833">
        <ele>176.54</ele>
        <time>2016-10-30T14:38:23Z</time>
      </trkpt>
      <trkpt lat="50.45604" lon="4.85829">
        <ele>177.02</ele>
        <time>2016-10-30T14:38:26Z</time>
      </trkpt>
      <trkpt lat="50.45595" lon="4.85815">
        <ele>177.98</ele>
        <time>2016-10-30T14:38:38Z</time>
      </trkpt>
      <trkpt lat="50.45593" lon="4.85812">
        <ele>177.98</ele>
        <time>2016-10-30T14:38:41Z</time>
      </trkpt>
      <trkpt lat="50.45588" lon="4.85803">
        <ele>178.46</ele>
        <time>2016-10-30T14:38:49Z</time>
      </trkpt>
      <trkpt lat="50.4558" lon="4.85789">
        <ele>179.42</ele>
        <time>2016-10-30T14:39:01Z</time>
      </trkpt>
      <trkpt lat="50.45578" lon="4.85787">
        <ele>179.42</ele>
        <time>2016-10-30T14:39:03Z</time>
      </trkpt>
      <trkpt lat="50.45575" lon="4.8578">
        <ele>179.42</ele>
        <time>2016-10-30T14:39:08Z</time>
      </trkpt>
      <trkpt lat="50.45574" lon="4.85779">
        <ele>179.9</ele>
        <time>2016-10-30T14:39:09Z</time>
      </trkpt>
      <trkpt lat="50.45568" lon="4.85763">
        <ele>180.38</ele>
        <time>2016-10-30T14:39:20Z</time>
      </trkpt>
      <trkpt lat="50.45563" lon="4.85753">
        <ele>180.87</ele>
        <time>2016-10-30T14:39:36Z</time>
      </trkpt>
      <trkpt lat="50.45563" lon="4.85746">
        <ele>181.35</ele>
        <time>2016-10-30T14:39:45Z</time>
      </trkpt>
      <trkpt lat="50.45564" lon="4.85732">
        <ele>181.35</ele>
        <time>2016-10-30T14:39:58Z</time>
      </trkpt>
      <trkpt lat="50.45563" lon="4.85729">
        <ele>181.35</ele>
        <time>2016-10-30T14:40:25Z</time>
      </trkpt>
      <trkpt lat="50.45559" lon="4.85728">
        <ele>181.35</ele>
        <time>2016-10-30T14:40:31Z</time>
      </trkpt>
      <trkpt lat="50.4555" lon="4.85723">
        <ele>181.83</ele>
        <time>2016-10-30T14:40:39Z</time>
      </trkpt>
      <trkpt lat="50.4555" lon="4.85723">
        <ele>181.83</ele>
        <time>2016-10-30T14:40:40Z</time>
      </trkpt>
      <trkpt lat="50.4554" lon="4.85704">
        <ele>183.27</ele>
        <time>2016-10-30T14:40:54Z</time>
      </trkpt>
      <trkpt lat="50.45532" lon="4.85685">
        <ele>186.63</ele>
        <time>2016-10-30T14:41:11Z</time>
      </trkpt>
      <trkpt lat="50.45522" lon="4.85672">
        <ele>188.56</ele>
        <time>2016-10-30T14:41:26Z</time>
      </trkpt>
      <trkpt lat="50.45517" lon="4.85666">
        <ele>189.52</ele>
        <time>2016-10-30T14:41:33Z</time>
      </trkpt>
      <trkpt lat="50.45507" lon="4.8566">
        <ele>190.96</ele>
        <time>2016-10-30T14:41:45Z</time>
      </trkpt>
      <trkpt lat="50.45493" lon="4.85657">
        <ele>192.88</ele>
        <time>2016-10-30T14:42:01Z</time>
      </trkpt>
      <trkpt lat="50.4548" lon="4.85652">
        <ele>195.28</ele>
        <time>2016-10-30T14:42:16Z</time>
      </trkpt>
      <trkpt lat="50.45468" lon="4.85646">
        <ele>197.69</ele>
        <time>2016-10-30T14:42:30Z</time>
      </trkpt>
      <trkpt lat="50.45455" lon="4.85639">
        <ele>199.61</ele>
        <time>2016-10-30T14:42:46Z</time>
      </trkpt>
      <trkpt lat="50.45449" lon="4.85625">
        <ele>202.01</ele>
        <time>2016-10-30T14:43:01Z</time>
      </trkpt>
      <trkpt lat="50.4545" lon="4.85615">
        <ele>203.46</ele>
        <time>2016-10-30T14:43:15Z</time>
      </trkpt>
      <trkpt lat="50.45449" lon="4.85608">
        <ele>204.42</ele>
        <time>2016-10-30T14:43:29Z</time>
      </trkpt>
      <trkpt lat="50.45444" lon="4.85595">
        <ele>204.42</ele>
        <time>2016-10-30T14:43:41Z</time>
      </trkpt>
      <trkpt lat="50.45438" lon="4.85587">
        <ele>205.38</ele>
        <time>2016-10-30T14:43:49Z</time>
      </trkpt>
      <trkpt lat="50.45434" lon="4.85569">
        <ele>206.34</ele>
        <time>2016-10-30T14:44:03Z</time>
      </trkpt>
      <trkpt lat="50.45436" lon="4.85569">
        <ele>207.3</ele>
        <time>2016-10-30T14:44:18Z</time>
      </trkpt>
      <trkpt lat="50.45434" lon="4.8556">
        <ele>207.3</ele>
        <time>2016-10-30T14:44:36Z</time>
      </trkpt>
      <trkpt lat="50.45431" lon="4.85543">
        <ele>207.3</ele>
        <time>2016-10-30T14:44:51Z</time>
      </trkpt>
      <trkpt lat="50.45432" lon="4.85522">
        <ele>206.82</ele>
        <time>2016-10-30T14:45:06Z</time>
      </trkpt>
      <trkpt lat="50.45436" lon="4.85515">
        <ele>206.82</ele>
        <time>2016-10-30T14:45:14Z</time>
      </trkpt>
      <trkpt lat="50.45444" lon="4.855">
        <ele>206.82</ele>
        <time>2016-10-30T14:45:28Z</time>
      </trkpt>
      <trkpt lat="50.45447" lon="4.85495">
        <ele>206.82</ele>
        <time>2016-10-30T14:45:32Z</time>
      </trkpt>
      <trkpt lat="50.45454" lon="4.85474">
        <ele>206.82</ele>
        <time>2016-10-30T14:45:48Z</time>
      </trkpt>
      <trkpt lat="50.45453" lon="4.85459">
        <ele>206.82</ele>
        <time>2016-10-30T14:46:01Z</time>
      </trkpt>
      <trkpt lat="50.45453" lon="4.85454">
        <ele>206.82</ele>
        <time>2016-10-30T14:46:20Z</time>
      </trkpt>
      <trkpt lat="50.45451" lon="4.85455">
        <ele>207.3</ele>
        <time>2016-10-30T14:46:41Z</time>
      </trkpt>
      <trkpt lat="50.4545" lon="4.85453">
        <ele>207.3</ele>
        <time>2016-10-30T14:47:01Z</time>
      </trkpt>
      <trkpt lat="50.4545" lon="4.8545">
        <ele>207.3</ele>
        <time>2016-10-30T14:47:25Z</time>
      </trkpt>
      <trkpt lat="50.4545" lon="4.85434">
        <ele>207.3</ele>
        <time>2016-10-30T14:47:40Z</time>
      </trkpt>
      <trkpt lat="50.4545" lon="4.85432">
        <ele>207.3</ele>
        <time>2016-10-30T14:47:41Z</time>
      </trkpt>
      <trkpt lat="50.45448" lon="4.85428">
        <ele>207.3</ele>
        <time>2016-10-30T14:47:44Z</time>
      </trkpt>
      <trkpt lat="50.4544" lon="4.85405">
        <ele>207.3</ele>
        <time>2016-10-30T14:48:01Z</time>
      </trkpt>
      <trkpt lat="50.45438" lon="4.85401">
        <ele>207.3</ele>
        <time>2016-10-30T14:48:17Z</time>
      </trkpt>
      <trkpt lat="50.4544" lon="4.85402">
        <ele>207.3</ele>
        <time>2016-10-30T14:48:42Z</time>
      </trkpt>
      <trkpt lat="50.45433" lon="4.85389">
        <ele>205.86</ele>
        <time>2016-10-30T14:48:55Z</time>
      </trkpt>
      <trkpt lat="50.45425" lon="4.85371">
        <ele>204.9</ele>
        <time>2016-10-30T14:49:10Z</time>
      </trkpt>
      <trkpt lat="50.45419" lon="4.85359">
        <ele>204.42</ele>
        <time>2016-10-30T14:49:20Z</time>
      </trkpt>
      <trkpt lat="50.45414" lon="4.85355">
        <ele>204.42</ele>
        <time>2016-10-30T14:49:26Z</time>
      </trkpt>
      <trkpt lat="50.4541" lon="4.85351">
        <ele>204.42</ele>
        <time>2016-10-30T14:49:32Z</time>
      </trkpt>
      <trkpt lat="50.45409" lon="4.8535">
        <ele>203.94</ele>
        <time>2016-10-30T14:49:33Z</time>
      </trkpt>
      <trkpt lat="50.45405" lon="4.85344">
        <ele>203.94</ele>
        <time>2016-10-30T14:49:38Z</time>
      </trkpt>
      <trkpt lat="50.45404" lon="4.85343">
        <ele>203.94</ele>
        <time>2016-10-30T14:49:39Z</time>
      </trkpt>
      <trkpt lat="50.45403" lon="4.85342">
        <ele>203.94</ele>
        <time>2016-10-30T14:49:40Z</time>
      </trkpt>
      <trkpt lat="50.45391" lon="4.85327">
        <ele>203.46</ele>
        <time>2016-10-30T14:49:54Z</time>
      </trkpt>
      <trkpt lat="50.45379" lon="4.85318">
        <ele>202.98</ele>
        <time>2016-10-30T14:50:08Z</time>
      </trkpt>
      <trkpt lat="50.45364" lon="4.85311">
        <ele>202.98</ele>
        <time>2016-10-30T14:50:23Z</time>
      </trkpt>
      <trkpt lat="50.45342" lon="4.85303">
        <ele>202.98</ele>
        <time>2016-10-30T14:50:38Z</time>
      </trkpt>
      <trkpt lat="50.45331" lon="4.8531">
        <ele>202.49</ele>
        <time>2016-10-30T14:50:52Z</time>
      </trkpt>
      <trkpt lat="50.45328" lon="4.85314">
        <ele>202.01</ele>
        <time>2016-10-30T14:50:56Z</time>
      </trkpt>
      <trkpt lat="50.45324" lon="4.85323">
        <ele>200.57</ele>
        <time>2016-10-30T14:51:02Z</time>
      </trkpt>
      <trkpt lat="50.45319" lon="4.85344">
        <ele>199.61</ele>
        <time>2016-10-30T14:51:15Z</time>
      </trkpt>
      <trkpt lat="50.45318" lon="4.85346">
        <ele>199.61</ele>
        <time>2016-10-30T14:51:16Z</time>
      </trkpt>
      <trkpt lat="50.45318" lon="4.85348">
        <ele>199.61</ele>
        <time>2016-10-30T14:51:17Z</time>
      </trkpt>
      <trkpt lat="50.45311" lon="4.85377">
        <ele>197.21</ele>
        <time>2016-10-30T14:51:35Z</time>
      </trkpt>
      <trkpt lat="50.45309" lon="4.85389">
        <ele>196.25</ele>
        <time>2016-10-30T14:51:44Z</time>
      </trkpt>
      <trkpt lat="50.45301" lon="4.85408">
        <ele>194.32</ele>
        <time>2016-10-30T14:51:57Z</time>
      </trkpt>
      <trkpt lat="50.45288" lon="4.85431">
        <ele>192.4</ele>
        <time>2016-10-30T14:52:13Z</time>
      </trkpt>
      <trkpt lat="50.45275" lon="4.85444">
        <ele>190.48</ele>
        <time>2016-10-30T14:52:31Z</time>
      </trkpt>
      <trkpt lat="50.45269" lon="4.85452">
        <ele>189.04</ele>
        <time>2016-10-30T14:52:38Z</time>
      </trkpt>
      <trkpt lat="50.45265" lon="4.85458">
        <ele>189.04</ele>
        <time>2016-10-30T14:52:42Z</time>
      </trkpt>
      <trkpt lat="50.45264" lon="4.8546">
        <ele>189.04</ele>
        <time>2016-10-30T14:52:43Z</time>
      </trkpt>
      <trkpt lat="50.45251" lon="4.85486">
        <ele>188.08</ele>
        <time>2016-10-30T14:52:57Z</time>
      </trkpt>
      <trkpt lat="50.45238" lon="4.85502">
        <ele>187.59</ele>
        <time>2016-10-30T14:53:13Z</time>
      </trkpt>
      <trkpt lat="50.45225" lon="4.85507">
        <ele>187.11</ele>
        <time>2016-10-30T14:53:27Z</time>
      </trkpt>
      <trkpt lat="50.45201" lon="4.85522">
        <ele>187.11</ele>
        <time>2016-10-30T14:53:44Z</time>
      </trkpt>
      <trkpt lat="50.45187" lon="4.85538">
        <ele>186.15</ele>
        <time>2016-10-30T14:54:01Z</time>
      </trkpt>
      <trkpt lat="50.45175" lon="4.85546">
        <ele>184.71</ele>
        <time>2016-10-30T14:54:16Z</time>
      </trkpt>
      <trkpt lat="50.4517" lon="4.85529">
        <ele>183.27</ele>
        <time>2016-10-30T14:54:30Z</time>
      </trkpt>
      <trkpt lat="50.4517" lon="4.85505">
        <ele>182.31</ele>
        <time>2016-10-30T14:54:45Z</time>
      </trkpt>
      <trkpt lat="50.4517" lon="4.85488">
        <ele>180.87</ele>
        <time>2016-10-30T14:54:57Z</time>
      </trkpt>
      <trkpt lat="50.45168" lon="4.85458">
        <ele>179.9</ele>
        <time>2016-10-30T14:55:11Z</time>
      </trkpt>
      <trkpt lat="50.45168" lon="4.85431">
        <ele>178.46</ele>
        <time>2016-10-30T14:55:27Z</time>
      </trkpt>
      <trkpt lat="50.45169" lon="4.85407">
        <ele>177.98</ele>
        <time>2016-10-30T14:55:41Z</time>
      </trkpt>
      <trkpt lat="50.45169" lon="4.8538">
        <ele>177.98</ele>
        <time>2016-10-30T14:55:55Z</time>
      </trkpt>
      <trkpt lat="50.45171" lon="4.85357">
        <ele>179.42</ele>
        <time>2016-10-30T14:56:09Z</time>
      </trkpt>
      <trkpt lat="50.45176" lon="4.85329">
        <ele>180.38</ele>
        <time>2016-10-30T14:56:25Z</time>
      </trkpt>
      <trkpt lat="50.45178" lon="4.85306">
        <ele>181.35</ele>
        <time>2016-10-30T14:56:39Z</time>
      </trkpt>
      <trkpt lat="50.45184" lon="4.85284">
        <ele>182.31</ele>
        <time>2016-10-30T14:56:56Z</time>
      </trkpt>
      <trkpt lat="50.45182" lon="4.8526">
        <ele>183.27</ele>
        <time>2016-10-30T14:57:10Z</time>
      </trkpt>
      <trkpt lat="50.45184" lon="4.8524">
        <ele>184.23</ele>
        <time>2016-10-30T14:57:21Z</time>
      </trkpt>
      <trkpt lat="50.45184" lon="4.85211">
        <ele>185.19</ele>
        <time>2016-10-30T14:57:38Z</time>
      </trkpt>
      <trkpt lat="50.45183" lon="4.85205">
        <ele>185.67</ele>
        <time>2016-10-30T14:57:53Z</time>
      </trkpt>
      <trkpt lat="50.45187" lon="4.85177">
        <ele>187.59</ele>
        <time>2016-10-30T14:58:07Z</time>
      </trkpt>
      <trkpt lat="50.45193" lon="4.85151">
        <ele>188.56</ele>
        <time>2016-10-30T14:58:23Z</time>
      </trkpt>
      <trkpt lat="50.45195" lon="4.85132">
        <ele>189.04</ele>
        <time>2016-10-30T14:58:38Z</time>
      </trkpt>
      <trkpt lat="50.45195" lon="4.85113">
        <ele>190.48</ele>
        <time>2016-10-30T14:58:50Z</time>
      </trkpt>
      <trkpt lat="50.45193" lon="4.85087">
        <ele>192.4</ele>
        <time>2016-10-30T14:59:05Z</time>
      </trkpt>
      <trkpt lat="50.45193" lon="4.8506">
        <ele>194.8</ele>
        <time>2016-10-30T14:59:21Z</time>
      </trkpt>
      <trkpt lat="50.45196" lon="4.85037">
        <ele>196.73</ele>
        <time>2016-10-30T14:59:36Z</time>
      </trkpt>
      <trkpt lat="50.45197" lon="4.85026">
        <ele>197.69</ele>
        <time>2016-10-30T14:59:42Z</time>
      </trkpt>
      <trkpt lat="50.45186" lon="4.85">
        <ele>198.65</ele>
        <time>2016-10-30T14:59:58Z</time>
      </trkpt>
      <trkpt lat="50.45178" lon="4.84989">
        <ele>199.13</ele>
        <time>2016-10-30T15:00:08Z</time>
      </trkpt>
      <trkpt lat="50.45172" lon="4.84983">
        <ele>198.17</ele>
        <time>2016-10-30T15:00:15Z</time>
      </trkpt>
      <trkpt lat="50.45171" lon="4.84982">
        <ele>199.61</ele>
        <time>2016-10-30T15:00:17Z</time>
      </trkpt>
      <trkpt lat="50.45168" lon="4.84978">
        <ele>199.61</ele>
        <time>2016-10-30T15:00:22Z</time>
      </trkpt>
      <trkpt lat="50.45162" lon="4.84973">
        <ele>200.09</ele>
        <time>2016-10-30T15:00:27Z</time>
      </trkpt>
      <trkpt lat="50.4514" lon="4.84963">
        <ele>201.53</ele>
        <time>2016-10-30T15:00:44Z</time>
      </trkpt>
      <trkpt lat="50.4514" lon="4.8496">
        <ele>201.53</ele>
        <time>2016-10-30T15:00:47Z</time>
      </trkpt>
      <trkpt lat="50.45136" lon="4.84947">
        <ele>202.01</ele>
        <time>2016-10-30T15:00:55Z</time>
      </trkpt>
      <trkpt lat="50.45133" lon="4.8494">
        <ele>202.01</ele>
        <time>2016-10-30T15:00:59Z</time>
      </trkpt>
      <trkpt lat="50.45126" lon="4.84912">
        <ele>202.49</ele>
        <time>2016-10-30T15:01:15Z</time>
      </trkpt>
      <trkpt lat="50.45123" lon="4.84887">
        <ele>202.98</ele>
        <time>2016-10-30T15:01:29Z</time>
      </trkpt>
      <trkpt lat="50.45127" lon="4.8486">
        <ele>202.98</ele>
        <time>2016-10-30T15:01:44Z</time>
      </trkpt>
      <trkpt lat="50.45129" lon="4.84854">
        <ele>202.98</ele>
        <time>2016-10-30T15:01:48Z</time>
      </trkpt>
      <trkpt lat="50.45134" lon="4.84836">
        <ele>201.53</ele>
        <time>2016-10-30T15:01:58Z</time>
      </trkpt>
      <trkpt lat="50.45143" lon="4.84813">
        <ele>201.05</ele>
        <time>2016-10-30T15:02:14Z</time>
      </trkpt>
      <trkpt lat="50.45145" lon="4.84789">
        <ele>201.05</ele>
        <time>2016-10-30T15:02:27Z</time>
      </trkpt>
      <trkpt lat="50.45142" lon="4.84785">
        <ele>201.05</ele>
        <time>2016-10-30T15:02:30Z</time>
      </trkpt>
      <trkpt lat="50.45121" lon="4.84774">
        <ele>200.57</ele>
        <time>2016-10-30T15:02:47Z</time>
      </trkpt>
      <trkpt lat="50.45104" lon="4.84771">
        <ele>200.09</ele>
        <time>2016-10-30T15:03:01Z</time>
      </trkpt>
      <trkpt lat="50.45089" lon="4.84767">
        <ele>199.13</ele>
        <time>2016-10-30T15:03:15Z</time>
      </trkpt>
      <trkpt lat="50.45075" lon="4.84764">
        <ele>198.65</ele>
        <time>2016-10-30T15:03:30Z</time>
      </trkpt>
      <trkpt lat="50.45061" lon="4.8476">
        <ele>197.69</ele>
        <time>2016-10-30T15:03:43Z</time>
      </trkpt>
      <trkpt lat="50.45047" lon="4.84759">
        <ele>197.21</ele>
        <time>2016-10-30T15:03:57Z</time>
      </trkpt>
      <trkpt lat="50.45038" lon="4.84763">
        <ele>197.21</ele>
        <time>2016-10-30T15:04:05Z</time>
      </trkpt>
      <trkpt lat="50.45022" lon="4.84787">
        <ele>196.73</ele>
        <time>2016-10-30T15:04:22Z</time>
      </trkpt>
      <trkpt lat="50.45014" lon="4.84795">
        <ele>196.73</ele>
        <time>2016-10-30T15:04:31Z</time>
      </trkpt>
      <trkpt lat="50.45003" lon="4.84818">
        <ele>196.73</ele>
        <time>2016-10-30T15:04:46Z</time>
      </trkpt>
      <trkpt lat="50.44986" lon="4.84845">
        <ele>196.73</ele>
        <time>2016-10-30T15:05:07Z</time>
      </trkpt>
      <trkpt lat="50.4497" lon="4.8487">
        <ele>196.73</ele>
        <time>2016-10-30T15:05:27Z</time>
      </trkpt>
      <trkpt lat="50.4496" lon="4.84883">
        <ele>196.25</ele>
        <time>2016-10-30T15:05:42Z</time>
      </trkpt>
      <trkpt lat="50.44957" lon="4.84881">
        <ele>196.25</ele>
        <time>2016-10-30T15:05:45Z</time>
      </trkpt>
      <trkpt lat="50.44952" lon="4.84885">
        <ele>196.25</ele>
        <time>2016-10-30T15:05:50Z</time>
      </trkpt>
      <trkpt lat="50.44936" lon="4.84914">
        <ele>196.25</ele>
        <time>2016-10-30T15:06:11Z</time>
      </trkpt>
      <trkpt lat="50.44926" lon="4.8494">
        <ele>196.25</ele>
        <time>2016-10-30T15:06:29Z</time>
      </trkpt>
      <trkpt lat="50.44912" lon="4.84949">
        <ele>196.25</ele>
        <time>2016-10-30T15:06:42Z</time>
      </trkpt>
      <trkpt lat="50.44887" lon="4.84953">
        <ele>196.73</ele>
        <time>2016-10-30T15:07:01Z</time>
      </trkpt>
      <trkpt lat="50.44877" lon="4.84952">
        <ele>196.73</ele>
        <time>2016-10-30T15:07:10Z</time>
      </trkpt>
      <trkpt lat="50.44871" lon="4.84947">
        <ele>196.73</ele>
        <time>2016-10-30T15:07:17Z</time>
      </trkpt>
      <trkpt lat="50.44857" lon="4.84935">
        <ele>196.73</ele>
        <time>2016-10-30T15:07:31Z</time>
      </trkpt>
      <trkpt lat="50.44846" lon="4.84906">
        <ele>196.73</ele>
        <time>2016-10-30T15:07:48Z</time>
      </trkpt>
      <trkpt lat="50.44842" lon="4.84885">
        <ele>196.73</ele>
        <time>2016-10-30T15:08:02Z</time>
      </trkpt>
      <trkpt lat="50.44835" lon="4.84854">
        <ele>198.17</ele>
        <time>2016-10-30T15:08:19Z</time>
      </trkpt>
      <trkpt lat="50.44828" lon="4.84829">
        <ele>199.13</ele>
        <time>2016-10-30T15:08:36Z</time>
      </trkpt>
      <trkpt lat="50.4482" lon="4.84808">
        <ele>200.09</ele>
        <time>2016-10-30T15:08:51Z</time>
      </trkpt>
      <trkpt lat="50.44813" lon="4.84783">
        <ele>201.05</ele>
        <time>2016-10-30T15:09:07Z</time>
      </trkpt>
      <trkpt lat="50.44813" lon="4.84782">
        <ele>201.53</ele>
        <time>2016-10-30T15:09:08Z</time>
      </trkpt>
      <trkpt lat="50.4481" lon="4.8477">
        <ele>202.01</ele>
        <time>2016-10-30T15:09:16Z</time>
      </trkpt>
      <trkpt lat="50.44804" lon="4.84747">
        <ele>203.46</ele>
        <time>2016-10-30T15:09:31Z</time>
      </trkpt>
      <trkpt lat="50.448" lon="4.84719">
        <ele>204.9</ele>
        <time>2016-10-30T15:09:48Z</time>
      </trkpt>
      <trkpt lat="50.44795" lon="4.84687">
        <ele>205.86</ele>
        <time>2016-10-30T15:10:03Z</time>
      </trkpt>
      <trkpt lat="50.44789" lon="4.8466">
        <ele>205.86</ele>
        <time>2016-10-30T15:10:20Z</time>
      </trkpt>
      <trkpt lat="50.44781" lon="4.84632">
        <ele>205.86</ele>
        <time>2016-10-30T15:10:34Z</time>
      </trkpt>
      <trkpt lat="50.44775" lon="4.84615">
        <ele>206.34</ele>
        <time>2016-10-30T15:10:42Z</time>
      </trkpt>
      <trkpt lat="50.44766" lon="4.8459">
        <ele>206.82</ele>
        <time>2016-10-30T15:10:58Z</time>
      </trkpt>
      <trkpt lat="50.4476" lon="4.84566">
        <ele>206.82</ele>
        <time>2016-10-30T15:11:14Z</time>
      </trkpt>
      <trkpt lat="50.44755" lon="4.84552">
        <ele>207.3</ele>
        <time>2016-10-30T15:11:28Z</time>
      </trkpt>
      <trkpt lat="50.44742" lon="4.84524">
        <ele>205.86</ele>
        <time>2016-10-30T15:11:45Z</time>
      </trkpt>
      <trkpt lat="50.44739" lon="4.84515">
        <ele>204.9</ele>
        <time>2016-10-30T15:11:59Z</time>
      </trkpt>
      <trkpt lat="50.4473" lon="4.84495">
        <ele>203.94</ele>
        <time>2016-10-30T15:12:13Z</time>
      </trkpt>
      <trkpt lat="50.44718" lon="4.84466">
        <ele>202.49</ele>
        <time>2016-10-30T15:12:30Z</time>
      </trkpt>
      <trkpt lat="50.44705" lon="4.84445">
        <ele>201.53</ele>
        <time>2016-10-30T15:12:44Z</time>
      </trkpt>
      <trkpt lat="50.44694" lon="4.84425">
        <ele>201.53</ele>
        <time>2016-10-30T15:12:59Z</time>
      </trkpt>
      <trkpt lat="50.4469" lon="4.84421">
        <ele>201.53</ele>
        <time>2016-10-30T15:13:03Z</time>
      </trkpt>
      <trkpt lat="50.44673" lon="4.84411">
        <ele>201.05</ele>
        <time>2016-10-30T15:13:19Z</time>
      </trkpt>
      <trkpt lat="50.44663" lon="4.84407">
        <ele>201.05</ele>
        <time>2016-10-30T15:13:26Z</time>
      </trkpt>
      <trkpt lat="50.44646" lon="4.84396">
        <ele>201.05</ele>
        <time>2016-10-30T15:13:42Z</time>
      </trkpt>
      <trkpt lat="50.44629" lon="4.84384">
        <ele>201.05</ele>
        <time>2016-10-30T15:13:57Z</time>
      </trkpt>
      <trkpt lat="50.44621" lon="4.84362">
        <ele>202.49</ele>
        <time>2016-10-30T15:14:11Z</time>
      </trkpt>
      <trkpt lat="50.44613" lon="4.84338">
        <ele>202.49</ele>
        <time>2016-10-30T15:14:27Z</time>
      </trkpt>
      <trkpt lat="50.44606" lon="4.84317">
        <ele>202.49</ele>
        <time>2016-10-30T15:14:43Z</time>
      </trkpt>
      <trkpt lat="50.44603" lon="4.84309">
        <ele>202.49</ele>
        <time>2016-10-30T15:14:49Z</time>
      </trkpt>
      <trkpt lat="50.44591" lon="4.8428">
        <ele>201.53</ele>
        <time>2016-10-30T15:15:07Z</time>
      </trkpt>
      <trkpt lat="50.44581" lon="4.84256">
        <ele>201.05</ele>
        <time>2016-10-30T15:15:23Z</time>
      </trkpt>
      <trkpt lat="50.44576" lon="4.84243">
        <ele>201.05</ele>
        <time>2016-10-30T15:15:31Z</time>
      </trkpt>
      <trkpt lat="50.44567" lon="4.8422">
        <ele>200.57</ele>
        <time>2016-10-30T15:15:47Z</time>
      </trkpt>
      <trkpt lat="50.44563" lon="4.84198">
        <ele>200.57</ele>
        <time>2016-10-30T15:16:02Z</time>
      </trkpt>
      <trkpt lat="50.44562" lon="4.84195">
        <ele>200.57</ele>
        <time>2016-10-30T15:16:04Z</time>
      </trkpt>
      <trkpt lat="50.44555" lon="4.84181">
        <ele>200.57</ele>
        <time>2016-10-30T15:16:13Z</time>
      </trkpt>
      <trkpt lat="50.44546" lon="4.84154">
        <ele>200.57</ele>
        <time>2016-10-30T15:16:29Z</time>
      </trkpt>
      <trkpt lat="50.44535" lon="4.84129">
        <ele>200.57</ele>
        <time>2016-10-30T15:16:45Z</time>
      </trkpt>
      <trkpt lat="50.44531" lon="4.84116">
        <ele>200.57</ele>
        <time>2016-10-30T15:16:52Z</time>
      </trkpt>
      <trkpt lat="50.44522" lon="4.84096">
        <ele>200.09</ele>
        <time>2016-10-30T15:17:04Z</time>
      </trkpt>
      <trkpt lat="50.44508" lon="4.84077">
        <ele>200.09</ele>
        <time>2016-10-30T15:17:21Z</time>
      </trkpt>
      <trkpt lat="50.44493" lon="4.84063">
        <ele>200.09</ele>
        <time>2016-10-30T15:17:36Z</time>
      </trkpt>
      <trkpt lat="50.44476" lon="4.84049">
        <ele>199.61</ele>
        <time>2016-10-30T15:17:52Z</time>
      </trkpt>
      <trkpt lat="50.4446" lon="4.8404">
        <ele>199.13</ele>
        <time>2016-10-30T15:18:07Z</time>
      </trkpt>
      <trkpt lat="50.44446" lon="4.8403">
        <ele>199.13</ele>
        <time>2016-10-30T15:18:22Z</time>
      </trkpt>
      <trkpt lat="50.44431" lon="4.84015">
        <ele>199.13</ele>
        <time>2016-10-30T15:18:39Z</time>
      </trkpt>
      <trkpt lat="50.44418" lon="4.84002">
        <ele>198.65</ele>
        <time>2016-10-30T15:18:53Z</time>
      </trkpt>
      <trkpt lat="50.44412" lon="4.83997">
        <ele>198.65</ele>
        <time>2016-10-30T15:18:59Z</time>
      </trkpt>
      <trkpt lat="50.44402" lon="4.83994">
        <ele>198.65</ele>
        <time>2016-10-30T15:19:19Z</time>
      </trkpt>
      <trkpt lat="50.44402" lon="4.83993">
        <ele>198.65</ele>
        <time>2016-10-30T15:19:44Z</time>
      </trkpt>
      <trkpt lat="50.44406" lon="4.83992">
        <ele>198.65</ele>
        <time>2016-10-30T15:20:10Z</time>
      </trkpt>
      <trkpt lat="50.44402" lon="4.83986">
        <ele>198.65</ele>
        <time>2016-10-30T15:20:35Z</time>
      </trkpt>
      <trkpt lat="50.44395" lon="4.8398">
        <ele>198.65</ele>
        <time>2016-10-30T15:20:58Z</time>
      </trkpt>
      <trkpt lat="50.44381" lon="4.8397">
        <ele>198.65</ele>
        <time>2016-10-30T15:21:13Z</time>
      </trkpt>
      <trkpt lat="50.44367" lon="4.83956">
        <ele>198.65</ele>
        <time>2016-10-30T15:21:29Z</time>
      </trkpt>
      <trkpt lat="50.44346" lon="4.8394">
        <ele>199.13</ele>
        <time>2016-10-30T15:21:45Z</time>
      </trkpt>
      <trkpt lat="50.44334" lon="4.83929">
        <ele>199.61</ele>
        <time>2016-10-30T15:22:00Z</time>
      </trkpt>
      <trkpt lat="50.4432" lon="4.83919">
        <ele>199.61</ele>
        <time>2016-10-30T15:22:11Z</time>
      </trkpt>
      <trkpt lat="50.44303" lon="4.83899">
        <ele>199.61</ele>
        <time>2016-10-30T15:22:28Z</time>
      </trkpt>
      <trkpt lat="50.4429" lon="4.83881">
        <ele>199.61</ele>
        <time>2016-10-30T15:22:44Z</time>
      </trkpt>
      <trkpt lat="50.44275" lon="4.83864">
        <ele>199.61</ele>
        <time>2016-10-30T15:23:01Z</time>
      </trkpt>
      <trkpt lat="50.44266" lon="4.83852">
        <ele>200.09</ele>
        <time>2016-10-30T15:23:17Z</time>
      </trkpt>
      <trkpt lat="50.44257" lon="4.83846">
        <ele>200.09</ele>
        <time>2016-10-30T15:23:25Z</time>
      </trkpt>
      <trkpt lat="50.44231" lon="4.83841">
        <ele>199.61</ele>
        <time>2016-10-30T15:23:41Z</time>
      </trkpt>
      <trkpt lat="50.44222" lon="4.83839">
        <ele>198.65</ele>
        <time>2016-10-30T15:23:48Z</time>
      </trkpt>
      <trkpt lat="50.44203" lon="4.83837">
        <ele>198.17</ele>
        <time>2016-10-30T15:24:05Z</time>
      </trkpt>
      <trkpt lat="50.44196" lon="4.83833">
        <ele>198.17</ele>
        <time>2016-10-30T15:24:14Z</time>
      </trkpt>
      <trkpt lat="50.44181" lon="4.83835">
        <ele>197.21</ele>
        <time>2016-10-30T15:24:29Z</time>
      </trkpt>
      <trkpt lat="50.44178" lon="4.83832">
        <ele>196.73</ele>
        <time>2016-10-30T15:24:33Z</time>
      </trkpt>
      <trkpt lat="50.44165" lon="4.83823">
        <ele>194.8</ele>
        <time>2016-10-30T15:24:49Z</time>
      </trkpt>
      <trkpt lat="50.4415" lon="4.83813">
        <ele>193.36</ele>
        <time>2016-10-30T15:25:04Z</time>
      </trkpt>
      <trkpt lat="50.44136" lon="4.83803">
        <ele>192.4</ele>
        <time>2016-10-30T15:25:19Z</time>
      </trkpt>
      <trkpt lat="50.44127" lon="4.83803">
        <ele>191.92</ele>
        <time>2016-10-30T15:25:25Z</time>
      </trkpt>
      <trkpt lat="50.44104" lon="4.83795">
        <ele>191.44</ele>
        <time>2016-10-30T15:25:39Z</time>
      </trkpt>
      <trkpt lat="50.44093" lon="4.8379">
        <ele>190.96</ele>
        <time>2016-10-30T15:25:48Z</time>
      </trkpt>
      <trkpt lat="50.44074" lon="4.83789">
        <ele>190</ele>
        <time>2016-10-30T15:26:02Z</time>
      </trkpt>
      <trkpt lat="50.4406" lon="4.83793">
        <ele>189.04</ele>
        <time>2016-10-30T15:26:16Z</time>
      </trkpt>
      <trkpt lat="50.44037" lon="4.83805">
        <ele>186.63</ele>
        <time>2016-10-30T15:26:36Z</time>
      </trkpt>
      <trkpt lat="50.44022" lon="4.83794">
        <ele>184.23</ele>
        <time>2016-10-30T15:26:52Z</time>
      </trkpt>
      <trkpt lat="50.44012" lon="4.83778">
        <ele>181.83</ele>
        <time>2016-10-30T15:27:08Z</time>
      </trkpt>
      <trkpt lat="50.43995" lon="4.83767">
        <ele>179.9</ele>
        <time>2016-10-30T15:27:25Z</time>
      </trkpt>
      <trkpt lat="50.43977" lon="4.83765">
        <ele>178.46</ele>
        <time>2016-10-30T15:27:41Z</time>
      </trkpt>
      <trkpt lat="50.43969" lon="4.83761">
        <ele>177.98</ele>
        <time>2016-10-30T15:27:48Z</time>
      </trkpt>
      <trkpt lat="50.43956" lon="4.83745">
        <ele>177.02</ele>
        <time>2016-10-30T15:28:04Z</time>
      </trkpt>
      <trkpt lat="50.43954" lon="4.8373">
        <ele>176.06</ele>
        <time>2016-10-30T15:28:18Z</time>
      </trkpt>
      <trkpt lat="50.43943" lon="4.83707">
        <ele>175.1</ele>
        <time>2016-10-30T15:28:33Z</time>
      </trkpt>
      <trkpt lat="50.43941" lon="4.83701">
        <ele>174.62</ele>
        <time>2016-10-30T15:28:37Z</time>
      </trkpt>
      <trkpt lat="50.43925" lon="4.83675">
        <ele>173.17</ele>
        <time>2016-10-30T15:28:55Z</time>
      </trkpt>
      <trkpt lat="50.43924" lon="4.83675">
        <ele>172.69</ele>
        <time>2016-10-30T15:29:06Z</time>
      </trkpt>
      <trkpt lat="50.43913" lon="4.83669">
        <ele>172.21</ele>
        <time>2016-10-30T15:29:16Z</time>
      </trkpt>
      <trkpt lat="50.43909" lon="4.8367">
        <ele>172.21</ele>
        <time>2016-10-30T15:29:20Z</time>
      </trkpt>
      <trkpt lat="50.43905" lon="4.83682">
        <ele>171.73</ele>
        <time>2016-10-30T15:29:32Z</time>
      </trkpt>
      <trkpt lat="50.43905" lon="4.83695">
        <ele>170.77</ele>
        <time>2016-10-30T15:29:47Z</time>
      </trkpt>
      <trkpt lat="50.43905" lon="4.837">
        <ele>170.77</ele>
        <time>2016-10-30T15:29:53Z</time>
      </trkpt>
      <trkpt lat="50.43902" lon="4.83708">
        <ele>170.29</ele>
        <time>2016-10-30T15:30:11Z</time>
      </trkpt>
      <trkpt lat="50.439" lon="4.8373">
        <ele>169.33</ele>
        <time>2016-10-30T15:30:24Z</time>
      </trkpt>
      <trkpt lat="50.43897" lon="4.83752">
        <ele>168.85</ele>
        <time>2016-10-30T15:30:39Z</time>
      </trkpt>
      <trkpt lat="50.43892" lon="4.83783">
        <ele>167.41</ele>
        <time>2016-10-30T15:30:56Z</time>
      </trkpt>
      <trkpt lat="50.43885" lon="4.83816">
        <ele>166.45</ele>
        <time>2016-10-30T15:31:14Z</time>
      </trkpt>
      <trkpt lat="50.43882" lon="4.83851">
        <ele>165</ele>
        <time>2016-10-30T15:31:32Z</time>
      </trkpt>
      <trkpt lat="50.43878" lon="4.8388">
        <ele>164.52</ele>
        <time>2016-10-30T15:31:47Z</time>
      </trkpt>
      <trkpt lat="50.43878" lon="4.83885">
        <ele>164.04</ele>
        <time>2016-10-30T15:31:50Z</time>
      </trkpt>
      <trkpt lat="50.43882" lon="4.83924">
        <ele>163.56</ele>
        <time>2016-10-30T15:32:10Z</time>
      </trkpt>
      <trkpt lat="50.43884" lon="4.83962">
        <ele>163.08</ele>
        <time>2016-10-30T15:32:29Z</time>
      </trkpt>
      <trkpt lat="50.43882" lon="4.84001">
        <ele>162.12</ele>
        <time>2016-10-30T15:32:49Z</time>
      </trkpt>
      <trkpt lat="50.43878" lon="4.84033">
        <ele>161.64</ele>
        <time>2016-10-30T15:33:06Z</time>
      </trkpt>
      <trkpt lat="50.43877" lon="4.84055">
        <ele>161.64</ele>
        <time>2016-10-30T15:33:21Z</time>
      </trkpt>
      <trkpt lat="50.43878" lon="4.84056">
        <ele>161.64</ele>
        <time>2016-10-30T15:33:34Z</time>
      </trkpt>
      <trkpt lat="50.43881" lon="4.84059">
        <ele>161.64</ele>
        <time>2016-10-30T15:33:51Z</time>
      </trkpt>
      <trkpt lat="50.43882" lon="4.84064">
        <ele>161.64</ele>
        <time>2016-10-30T15:33:54Z</time>
      </trkpt>
      <trkpt lat="50.43888" lon="4.84082">
        <ele>164.04</ele>
        <time>2016-10-30T15:34:05Z</time>
      </trkpt>
      <trkpt lat="50.43897" lon="4.84106">
        <ele>165</ele>
        <time>2016-10-30T15:34:20Z</time>
      </trkpt>
      <trkpt lat="50.43905" lon="4.84123">
        <ele>166.93</ele>
        <time>2016-10-30T15:34:36Z</time>
      </trkpt>
      <trkpt lat="50.43911" lon="4.84138">
        <ele>168.37</ele>
        <time>2016-10-30T15:34:46Z</time>
      </trkpt>
      <trkpt lat="50.43924" lon="4.84168">
        <ele>170.29</ele>
        <time>2016-10-30T15:35:04Z</time>
      </trkpt>
      <trkpt lat="50.43929" lon="4.8419">
        <ele>172.21</ele>
        <time>2016-10-30T15:35:19Z</time>
      </trkpt>
      <trkpt lat="50.43929" lon="4.84222">
        <ele>172.69</ele>
        <time>2016-10-30T15:35:34Z</time>
      </trkpt>
      <trkpt lat="50.43927" lon="4.84247">
        <ele>173.66</ele>
        <time>2016-10-30T15:35:48Z</time>
      </trkpt>
      <trkpt lat="50.43926" lon="4.84274">
        <ele>174.14</ele>
        <time>2016-10-30T15:36:03Z</time>
      </trkpt>
      <trkpt lat="50.43925" lon="4.84282">
        <ele>175.58</ele>
        <time>2016-10-30T15:36:08Z</time>
      </trkpt>
      <trkpt lat="50.43926" lon="4.84284">
        <ele>175.58</ele>
        <time>2016-10-30T15:36:09Z</time>
      </trkpt>
      <trkpt lat="50.4393" lon="4.84317">
        <ele>175.58</ele>
        <time>2016-10-30T15:36:26Z</time>
      </trkpt>
      <trkpt lat="50.4393" lon="4.84327">
        <ele>176.06</ele>
        <time>2016-10-30T15:36:32Z</time>
      </trkpt>
      <trkpt lat="50.43936" lon="4.84356">
        <ele>177.5</ele>
        <time>2016-10-30T15:36:49Z</time>
      </trkpt>
      <trkpt lat="50.43943" lon="4.84381">
        <ele>177.98</ele>
        <time>2016-10-30T15:37:04Z</time>
      </trkpt>
      <trkpt lat="50.43951" lon="4.84407">
        <ele>178.94</ele>
        <time>2016-10-30T15:37:19Z</time>
      </trkpt>
      <trkpt lat="50.43957" lon="4.84435">
        <ele>179.9</ele>
        <time>2016-10-30T15:37:36Z</time>
      </trkpt>
      <trkpt lat="50.43966" lon="4.84458">
        <ele>181.83</ele>
        <time>2016-10-30T15:37:53Z</time>
      </trkpt>
      <trkpt lat="50.43969" lon="4.8449">
        <ele>182.79</ele>
        <time>2016-10-30T15:38:10Z</time>
      </trkpt>
      <trkpt lat="50.4397" lon="4.84512">
        <ele>182.79</ele>
        <time>2016-10-30T15:38:25Z</time>
      </trkpt>
      <trkpt lat="50.43968" lon="4.84541">
        <ele>183.27</ele>
        <time>2016-10-30T15:38:41Z</time>
      </trkpt>
      <trkpt lat="50.43971" lon="4.8457">
        <ele>184.23</ele>
        <time>2016-10-30T15:38:54Z</time>
      </trkpt>
      <trkpt lat="50.43972" lon="4.846">
        <ele>186.15</ele>
        <time>2016-10-30T15:39:09Z</time>
      </trkpt>
      <trkpt lat="50.43972" lon="4.84629">
        <ele>186.15</ele>
        <time>2016-10-30T15:39:28Z</time>
      </trkpt>
      <trkpt lat="50.43973" lon="4.84661">
        <ele>187.11</ele>
        <time>2016-10-30T15:39:47Z</time>
      </trkpt>
      <trkpt lat="50.43975" lon="4.84692">
        <ele>187.11</ele>
        <time>2016-10-30T15:40:01Z</time>
      </trkpt>
      <trkpt lat="50.43979" lon="4.84711">
        <ele>187.11</ele>
        <time>2016-10-30T15:40:12Z</time>
      </trkpt>
      <trkpt lat="50.4398" lon="4.84734">
        <ele>187.11</ele>
        <time>2016-10-30T15:40:27Z</time>
      </trkpt>
      <trkpt lat="50.43981" lon="4.84755">
        <ele>187.11</ele>
        <time>2016-10-30T15:40:42Z</time>
      </trkpt>
      <trkpt lat="50.43989" lon="4.8479">
        <ele>186.63</ele>
        <time>2016-10-30T15:41:00Z</time>
      </trkpt>
      <trkpt lat="50.43992" lon="4.84816">
        <ele>187.59</ele>
        <time>2016-10-30T15:41:15Z</time>
      </trkpt>
      <trkpt lat="50.43996" lon="4.84837">
        <ele>189.52</ele>
        <time>2016-10-30T15:41:29Z</time>
      </trkpt>
      <trkpt lat="50.44006" lon="4.84852">
        <ele>190.96</ele>
        <time>2016-10-30T15:41:45Z</time>
      </trkpt>
      <trkpt lat="50.44021" lon="4.8486">
        <ele>191.44</ele>
        <time>2016-10-30T15:42:01Z</time>
      </trkpt>
      <trkpt lat="50.44025" lon="4.84864">
        <ele>191.92</ele>
        <time>2016-10-30T15:42:06Z</time>
      </trkpt>
      <trkpt lat="50.44042" lon="4.8489">
        <ele>192.4</ele>
        <time>2016-10-30T15:42:23Z</time>
      </trkpt>
      <trkpt lat="50.44048" lon="4.84905">
        <ele>192.4</ele>
        <time>2016-10-30T15:42:35Z</time>
      </trkpt>
      <trkpt lat="50.44049" lon="4.84907">
        <ele>192.4</ele>
        <time>2016-10-30T15:42:36Z</time>
      </trkpt>
      <trkpt lat="50.44052" lon="4.84913">
        <ele>192.4</ele>
        <time>2016-10-30T15:42:40Z</time>
      </trkpt>
      <trkpt lat="50.44069" lon="4.84946">
        <ele>190.96</ele>
        <time>2016-10-30T15:43:00Z</time>
      </trkpt>
      <trkpt lat="50.44073" lon="4.84964">
        <ele>190.96</ele>
        <time>2016-10-30T15:43:21Z</time>
      </trkpt>
      <trkpt lat="50.44081" lon="4.84972">
        <ele>190.96</ele>
        <time>2016-10-30T15:43:37Z</time>
      </trkpt>
      <trkpt lat="50.44087" lon="4.84977">
        <ele>190.96</ele>
        <time>2016-10-30T15:43:42Z</time>
      </trkpt>
      <trkpt lat="50.44094" lon="4.84983">
        <ele>190.96</ele>
        <time>2016-10-30T15:43:48Z</time>
      </trkpt>
      <trkpt lat="50.44099" lon="4.85">
        <ele>191.92</ele>
        <time>2016-10-30T15:44:02Z</time>
      </trkpt>
      <trkpt lat="50.44102" lon="4.85006">
        <ele>191.92</ele>
        <time>2016-10-30T15:44:06Z</time>
      </trkpt>
      <trkpt lat="50.44116" lon="4.85023">
        <ele>191.92</ele>
        <time>2016-10-30T15:44:19Z</time>
      </trkpt>
      <trkpt lat="50.44122" lon="4.85031">
        <ele>191.92</ele>
        <time>2016-10-30T15:44:26Z</time>
      </trkpt>
      <trkpt lat="50.44127" lon="4.85037">
        <ele>191.92</ele>
        <time>2016-10-30T15:44:31Z</time>
      </trkpt>
      <trkpt lat="50.44143" lon="4.8505">
        <ele>192.4</ele>
        <time>2016-10-30T15:44:46Z</time>
      </trkpt>
      <trkpt lat="50.44145" lon="4.85052">
        <ele>192.4</ele>
        <time>2016-10-30T15:44:50Z</time>
      </trkpt>
      <trkpt lat="50.44159" lon="4.85062">
        <ele>192.4</ele>
        <time>2016-10-30T15:45:05Z</time>
      </trkpt>
      <trkpt lat="50.44172" lon="4.8507">
        <ele>192.4</ele>
        <time>2016-10-30T15:45:19Z</time>
      </trkpt>
      <trkpt lat="50.44185" lon="4.85075">
        <ele>192.4</ele>
        <time>2016-10-30T15:45:35Z</time>
      </trkpt>
      <trkpt lat="50.4419" lon="4.85077">
        <ele>192.4</ele>
        <time>2016-10-30T15:45:41Z</time>
      </trkpt>
      <trkpt lat="50.44204" lon="4.85082">
        <ele>192.4</ele>
        <time>2016-10-30T15:45:56Z</time>
      </trkpt>
      <trkpt lat="50.44219" lon="4.85084">
        <ele>192.4</ele>
        <time>2016-10-30T15:46:23Z</time>
      </trkpt>
      <trkpt lat="50.44228" lon="4.85088">
        <ele>192.4</ele>
        <time>2016-10-30T15:46:29Z</time>
      </trkpt>
      <trkpt lat="50.44239" lon="4.85095">
        <ele>190.96</ele>
        <time>2016-10-30T15:46:40Z</time>
      </trkpt>
      <trkpt lat="50.44242" lon="4.85092">
        <ele>190.96</ele>
        <time>2016-10-30T15:46:55Z</time>
      </trkpt>
      <trkpt lat="50.4425" lon="4.85076">
        <ele>189.04</ele>
        <time>2016-10-30T15:47:13Z</time>
      </trkpt>
      <trkpt lat="50.4426" lon="4.85067">
        <ele>187.11</ele>
        <time>2016-10-30T15:47:28Z</time>
      </trkpt>
      <trkpt lat="50.44265" lon="4.85055">
        <ele>185.19</ele>
        <time>2016-10-30T15:47:40Z</time>
      </trkpt>
      <trkpt lat="50.44267" lon="4.85044">
        <ele>182.31</ele>
        <time>2016-10-30T15:47:55Z</time>
      </trkpt>
      <trkpt lat="50.4427" lon="4.85031">
        <ele>180.87</ele>
        <time>2016-10-30T15:48:10Z</time>
      </trkpt>
      <trkpt lat="50.44276" lon="4.85016">
        <ele>178.94</ele>
        <time>2016-10-30T15:48:23Z</time>
      </trkpt>
      <trkpt lat="50.44278" lon="4.84999">
        <ele>177.02</ele>
        <time>2016-10-30T15:48:37Z</time>
      </trkpt>
      <trkpt lat="50.44279" lon="4.8499">
        <ele>176.06</ele>
        <time>2016-10-30T15:48:55Z</time>
      </trkpt>
      <trkpt lat="50.44283" lon="4.85004">
        <ele>173.66</ele>
        <time>2016-10-30T15:49:11Z</time>
      </trkpt>
      <trkpt lat="50.4429" lon="4.85027">
        <ele>170.77</ele>
        <time>2016-10-30T15:49:25Z</time>
      </trkpt>
      <trkpt lat="50.4429" lon="4.85045">
        <ele>168.37</ele>
        <time>2016-10-30T15:49:39Z</time>
      </trkpt>
      <trkpt lat="50.44295" lon="4.8506">
        <ele>164.52</ele>
        <time>2016-10-30T15:49:52Z</time>
      </trkpt>
      <trkpt lat="50.44304" lon="4.85073">
        <ele>162.12</ele>
        <time>2016-10-30T15:50:06Z</time>
      </trkpt>
      <trkpt lat="50.44315" lon="4.8508">
        <ele>159.24</ele>
        <time>2016-10-30T15:50:22Z</time>
      </trkpt>
      <trkpt lat="50.44322" lon="4.85078">
        <ele>158.27</ele>
        <time>2016-10-30T15:50:30Z</time>
      </trkpt>
      <trkpt lat="50.44329" lon="4.85087">
        <ele>157.31</ele>
        <time>2016-10-30T15:50:43Z</time>
      </trkpt>
      <trkpt lat="50.4434" lon="4.85112">
        <ele>154.91</ele>
        <time>2016-10-30T15:50:58Z</time>
      </trkpt>
      <trkpt lat="50.44348" lon="4.85129">
        <ele>152.51</ele>
        <time>2016-10-30T15:51:14Z</time>
      </trkpt>
      <trkpt lat="50.4435" lon="4.8515">
        <ele>149.62</ele>
        <time>2016-10-30T15:51:29Z</time>
      </trkpt>
      <trkpt lat="50.44347" lon="4.85169">
        <ele>147.7</ele>
        <time>2016-10-30T15:51:45Z</time>
      </trkpt>
      <trkpt lat="50.44349" lon="4.85185">
        <ele>144.82</ele>
        <time>2016-10-30T15:52:03Z</time>
      </trkpt>
      <trkpt lat="50.44356" lon="4.85193">
        <ele>143.85</ele>
        <time>2016-10-30T15:52:19Z</time>
      </trkpt>
      <trkpt lat="50.44374" lon="4.85204">
        <ele>141.93</ele>
        <time>2016-10-30T15:52:32Z</time>
      </trkpt>
      <trkpt lat="50.44388" lon="4.85216">
        <ele>139.53</ele>
        <time>2016-10-30T15:52:43Z</time>
      </trkpt>
      <trkpt lat="50.44391" lon="4.85238">
        <ele>136.64</ele>
        <time>2016-10-30T15:53:00Z</time>
      </trkpt>
      <trkpt lat="50.44396" lon="4.85253">
        <ele>133.28</ele>
        <time>2016-10-30T15:53:15Z</time>
      </trkpt>
      <trkpt lat="50.44401" lon="4.85265">
        <ele>130.88</ele>
        <time>2016-10-30T15:53:28Z</time>
      </trkpt>
      <trkpt lat="50.44403" lon="4.85274">
        <ele>128.95</ele>
        <time>2016-10-30T15:53:42Z</time>
      </trkpt>
      <trkpt lat="50.44409" lon="4.85279">
        <ele>128.95</ele>
        <time>2016-10-30T15:54:01Z</time>
      </trkpt>
      <trkpt lat="50.4441" lon="4.8528">
        <ele>127.51</ele>
        <time>2016-10-30T15:54:03Z</time>
      </trkpt>
      <trkpt lat="50.44415" lon="4.85291">
        <ele>125.11</ele>
        <time>2016-10-30T15:54:17Z</time>
      </trkpt>
      <trkpt lat="50.4442" lon="4.85303">
        <ele>122.22</ele>
        <time>2016-10-30T15:54:33Z</time>
      </trkpt>
      <trkpt lat="50.44424" lon="4.85315">
        <ele>119.82</ele>
        <time>2016-10-30T15:54:48Z</time>
      </trkpt>
      <trkpt lat="50.44429" lon="4.85327">
        <ele>116.94</ele>
        <time>2016-10-30T15:55:05Z</time>
      </trkpt>
      <trkpt lat="50.44436" lon="4.8534">
        <ele>114.05</ele>
        <time>2016-10-30T15:55:19Z</time>
      </trkpt>
      <trkpt lat="50.44441" lon="4.85359">
        <ele>111.17</ele>
        <time>2016-10-30T15:55:34Z</time>
      </trkpt>
      <trkpt lat="50.44441" lon="4.85374">
        <ele>108.77</ele>
        <time>2016-10-30T15:55:48Z</time>
      </trkpt>
      <trkpt lat="50.44449" lon="4.85392">
        <ele>106.36</ele>
        <time>2016-10-30T15:56:02Z</time>
      </trkpt>
      <trkpt lat="50.44454" lon="4.85404">
        <ele>103.96</ele>
        <time>2016-10-30T15:56:15Z</time>
      </trkpt>
      <trkpt lat="50.4446" lon="4.85406">
        <ele>102.52</ele>
        <time>2016-10-30T15:56:25Z</time>
      </trkpt>
      <trkpt lat="50.44469" lon="4.85421">
        <ele>100.6</ele>
        <time>2016-10-30T15:56:41Z</time>
      </trkpt>
      <trkpt lat="50.44472" lon="4.85422">
        <ele>100.6</ele>
        <time>2016-10-30T15:57:02Z</time>
      </trkpt>
      <trkpt lat="50.44476" lon="4.85417">
        <ele>90.5</ele>
        <time>2016-10-30T15:57:17Z</time>
      </trkpt>
      <trkpt lat="50.44476" lon="4.85417">
        <ele>101.08</ele>
        <time>2016-10-30T15:57:18Z</time>
      </trkpt>
      <trkpt lat="50.44476" lon="4.8542">
        <ele>100.11</ele>
        <time>2016-10-30T15:57:31Z</time>
      </trkpt>
      <trkpt lat="50.44475" lon="4.85421">
        <ele>100.11</ele>
        <time>2016-10-30T15:57:50Z</time>
      </trkpt>
      <trkpt lat="50.44481" lon="4.85421">
        <ele>100.11</ele>
        <time>2016-10-30T15:58:11Z</time>
      </trkpt>
      <trkpt lat="50.44479" lon="4.85424">
        <ele>100.11</ele>
        <time>2016-10-30T15:58:29Z</time>
      </trkpt>
      <trkpt lat="50.44481" lon="4.85426">
        <ele>100.11</ele>
        <time>2016-10-30T15:58:51Z</time>
      </trkpt>
      <trkpt lat="50.44485" lon="4.85429">
        <ele>100.11</ele>
        <time>2016-10-30T15:59:13Z</time>
      </trkpt>
      <trkpt lat="50.44485" lon="4.85427">
        <ele>100.11</ele>
        <time>2016-10-30T15:59:31Z</time>
      </trkpt>
      <trkpt lat="50.44479" lon="4.85422">
        <ele>100.11</ele>
        <time>2016-10-30T15:59:55Z</time>
      </trkpt>
      <trkpt lat="50.44478" lon="4.85426">
        <ele>100.11</ele>
        <time>2016-10-30T16:00:14Z</time>
      </trkpt>
      <trkpt lat="50.44479" lon="4.85429">
        <ele>100.11</ele>
        <time>2016-10-30T16:00:39Z</time>
      </trkpt>
      <trkpt lat="50.44479" lon="4.85428">
        <ele>100.11</ele>
        <time>2016-10-30T16:00:58Z</time>
      </trkpt>
      <trkpt lat="50.44478" lon="4.85434">
        <ele>100.11</ele>
        <time>2016-10-30T16:01:24Z</time>
      </trkpt>
      <trkpt lat="50.44478" lon="4.85434">
        <ele>100.11</ele>
        <time>2016-10-30T16:01:41Z</time>
      </trkpt>
      <trkpt lat="50.44481" lon="4.85431">
        <ele>100.6</ele>
        <time>2016-10-30T16:02:05Z</time>
      </trkpt>
      <trkpt lat="50.4448" lon="4.85433">
        <ele>100.6</ele>
        <time>2016-10-30T16:02:24Z</time>
      </trkpt>
      <trkpt lat="50.44486" lon="4.85442">
        <ele>100.11</ele>
        <time>2016-10-30T16:02:39Z</time>
      </trkpt>
      <trkpt lat="50.44489" lon="4.85448">
        <ele>99.15</ele>
        <time>2016-10-30T16:02:50Z</time>
      </trkpt>
      <trkpt lat="50.44492" lon="4.85461">
        <ele>98.19</ele>
        <time>2016-10-30T16:03:04Z</time>
      </trkpt>
      <trkpt lat="50.44498" lon="4.85478">
        <ele>96.75</ele>
        <time>2016-10-30T16:03:21Z</time>
      </trkpt>
      <trkpt lat="50.44503" lon="4.85492">
        <ele>95.31</ele>
        <time>2016-10-30T16:03:36Z</time>
      </trkpt>
      <trkpt lat="50.44509" lon="4.8551">
        <ele>93.87</ele>
        <time>2016-10-30T16:03:50Z</time>
      </trkpt>
      <trkpt lat="50.4451" lon="4.85514">
        <ele>93.39</ele>
        <time>2016-10-30T16:03:53Z</time>
      </trkpt>
      <trkpt lat="50.44518" lon="4.85532">
        <ele>91.94</ele>
        <time>2016-10-30T16:04:08Z</time>
      </trkpt>
      <trkpt lat="50.44524" lon="4.85546">
        <ele>90.5</ele>
        <time>2016-10-30T16:04:19Z</time>
      </trkpt>
      <trkpt lat="50.44527" lon="4.85551">
        <ele>90.02</ele>
        <time>2016-10-30T16:04:23Z</time>
      </trkpt>
      <trkpt lat="50.44529" lon="4.85556">
        <ele>90.02</ele>
        <time>2016-10-30T16:04:27Z</time>
      </trkpt>
      <trkpt lat="50.4453" lon="4.8556">
        <ele>89.54</ele>
        <time>2016-10-30T16:04:30Z</time>
      </trkpt>
      <trkpt lat="50.44532" lon="4.85569">
        <ele>89.06</ele>
        <time>2016-10-30T16:04:38Z</time>
      </trkpt>
      <trkpt lat="50.44537" lon="4.85585">
        <ele>87.62</ele>
        <time>2016-10-30T16:04:49Z</time>
      </trkpt>
      <trkpt lat="50.44541" lon="4.85587">
        <ele>87.14</ele>
        <time>2016-10-30T16:04:53Z</time>
      </trkpt>
      <trkpt lat="50.44555" lon="4.85596">
        <ele>86.18</ele>
        <time>2016-10-30T16:05:08Z</time>
      </trkpt>
      <trkpt lat="50.44561" lon="4.85594">
        <ele>86.18</ele>
        <time>2016-10-30T16:05:24Z</time>
      </trkpt>
      <trkpt lat="50.44555" lon="4.85607">
        <ele>86.18</ele>
        <time>2016-10-30T16:05:39Z</time>
      </trkpt>
      <trkpt lat="50.44555" lon="4.85608">
        <ele>86.18</ele>
        <time>2016-10-30T16:05:40Z</time>
      </trkpt>
      <trkpt lat="50.44554" lon="4.85612">
        <ele>86.18</ele>
        <time>2016-10-30T16:05:42Z</time>
      </trkpt>
      <trkpt lat="50.44556" lon="4.85634">
        <ele>85.21</ele>
        <time>2016-10-30T16:05:55Z</time>
      </trkpt>
      <trkpt lat="50.44558" lon="4.85649">
        <ele>83.77</ele>
        <time>2016-10-30T16:06:08Z</time>
      </trkpt>
      <trkpt lat="50.44556" lon="4.85666">
        <ele>83.29</ele>
        <time>2016-10-30T16:06:20Z</time>
      </trkpt>
      <trkpt lat="50.44557" lon="4.85675">
        <ele>82.81</ele>
        <time>2016-10-30T16:06:24Z</time>
      </trkpt>
      <trkpt lat="50.44558" lon="4.85687">
        <ele>82.81</ele>
        <time>2016-10-30T16:06:30Z</time>
      </trkpt>
      <trkpt lat="50.44559" lon="4.85715">
        <ele>81.37</ele>
        <time>2016-10-30T16:06:45Z</time>
      </trkpt>
      <trkpt lat="50.44558" lon="4.8572">
        <ele>81.37</ele>
        <time>2016-10-30T16:06:47Z</time>
      </trkpt>
      <trkpt lat="50.44555" lon="4.85751">
        <ele>80.89</ele>
        <time>2016-10-30T16:07:04Z</time>
      </trkpt>
      <trkpt lat="50.4455" lon="4.85781">
        <ele>80.41</ele>
        <time>2016-10-30T16:07:20Z</time>
      </trkpt>
      <trkpt lat="50.44546" lon="4.85805">
        <ele>79.93</ele>
        <time>2016-10-30T16:07:31Z</time>
      </trkpt>
      <trkpt lat="50.44546" lon="4.85823">
        <ele>79.93</ele>
        <time>2016-10-30T16:07:47Z</time>
      </trkpt>
      <trkpt lat="50.44547" lon="4.85825">
        <ele>79.45</ele>
        <time>2016-10-30T16:07:48Z</time>
      </trkpt>
      <trkpt lat="50.44548" lon="4.85828">
        <ele>73.68</ele>
        <time>2016-10-30T16:07:50Z</time>
      </trkpt>
      <trkpt lat="50.44548" lon="4.8583">
        <ele>79.45</ele>
        <time>2016-10-30T16:07:51Z</time>
      </trkpt>
      <trkpt lat="50.44549" lon="4.85832">
        <ele>79.45</ele>
        <time>2016-10-30T16:07:53Z</time>
      </trkpt>
      <trkpt lat="50.44549" lon="4.85837">
        <ele>79.45</ele>
        <time>2016-10-30T16:07:55Z</time>
      </trkpt>
      <trkpt lat="50.44547" lon="4.85863">
        <ele>79.45</ele>
        <time>2016-10-30T16:08:11Z</time>
      </trkpt>
      <trkpt lat="50.44539" lon="4.85877">
        <ele>79.45</ele>
        <time>2016-10-30T16:08:19Z</time>
      </trkpt>
      <trkpt lat="50.44539" lon="4.85888">
        <ele>78</ele>
        <time>2016-10-30T16:08:24Z</time>
      </trkpt>
      <trkpt lat="50.44543" lon="4.85892">
        <ele>78</ele>
        <time>2016-10-30T16:08:26Z</time>
      </trkpt>
      <trkpt lat="50.44549" lon="4.85897">
        <ele>78</ele>
        <time>2016-10-30T16:08:33Z</time>
      </trkpt>
      <trkpt lat="50.4456" lon="4.85907">
        <ele>78</ele>
        <time>2016-10-30T16:08:47Z</time>
      </trkpt>
      <trkpt lat="50.44575" lon="4.85911">
        <ele>78.97</ele>
        <time>2016-10-30T16:09:04Z</time>
      </trkpt>
      <trkpt lat="50.44593" lon="4.85912">
        <ele>78.97</ele>
        <time>2016-10-30T16:09:23Z</time>
      </trkpt>
      <trkpt lat="50.44601" lon="4.85915">
        <ele>78.97</ele>
        <time>2016-10-30T16:09:32Z</time>
      </trkpt>
      <trkpt lat="50.44612" lon="4.85915">
        <ele>78.97</ele>
        <time>2016-10-30T16:09:43Z</time>
      </trkpt>
      <trkpt lat="50.44615" lon="4.85912">
        <ele>78.97</ele>
        <time>2016-10-30T16:09:56Z</time>
      </trkpt>
      <trkpt lat="50.44616" lon="4.85913">
        <ele>79.45</ele>
        <time>2016-10-30T16:10:28Z</time>
      </trkpt>
      <trkpt lat="50.44618" lon="4.85915">
        <ele>79.45</ele>
        <time>2016-10-30T16:10:56Z</time>
      </trkpt>
    </trkseg>
  </trk>
</gpx>